Provisional Data: Little Juniata River near Tipton, PA


Please select a monitoring station.
Please select start date.
Please select start date.

Toggle Unit: C/F Toggle Unit: C/F
Sample Time Temperature (C) Temperature (F) Specific Conductivity (mS/cm) pH   Turbidity (NTU+) DO (mg/L)
12/4/2020 12:00:00 AM -99999.99 -179968 -99999.99 -99999.99 -99999.99 -99999.99
12/4/2020 12:15:00 AM -99999.99 -179968 -99999.99 -99999.99 -99999.99 -99999.99
12/4/2020 12:30:00 AM -99999.99 -179968 -99999.99 -99999.99 -99999.99 -99999.99
12/4/2020 12:45:00 AM -99999.99 -179968 -99999.99 -99999.99 -99999.99 -99999.99
12/4/2020 1:00:00 AM -99999.99 -179968 -99999.99 -99999.99 -99999.99 -99999.99
12/4/2020 1:15:00 AM -99999.99 -179968 -99999.99 -99999.99 -99999.99 -99999.99
12/4/2020 1:30:00 AM -99999.99 -179968 -99999.99 -99999.99 -99999.99 -99999.99
12/4/2020 1:45:00 AM -99999.99 -179968 -99999.99 -99999.99 -99999.99 -99999.99
12/4/2020 2:00:00 AM -99999.99 -179968 -99999.99 -99999.99 -99999.99 -99999.99
12/4/2020 2:15:00 AM -99999.99 -179968 -99999.99 -99999.99 -99999.99 -99999.99
12/4/2020 2:30:00 AM -99999.99 -179968 -99999.99 -99999.99 -99999.99 -99999.99
12/4/2020 2:45:00 AM -99999.99 -179968 -99999.99 -99999.99 -99999.99 -99999.99
12/4/2020 3:00:00 AM -99999.99 -179968 -99999.99 -99999.99 -99999.99 -99999.99
12/4/2020 3:15:00 AM -99999.99 -179968 -99999.99 -99999.99 -99999.99 -99999.99
12/4/2020 3:30:00 AM -99999.99 -179968 -99999.99 -99999.99 -99999.99 -99999.99
12/4/2020 3:45:00 AM -99999.99 -179968 -99999.99 -99999.99 -99999.99 -99999.99
12/4/2020 4:00:00 AM -99999.99 -179968 -99999.99 -99999.99 -99999.99 -99999.99
12/4/2020 4:15:00 AM -99999.99 -179968 -99999.99 -99999.99 -99999.99 -99999.99
12/4/2020 4:30:00 AM -99999.99 -179968 -99999.99 -99999.99 -99999.99 -99999.99
12/4/2020 4:45:00 AM -99999.99 -179968 -99999.99 -99999.99 -99999.99 -99999.99
12/4/2020 5:00:00 AM -99999.99 -179968 -99999.99 -99999.99 -99999.99 -99999.99
12/4/2020 5:15:00 AM -99999.99 -179968 -99999.99 -99999.99 -99999.99 -99999.99
12/4/2020 5:30:00 AM -99999.99 -179968 -99999.99 -99999.99 -99999.99 -99999.99
12/4/2020 5:45:00 AM -99999.99 -179968 -99999.99 -99999.99 -99999.99 -99999.99
12/4/2020 6:00:00 AM -99999.99 -179968 -99999.99 -99999.99 -99999.99 -99999.99
12/4/2020 6:15:00 AM -99999.99 -179968 -99999.99 -99999.99 -99999.99 -99999.99
12/4/2020 6:30:00 AM -99999.99 -179968 -99999.99 -99999.99 -99999.99 -99999.99
12/4/2020 6:45:00 AM -99999.99 -179968 -99999.99 -99999.99 -99999.99 -99999.99
12/4/2020 7:00:00 AM -99999.99 -179968 -99999.99 -99999.99 -99999.99 -99999.99
12/4/2020 7:15:00 AM -99999.99 -179968 -99999.99 -99999.99 -99999.99 -99999.99
12/4/2020 7:30:00 AM -99999.99 -179968 -99999.99 -99999.99 -99999.99 -99999.99
12/4/2020 7:45:00 AM -99999.99 -179968 -99999.99 -99999.99 -99999.99 -99999.99
12/4/2020 8:00:00 AM -99999.99 -179968 -99999.99 -99999.99 -99999.99 -99999.99
12/4/2020 8:15:00 AM -99999.99 -179968 -99999.99 -99999.99 -99999.99 -99999.99
12/4/2020 8:30:00 AM -99999.99 -179968 -99999.99 -99999.99 -99999.99 -99999.99
12/4/2020 8:45:00 AM -99999.99 -179968 -99999.99 -99999.99 -99999.99 -99999.99
12/4/2020 9:00:00 AM -99999.99 -179968 -99999.99 -99999.99 -99999.99 -99999.99
12/4/2020 9:15:00 AM -99999.99 -179968 -99999.99 -99999.99 -99999.99 -99999.99
12/4/2020 9:30:00 AM -99999.99 -179968 -99999.99 -99999.99 -99999.99 -99999.99
12/4/2020 9:45:00 AM -99999.99 -179968 -99999.99 -99999.99 -99999.99 -99999.99
12/4/2020 10:00:00 AM -99999.99 -179968 -99999.99 -99999.99 -99999.99 -99999.99
12/4/2020 10:15:00 AM -99999.99 -179968 -99999.99 -99999.99 -99999.99 -99999.99
12/4/2020 10:30:00 AM -99999.99 -179968 -99999.99 -99999.99 -99999.99 -99999.99
12/4/2020 10:45:00 AM -99999.99 -179968 -99999.99 -99999.99 -99999.99 -99999.99
12/4/2020 11:00:00 AM -99999.99 -179968 -99999.99 -99999.99 -99999.99 -99999.99
12/7/2020 12:00:00 PM 3.38 38.084 0.308 8.68 2.36 15.45
12/7/2020 12:15:00 PM 3.43 38.174 0.306 8.72 3.09 15.61
12/7/2020 12:30:00 PM 3.46 38.228 0.305 8.79 2.2 15.64
12/7/2020 12:45:00 PM 3.49 38.282 0.305 8.83 2.14 15.72
12/7/2020 1:00:00 PM 3.53 38.354 0.304 8.86 2.1 15.8
12/10/2020 11:15:00 AM 4.1 39.38 0.316 8.47 3.33 14.71
12/10/2020 11:30:00 AM 4.51 40.118 0.317 8.88 1.78 15.77
12/10/2020 11:45:00 AM 4.61 40.298 0.317 8.92 1.78 15.87
12/10/2020 12:00:00 PM 4.68 40.424 0.317 8.96 1.8 15.96
12/10/2020 12:15:00 PM 4.76 40.568 0.316 9 1.8 16.04
12/10/2020 12:30:00 PM 4.85 40.73 0.316 9.04 1.86 16.08
12/10/2020 12:45:00 PM 4.93 40.874 0.315 9.07 1.8 16.12
12/10/2020 1:00:00 PM 5.03 41.054 0.315 9.09 1.85 16.13
12/10/2020 1:15:00 PM 5.11 41.198 0.315 9.12 1.82 16.13
12/10/2020 1:30:00 PM 5.18 41.324 0.315 9.14 1.85 16.11
12/10/2020 1:45:00 PM 5.23 41.414 0.315 9.16 1.87 16.08
12/10/2020 2:00:00 PM 5.28 41.504 0.315 9.17 1.88 16.04
12/10/2020 2:15:00 PM 5.34 41.612 0.315 9.19 1.84 15.98
12/10/2020 2:30:00 PM 5.38 41.684 0.314 9.21 1.88 15.92
12/10/2020 2:45:00 PM 5.41 41.738 0.314 9.22 1.88 15.84
12/10/2020 3:00:00 PM 5.43 41.774 0.314 9.23 1.83 15.74
12/10/2020 3:15:00 PM 5.43 41.774 0.313 9.23 1.86 15.63
12/10/2020 3:30:00 PM 5.43 41.774 0.313 9.23 1.89 15.5
12/10/2020 3:45:00 PM 5.4 41.72 0.313 9.23 1.89 15.34
12/10/2020 4:00:00 PM 5.38 41.684 0.312 9.21 1.88 15.14
12/10/2020 4:15:00 PM 5.35 41.63 0.312 9.19 1.84 14.92
12/10/2020 4:30:00 PM 5.32 41.576 0.312 9.17 1.91 14.67
12/10/2020 4:45:00 PM 5.28 41.504 0.312 9.14 1.91 14.38
12/10/2020 5:00:00 PM 5.24 41.432 0.311 9.1 1.9 14.06
12/10/2020 5:15:00 PM 5.2 41.36 0.311 9.05 1.89 13.77
12/10/2020 5:30:00 PM 5.16 41.288 0.31 9.01 1.94 13.51
12/10/2020 5:45:00 PM 5.11 41.198 0.31 8.97 1.88 13.3
12/10/2020 6:00:00 PM 5.07 41.126 0.31 8.92 1.88 13.12
12/10/2020 6:15:00 PM 5.02 41.036 0.31 8.88 2.06 12.98
12/10/2020 6:30:00 PM 4.98 40.964 0.31 8.84 1.99 12.87
12/10/2020 6:45:00 PM 4.93 40.874 0.31 8.81 1.94 12.79
12/10/2020 7:00:00 PM 4.87 40.766 0.311 8.77 1.92 12.72
12/10/2020 7:15:00 PM 4.81 40.658 0.311 8.73 2.12 12.67
12/10/2020 7:30:00 PM 4.75 40.55 0.311 8.7 1.95 12.62
12/10/2020 7:45:00 PM 4.69 40.442 0.312 8.66 1.95 12.59
12/10/2020 8:00:00 PM 4.62 40.316 0.312 8.62 1.9 12.55
12/10/2020 8:15:00 PM 4.56 40.208 0.313 8.57 1.92 12.51
12/10/2020 8:30:00 PM 4.49 40.082 0.314 8.51 1.96 12.47
12/10/2020 8:45:00 PM 4.44 39.992 0.315 8.46 1.95 12.44
12/10/2020 9:00:00 PM 4.37 39.866 0.316 8.39 2.1 12.4
12/10/2020 9:15:00 PM 4.31 39.758 0.318 8.32 2.51 12.37
12/10/2020 9:30:00 PM 4.25 39.65 0.319 8.26 2.03 12.35
12/10/2020 9:45:00 PM 4.2 39.56 0.321 8.2 2.33 12.32
12/10/2020 10:00:00 PM 4.13 39.434 0.321 8.14 2.02 12.3
12/10/2020 10:15:00 PM 4.08 39.344 0.322 8.08 2.17 12.28
12/10/2020 10:30:00 PM 4.02 39.236 0.322 8.04 1.97 12.27
12/10/2020 10:45:00 PM 3.96 39.128 0.322 8 2.24 12.27
12/10/2020 11:00:00 PM 3.89 39.002 0.322 7.96 2.06 12.26
12/10/2020 11:15:00 PM 3.84 38.912 0.322 7.93 2.52 12.26
12/10/2020 11:30:00 PM 3.78 38.804 0.322 7.9 3.52 12.24
12/10/2020 11:45:00 PM 3.73 38.714 0.322 7.88 2.01 12.25
12/11/2020 12:00:00 AM 3.68 38.624 0.322 7.86 2.03 12.25
12/11/2020 12:15:00 AM 3.63 38.534 0.322 7.85 2 12.25
12/11/2020 12:30:00 AM 3.58 38.444 0.322 7.83 2 12.26
12/11/2020 12:45:00 AM 3.53 38.354 0.321 7.82 3.78 12.27
12/11/2020 1:00:00 AM 3.48 38.264 0.32 7.8 2.04 12.28
12/11/2020 1:15:00 AM 3.44 38.192 0.32 7.79 2.03 12.29
12/11/2020 1:30:00 AM 3.39 38.102 0.319 7.78 2.04 12.3
12/11/2020 1:45:00 AM 3.35 38.03 0.319 7.77 2.01 12.31
12/11/2020 2:00:00 AM 3.31 37.958 0.319 7.77 2.05 12.32
12/11/2020 2:15:00 AM 3.26 37.868 0.319 7.76 1.99 12.34
12/11/2020 2:30:00 AM 3.22 37.796 0.319 7.75 2.07 12.35
12/11/2020 2:45:00 AM 3.19 37.742 0.32 7.75 2.03 12.37
12/11/2020 3:00:00 AM 3.16 37.688 0.321 7.74 2.13 12.37
12/11/2020 3:15:00 AM 3.12 37.616 0.321 7.74 2.06 12.38
12/11/2020 3:30:00 AM 3.09 37.562 0.322 7.74 1.97 12.4
12/11/2020 3:45:00 AM 3.06 37.508 0.323 7.73 2.09 12.41
12/11/2020 4:00:00 AM 3.02 37.436 0.323 7.73 2.01 12.42
12/11/2020 4:15:00 AM 2.99 37.382 0.324 7.72 2.04 12.44
12/11/2020 4:30:00 AM 2.96 37.328 0.324 7.72 2.04 12.45
12/11/2020 4:45:00 AM 2.93 37.274 0.325 7.73 2.08 12.46
12/11/2020 5:00:00 AM 2.89 37.202 0.325 7.7 2.05 12.47
12/11/2020 5:15:00 AM 2.86 37.148 0.326 7.72 2.09 12.49
12/11/2020 5:30:00 AM 2.83 37.094 0.327 7.71 2.06 12.5
12/11/2020 5:45:00 AM 2.8 37.04 0.327 7.71 2.07 12.51
12/11/2020 6:00:00 AM 2.76 36.968 0.328 7.71 2.03 12.52
12/11/2020 6:15:00 AM 2.73 36.914 0.328 7.71 2.08 12.53
12/11/2020 6:30:00 AM 2.7 36.86 0.329 7.71 2.12 12.55
12/11/2020 6:45:00 AM 2.67 36.806 0.329 7.7 2.08 12.56
12/11/2020 7:00:00 AM 2.64 36.752 0.329 7.7 2.03 12.58
12/11/2020 7:15:00 AM 2.6 36.68 0.329 7.7 2.12 12.59
12/11/2020 7:30:00 AM 2.57 36.626 0.329 7.7 2.64 12.61
12/11/2020 7:45:00 AM 2.55 36.59 0.33 7.71 2.11 12.67
12/11/2020 8:00:00 AM 2.52 36.536 0.33 7.73 2.25 12.79
12/11/2020 8:15:00 AM 2.51 36.518 0.33 7.77 2.08 13
12/11/2020 8:30:00 AM 2.5 36.5 0.331 7.81 2.03 13.25
12/11/2020 8:45:00 AM 2.51 36.518 0.331 7.89 2 13.58
12/11/2020 9:00:00 AM 2.54 36.572 0.331 7.96 2.03 13.93
12/11/2020 9:15:00 AM 2.57 36.626 0.33 8.07 6.44 14.29
12/11/2020 9:30:00 AM 2.63 36.734 0.33 8.18 3.36 14.62
12/11/2020 9:45:00 AM 2.7 36.86 0.33 8.29 2.32 14.94
12/11/2020 10:00:00 AM 2.82 37.076 0.329 8.41 2.12 15.26
12/11/2020 10:15:00 AM 2.95 37.31 0.328 8.51 2.03 15.55
12/11/2020 10:30:00 AM 3.14 37.652 0.327 8.62 2.07 15.85
12/11/2020 10:45:00 AM 3.34 38.012 0.327 8.71 2 16.08
12/11/2020 11:00:00 AM 3.48 38.264 0.327 8.78 2.13 16.3
12/11/2020 11:15:00 AM 3.66 38.588 0.326 8.85 1.98 16.47
12/11/2020 11:30:00 AM 3.82 38.876 0.325 8.92 1.98 16.6
12/11/2020 11:45:00 AM 3.87 38.966 0.325 8.96 2 16.66
12/11/2020 12:00:00 PM 3.96 39.128 0.324 9.01 2.1 16.71
12/11/2020 12:15:00 PM 4.06 39.308 0.323 9.04 1.95 16.74
12/11/2020 12:30:00 PM 4.13 39.434 0.322 9.07 2.2 16.76
12/11/2020 12:45:00 PM 4.22 39.596 0.321 9.11 2 16.79
12/11/2020 1:00:00 PM 4.3 39.74 0.321 9.12 1.94 16.81
12/11/2020 1:15:00 PM 4.36 39.848 0.32 9.15 1.92 16.81
12/11/2020 1:30:00 PM 4.41 39.938 0.319 9.17 1.95 16.78
12/11/2020 1:45:00 PM 4.46 40.028 0.319 9.19 1.9 16.75
12/11/2020 2:00:00 PM 4.51 40.118 0.319 9.21 2.78 16.7
12/11/2020 2:15:00 PM 4.57 40.226 0.319 9.23 2.09 16.68
12/11/2020 2:30:00 PM 4.6 40.28 0.318 9.23 2.05 16.57
12/11/2020 2:45:00 PM 4.63 40.334 0.318 9.25 1.89 16.48
12/11/2020 3:00:00 PM 4.64 40.352 0.318 9.25 1.92 16.33
12/11/2020 3:15:00 PM 4.67 40.406 0.317 9.25 1.9 16.18
12/11/2020 3:30:00 PM 4.69 40.442 0.317 9.26 1.92 16.03
12/11/2020 3:45:00 PM 4.71 40.478 0.316 9.26 1.9 15.9
12/11/2020 4:00:00 PM 4.71 40.478 0.316 9.25 2.02 15.74
12/11/2020 4:15:00 PM 4.7 40.46 0.316 9.24 1.98 15.53
12/11/2020 4:30:00 PM 4.67 40.406 0.316 9.22 1.96 15.26
12/11/2020 4:45:00 PM 4.64 40.352 0.316 9.19 1.93 14.95
12/11/2020 5:00:00 PM 4.61 40.298 0.317 9.14 2.11 14.59
12/11/2020 5:15:00 PM 4.58 40.244 0.317 9.1 1.99 14.27
12/11/2020 5:30:00 PM 4.54 40.172 0.317 9.05 1.9 13.98
12/11/2020 5:45:00 PM 4.52 40.136 0.317 9 2.05 13.73
12/11/2020 6:00:00 PM 4.49 40.082 0.317 8.97 2.03 13.53
12/11/2020 6:15:00 PM 4.47 40.046 0.317 8.93 2.06 13.35
12/11/2020 6:30:00 PM 4.45 40.01 0.317 8.89 1.97 13.21
12/11/2020 6:45:00 PM 4.42 39.956 0.317 8.85 1.98 13.09
12/11/2020 7:00:00 PM 4.4 39.92 0.317 8.82 2.03 13
12/11/2020 7:15:00 PM 4.37 39.866 0.317 8.79 2.07 12.92
12/11/2020 7:30:00 PM 4.35 39.83 0.318 8.75 2.06 12.85
12/11/2020 7:45:00 PM 4.33 39.794 0.318 8.72 2.03 12.79
12/11/2020 8:00:00 PM 4.31 39.758 0.318 8.68 1.99 12.74
12/11/2020 8:15:00 PM 4.29 39.722 0.318 8.64 2.03 12.69
12/11/2020 8:30:00 PM 4.25 39.65 0.319 8.6 2.04 12.64
12/11/2020 8:45:00 PM 4.2 39.56 0.319 8.54 2.06 12.59
12/11/2020 9:00:00 PM 4.15 39.47 0.32 8.49 2.05 12.55
12/11/2020 9:15:00 PM 4.11 39.398 0.321 8.42 2.02 12.5
12/11/2020 9:30:00 PM 4.07 39.326 0.322 8.36 2.04 12.46
12/11/2020 9:45:00 PM 4.02 39.236 0.323 8.3 1.99 12.43
12/11/2020 10:00:00 PM 3.98 39.164 0.323 8.23 1.98 12.4
12/11/2020 10:15:00 PM 3.93 39.074 0.324 8.17 1.98 12.38
12/11/2020 10:30:00 PM 3.88 38.984 0.324 8.12 2.07 12.35
12/11/2020 10:45:00 PM 3.83 38.894 0.324 8.07 1.97 12.34
12/11/2020 11:00:00 PM 3.79 38.822 0.325 8.02 2.03 12.33
12/11/2020 11:15:00 PM 3.75 38.75 0.325 7.98 1.98 12.31
12/11/2020 11:30:00 PM 3.71 38.678 0.325 7.94 1.99 12.3
12/11/2020 11:45:00 PM 3.67 38.606 0.325 7.91 2 12.29
12/12/2020 12:00:00 AM 3.63 38.534 0.326 7.88 2.01 12.28
12/12/2020 12:15:00 AM 3.61 38.498 0.326 7.86 2.15 12.27
12/12/2020 12:30:00 AM 3.57 38.426 0.326 7.84 2.05 12.27
12/12/2020 12:45:00 AM 3.55 38.39 0.326 7.82 1.99 12.26
12/12/2020 1:00:00 AM 3.54 38.372 0.326 7.81 1.97 12.26
12/12/2020 1:15:00 AM 3.52 38.336 0.326 7.79 2 12.26
12/12/2020 1:30:00 AM 3.5 38.3 0.325 7.79 1.95 12.25
12/12/2020 1:45:00 AM 3.48 38.264 0.325 7.78 1.94 12.26
12/12/2020 2:00:00 AM 3.45 38.21 0.325 7.77 2.4 12.26
12/12/2020 2:15:00 AM 3.42 38.156 0.325 7.76 2.02 12.27
12/12/2020 2:30:00 AM 3.4 38.12 0.324 7.74 2.37 12.27
12/12/2020 2:45:00 AM 3.37 38.066 0.325 7.74 2.1 12.27
12/12/2020 3:00:00 AM 3.35 38.03 0.325 7.73 1.97 12.28
12/12/2020 3:15:00 AM 3.34 38.012 0.325 7.73 1.99 12.28
12/12/2020 3:30:00 AM 3.33 37.994 0.325 7.73 2.03 12.28
12/12/2020 3:45:00 AM 3.31 37.958 0.325 7.72 1.98 12.29
12/12/2020 4:00:00 AM 3.28 37.904 0.325 7.72 2.04 12.29
12/12/2020 4:15:00 AM 3.24 37.832 0.324 7.72 1.97 12.3
12/12/2020 4:30:00 AM 3.2 37.76 0.323 7.71 2.03 12.31
12/12/2020 4:45:00 AM 3.18 37.724 0.323 7.71 2.04 12.32
12/12/2020 5:00:00 AM 3.16 37.688 0.323 7.7 2 12.32
12/12/2020 5:15:00 AM 3.15 37.67 0.322 7.7 2.01 12.33
12/12/2020 5:30:00 AM 3.14 37.652 0.322 7.7 2.03 12.33
12/12/2020 5:45:00 AM 3.14 37.652 0.322 7.7 2.04 12.33
12/12/2020 6:00:00 AM 3.15 37.67 0.323 7.7 2.04 12.34
12/12/2020 6:15:00 AM 3.15 37.67 0.322 7.69 1.97 12.33
12/12/2020 6:30:00 AM 3.15 37.67 0.322 7.69 1.99 12.34
12/12/2020 6:45:00 AM 3.15 37.67 0.322 7.69 2.02 12.33
12/12/2020 7:00:00 AM 3.14 37.652 0.322 7.69 2.03 12.34
12/12/2020 7:15:00 AM 3.15 37.67 0.322 7.68 2.02 12.33
12/12/2020 7:30:00 AM 3.15 37.67 0.322 7.68 2.07 12.33
12/12/2020 7:45:00 AM 3.14 37.652 0.322 7.69 2.22 12.36
12/12/2020 8:00:00 AM 3.15 37.67 0.322 7.7 2.04 12.43
12/12/2020 8:15:00 AM 3.17 37.706 0.322 7.71 1.99 12.51
12/12/2020 8:30:00 AM 3.19 37.742 0.323 7.75 1.99 12.69
12/12/2020 8:45:00 AM 3.21 37.778 0.323 7.79 2.07 12.9
12/12/2020 9:00:00 AM 3.24 37.832 0.323 7.82 2.14 13.11
12/12/2020 9:15:00 AM 3.3 37.94 0.323 7.93 2.09 13.51
12/12/2020 9:30:00 AM 3.35 38.03 0.323 8.04 2.06 13.93
12/12/2020 9:45:00 AM 3.4 38.12 0.323 8.14 2.02 14.19
12/12/2020 10:00:00 AM 3.45 38.21 0.323 8.25 2.11 14.51
12/12/2020 10:15:00 AM 3.54 38.372 0.323 8.37 2.06 14.83
12/12/2020 10:30:00 AM 3.65 38.57 0.322 8.49 2.02 15.16
12/12/2020 10:45:00 AM 3.75 38.75 0.322 8.61 2.08 15.49
12/12/2020 11:00:00 AM 3.95 39.11 0.322 8.72 1.95 15.78
12/12/2020 11:15:00 AM 4.15 39.47 0.321 8.81 1.94 16.01
12/12/2020 11:30:00 AM 4.28 39.704 0.321 8.86 1.93 16.17
12/12/2020 11:45:00 AM 4.37 39.866 0.321 8.92 1.96 16.25
12/12/2020 12:00:00 PM 4.45 40.01 0.321 8.96 1.88 16.3
12/12/2020 12:15:00 PM 4.58 40.244 0.32 9.01 1.92 16.38
12/12/2020 12:30:00 PM 4.67 40.406 0.32 9.04 1.91 16.41
12/12/2020 12:45:00 PM 4.79 40.622 0.319 9.08 1.9 16.45
12/12/2020 1:00:00 PM 4.88 40.784 0.319 9.1 1.87 16.44
12/12/2020 1:15:00 PM 4.98 40.964 0.318 9.13 1.9 16.43
12/12/2020 1:30:00 PM 5.07 41.126 0.318 9.15 1.96 16.41
12/12/2020 1:45:00 PM 5.11 41.198 0.317 9.17 1.92 16.32
12/12/2020 2:00:00 PM 5.16 41.288 0.317 9.17 2.01 16.18
12/12/2020 2:15:00 PM 5.16 41.288 0.318 9.16 2.04 15.82
12/12/2020 2:30:00 PM 5.17 41.306 0.318 9.13 1.91 15.48
12/12/2020 2:45:00 PM 5.21 41.378 0.317 9.14 1.87 15.47
12/12/2020 3:00:00 PM 5.25 41.45 0.317 9.15 1.91 15.52
12/12/2020 3:15:00 PM 5.27 41.486 0.317 9.16 1.88 15.47
12/12/2020 3:30:00 PM 5.32 41.576 0.316 9.17 1.98 15.43
12/12/2020 3:45:00 PM 5.34 41.612 0.316 9.17 1.93 15.27
12/12/2020 4:00:00 PM 5.37 41.666 0.315 9.16 1.91 15.11
12/12/2020 4:15:00 PM 5.39 41.702 0.315 9.15 1.98 14.84
12/12/2020 4:30:00 PM 5.4 41.72 0.315 9.11 1.98 14.51
12/12/2020 4:45:00 PM 5.4 41.72 0.315 9.08 1.97 14.19
12/12/2020 5:00:00 PM 5.41 41.738 0.315 9.03 1.97 13.87
12/12/2020 5:15:00 PM 5.42 41.756 0.315 8.98 2.03 13.57
12/12/2020 5:30:00 PM 5.44 41.792 0.315 8.94 2.1 13.3
12/12/2020 5:45:00 PM 5.46 41.828 0.314 8.9 2.01 13.08
12/12/2020 6:00:00 PM 5.47 41.846 0.314 8.85 2.03 12.89
12/12/2020 6:15:00 PM 5.49 41.882 0.314 8.8 2.07 12.72
12/12/2020 6:30:00 PM 5.5 41.9 0.313 8.76 2.06 12.58
12/12/2020 6:45:00 PM 5.51 41.918 0.313 8.71 2.06 12.48
12/12/2020 7:00:00 PM 5.52 41.936 0.313 8.67 2 12.4
12/12/2020 7:15:00 PM 5.52 41.936 0.313 8.64 2.03 12.33
12/12/2020 7:30:00 PM 5.52 41.936 0.312 8.61 2.04 12.27
12/12/2020 7:45:00 PM 5.52 41.936 0.312 8.57 2.11 12.21
12/12/2020 8:00:00 PM 5.52 41.936 0.312 8.53 2.22 12.16
12/12/2020 8:15:00 PM 5.51 41.918 0.312 8.48 2.25 12.1
12/12/2020 8:30:00 PM 5.51 41.918 0.312 8.43 2.21 12.04
12/12/2020 8:45:00 PM 5.5 41.9 0.313 8.37 2.09 11.98
12/12/2020 9:00:00 PM 5.5 41.9 0.313 8.29 2.15 11.94
12/12/2020 9:15:00 PM 5.5 41.9 0.313 8.24 2.13 11.89
12/12/2020 9:30:00 PM 5.49 41.882 0.313 8.18 2.13 11.84
12/12/2020 9:45:00 PM 5.48 41.864 0.314 8.12 2.21 11.79
12/12/2020 10:00:00 PM 5.48 41.864 0.314 8.07 2.17 11.76
12/12/2020 10:15:00 PM 5.46 41.828 0.314 8.02 2.79 11.72
12/12/2020 10:30:00 PM 5.46 41.828 0.314 7.98 2.26 11.69
12/12/2020 10:45:00 PM 5.46 41.828 0.314 7.94 2.36 11.65
12/12/2020 11:00:00 PM 5.46 41.828 0.314 7.91 2.22 11.62
12/12/2020 11:15:00 PM 5.48 41.864 0.315 7.89 2.2 11.59
12/12/2020 11:30:00 PM 5.48 41.864 0.315 7.85 2.18 11.57
12/12/2020 11:45:00 PM 5.49 41.882 0.315 7.84 2.3 11.55
12/13/2020 12:00:00 AM 5.5 41.9 0.316 7.82 2.95 11.52
12/13/2020 12:15:00 AM 5.5 41.9 0.316 7.8 3.52 11.49
12/13/2020 12:30:00 AM 5.49 41.882 0.316 7.79 2.28 11.49
12/13/2020 12:45:00 AM 5.49 41.882 0.316 7.79 2.39 11.48
12/13/2020 1:00:00 AM 5.49 41.882 0.316 7.75 2.29 11.46
12/13/2020 1:15:00 AM 5.5 41.9 0.316 7.76 2.27 11.45
12/13/2020 1:30:00 AM 5.51 41.918 0.316 7.75 2.91 11.44
12/13/2020 1:45:00 AM 5.51 41.918 0.316 7.75 2.58 11.43
12/13/2020 2:00:00 AM 5.52 41.936 0.316 7.75 2.23 11.43
12/13/2020 2:15:00 AM 5.53 41.954 0.316 7.71 2.99 11.42
12/13/2020 2:30:00 AM 5.53 41.954 0.317 7.73 3.56 11.41
12/13/2020 2:45:00 AM 5.51 41.918 0.317 7.72 2.49 11.41
12/13/2020 3:00:00 AM 5.52 41.936 0.317 7.72 2.53 11.4
12/13/2020 3:15:00 AM 5.51 41.918 0.317 7.72 2.38 11.4
12/13/2020 3:30:00 AM 5.51 41.918 0.317 7.7 2.23 11.39
12/13/2020 3:45:00 AM 5.51 41.918 0.316 7.71 2.29 11.39
12/13/2020 4:00:00 AM 5.52 41.936 0.316 7.71 2.2 11.4
12/13/2020 4:15:00 AM 5.51 41.918 0.315 7.7 2.21 11.4
12/13/2020 4:30:00 AM 5.51 41.918 0.315 7.7 2.19 11.39
12/13/2020 4:45:00 AM 5.57 42.026 0.314 7.7 2.23 11.39
12/13/2020 5:00:00 AM 5.6 42.08 0.314 7.7 2.29 11.38
12/13/2020 5:15:00 AM 5.62 42.116 0.315 7.7 2.18 11.37
12/13/2020 5:30:00 AM 5.62 42.116 0.315 7.71 2.38 11.37
12/13/2020 5:45:00 AM 5.61 42.098 0.315 7.7 2.28 11.36
12/13/2020 6:00:00 AM 5.6 42.08 0.315 7.71 2.13 11.36
12/13/2020 6:15:00 AM 5.6 42.08 0.315 7.7 2.27 11.36
12/13/2020 6:30:00 AM 5.62 42.116 0.315 7.71 2.29 11.37
12/13/2020 6:45:00 AM 5.64 42.152 0.315 7.7 2.37 11.37
12/13/2020 7:00:00 AM 5.65 42.17 0.315 7.7 2.18 11.36
12/13/2020 7:15:00 AM 5.66 42.188 0.315 7.7 2.13 11.36
12/13/2020 7:30:00 AM 5.67 42.206 0.316 7.71 2.15 11.37
12/13/2020 7:45:00 AM 5.68 42.224 0.318 7.71 2.17 11.37
12/13/2020 8:00:00 AM 5.7 42.26 0.319 7.72 2.25 11.41
12/13/2020 8:15:00 AM 5.71 42.278 0.32 7.73 2.23 11.46
12/13/2020 8:30:00 AM 5.72 42.296 0.322 7.74 2.15 11.54
12/13/2020 8:45:00 AM 5.73 42.314 0.323 7.76 2.23 11.6
12/13/2020 9:00:00 AM 5.75 42.35 0.323 7.78 2.09 11.65
12/13/2020 9:15:00 AM 5.75 42.35 0.324 7.77 2.24 11.7
12/13/2020 9:30:00 AM 5.77 42.386 0.324 7.81 2.16 11.8
12/13/2020 9:45:00 AM 5.78 42.404 0.325 7.84 2.17 11.93
12/13/2020 10:00:00 AM 5.81 42.458 0.325 7.9 2.18 12.2
12/13/2020 10:15:00 AM 5.83 42.494 0.325 7.96 2.17 12.44
12/13/2020 10:30:00 AM 5.87 42.566 0.326 8.05 2.1 12.75
12/13/2020 10:45:00 AM 5.92 42.656 0.326 8.16 2.08 13.11
12/13/2020 11:00:00 AM 5.97 42.746 0.327 8.29 2.18 13.48
12/13/2020 11:15:00 AM 6.02 42.836 0.327 8.42 2.22 13.81
12/13/2020 11:30:00 AM 6.08 42.944 0.326 8.54 2.26 14.18
12/13/2020 11:45:00 AM 6.12 43.016 0.326 8.63 2.15 14.44
12/13/2020 12:00:00 PM 6.15 43.07 0.325 8.69 2.1 14.55
12/13/2020 12:15:00 PM 6.21 43.178 0.324 8.77 2.14 14.76
12/13/2020 12:30:00 PM 6.24 43.232 0.324 8.82 2.11 14.93
12/13/2020 12:45:00 PM 6.24 43.232 0.323 8.84 2.21 14.83
12/13/2020 1:00:00 PM 6.26 43.268 0.323 8.86 2.11 14.82
12/13/2020 1:15:00 PM 6.26 43.268 0.324 8.85 2.14 14.63
12/13/2020 1:30:00 PM 6.25 43.25 0.324 8.84 2.14 14.52
12/13/2020 1:45:00 PM 6.26 43.268 0.324 8.84 2.11 14.44
12/13/2020 2:00:00 PM 6.29 43.322 0.324 8.88 2.12 14.65
12/13/2020 2:15:00 PM 6.32 43.376 0.323 8.91 2.15 14.73
12/13/2020 2:30:00 PM 6.35 43.43 0.322 8.96 2.1 14.97
12/13/2020 2:45:00 PM 6.35 43.43 0.322 8.98 2.2 14.93
12/13/2020 3:00:00 PM 6.36 43.448 0.321 8.99 2.16 14.88
12/13/2020 3:15:00 PM 6.34 43.412 0.32 8.96 2.19 14.58
12/13/2020 3:30:00 PM 6.32 43.376 0.319 8.94 2.23 14.29
12/13/2020 3:45:00 PM 6.32 43.376 0.319 8.91 2.36 14.06
12/13/2020 4:00:00 PM 6.31 43.358 0.319 8.87 2.22 13.8
12/13/2020 4:15:00 PM 6.29 43.322 0.319 8.83 2.24 13.51
12/13/2020 4:30:00 PM 6.28 43.304 0.319 8.76 2.34 13.25
12/13/2020 4:45:00 PM 6.26 43.268 0.319 8.72 2.29 13.04
12/13/2020 5:00:00 PM 6.25 43.25 0.319 8.66 2.23 12.84
12/13/2020 5:15:00 PM 6.23 43.214 0.319 8.61 2.26 12.66
12/13/2020 5:30:00 PM 6.22 43.196 0.319 8.55 2.28 12.5
12/13/2020 5:45:00 PM 6.2 43.16 0.319 8.5 2.29 12.36
12/13/2020 6:00:00 PM 6.2 43.16 0.319 8.46 2.22 12.26
12/13/2020 6:15:00 PM 6.19 43.142 0.319 8.43 2.37 12.17
12/13/2020 6:30:00 PM 6.18 43.124 0.319 8.4 2.33 12.11
12/13/2020 6:45:00 PM 6.18 43.124 0.319 8.38 2.29 12.06
12/13/2020 7:00:00 PM 6.17 43.106 0.319 8.36 2.23 12.01
12/13/2020 7:15:00 PM 6.16 43.088 0.319 8.34 2.22 11.96
12/13/2020 7:30:00 PM 6.14 43.052 0.319 8.31 2.27 11.91
12/13/2020 7:45:00 PM 6.13 43.034 0.32 8.27 2.32 11.86
12/13/2020 8:00:00 PM 6.11 42.998 0.32 8.24 2.24 11.82
12/13/2020 8:15:00 PM 6.09 42.962 0.32 8.2 2.24 11.77
12/13/2020 8:30:00 PM 6.07 42.926 0.32 8.15 2.21 11.74
12/13/2020 8:45:00 PM 6.05 42.89 0.321 8.12 2.21 11.7
12/13/2020 9:00:00 PM 6.04 42.872 0.321 8.09 2.21 11.67
12/13/2020 9:15:00 PM 6.02 42.836 0.322 8.05 2.21 11.63
12/13/2020 9:30:00 PM 6.01 42.818 0.322 8.02 2.2 11.6
12/13/2020 9:45:00 PM 6 42.8 0.323 7.99 2.33 11.57
12/13/2020 10:00:00 PM 5.98 42.764 0.323 7.96 2.2 11.54
12/13/2020 10:15:00 PM 5.98 42.764 0.323 7.93 2.2 11.52
12/13/2020 10:30:00 PM 5.96 42.728 0.323 7.91 2.16 11.5
12/13/2020 10:45:00 PM 5.95 42.71 0.323 7.89 2.26 11.48
12/13/2020 11:00:00 PM 5.93 42.674 0.323 7.87 2.2 11.47
12/13/2020 11:15:00 PM 5.92 42.656 0.323 7.86 2.21 11.45
12/13/2020 11:30:00 PM 5.91 42.638 0.323 7.83 2.17 11.44
12/13/2020 11:45:00 PM 5.9 42.62 0.323 7.82 2.18 11.42
12/14/2020 12:00:00 AM 5.89 42.602 0.323 7.81 2.19 11.42
12/14/2020 12:15:00 AM 5.88 42.584 0.323 7.8 2.2 11.41
12/14/2020 12:30:00 AM 5.87 42.566 0.324 7.79 2.26 11.4
12/14/2020 12:45:00 AM 5.86 42.548 0.323 7.79 2.44 11.4
12/14/2020 1:00:00 AM 5.85 42.53 0.323 7.78 2.2 11.4
12/14/2020 1:15:00 AM 5.83 42.494 0.322 7.77 2.17 11.4
12/14/2020 1:30:00 AM 5.82 42.476 0.322 7.77 2.19 11.4
12/14/2020 1:45:00 AM 5.81 42.458 0.321 7.76 2.16 11.39
12/14/2020 2:00:00 AM 5.8 42.44 0.321 7.76 2.24 11.39
12/14/2020 2:15:00 AM 5.78 42.404 0.32 7.75 2.17 11.4
12/14/2020 2:30:00 AM 5.77 42.386 0.32 7.75 2.2 11.39
12/14/2020 2:45:00 AM 5.75 42.35 0.32 7.75 2.23 11.4
12/14/2020 3:00:00 AM 5.74 42.332 0.32 7.74 2.21 11.39
12/14/2020 3:15:00 AM 5.73 42.314 0.32 7.75 2.17 11.4
12/14/2020 3:30:00 AM 5.72 42.296 0.32 7.74 2.19 11.4
12/14/2020 3:45:00 AM 5.7 42.26 0.32 7.75 2.12 11.4
12/14/2020 4:00:00 AM 5.69 42.242 0.319 7.72 2.18 11.41
12/14/2020 4:15:00 AM 5.67 42.206 0.319 7.73 2.18 11.41
12/14/2020 4:30:00 AM 5.66 42.188 0.318 7.73 2.14 11.41
12/14/2020 4:45:00 AM 5.64 42.152 0.318 7.74 2.25 11.41
12/14/2020 5:00:00 AM 5.63 42.134 0.317 7.73 2.21 11.42
12/14/2020 5:15:00 AM 5.62 42.116 0.317 7.72 2.14 11.41
12/14/2020 5:30:00 AM 5.61 42.098 0.317 7.72 2.13 11.41
12/14/2020 5:45:00 AM 5.59 42.062 0.318 7.72 2.08 11.41
12/14/2020 6:00:00 AM 5.57 42.026 0.318 7.72 2.22 11.42
12/14/2020 6:15:00 AM 5.55 41.99 0.318 7.72 2.35 11.43
12/14/2020 6:30:00 AM 5.53 41.954 0.317 7.71 2.15 11.44
12/14/2020 6:45:00 AM 5.5 41.9 0.317 7.71 2.21 11.45
12/14/2020 7:00:00 AM 5.46 41.828 0.316 7.71 2.11 11.43
12/14/2020 7:15:00 AM 5.42 41.756 0.316 7.71 2.14 11.44
12/14/2020 7:30:00 AM 5.39 41.702 0.315 7.71 2.18 11.45
12/14/2020 7:45:00 AM 5.33 41.594 0.315 7.72 2.18 11.46
12/14/2020 8:00:00 AM 5.3 41.54 0.315 7.7 2.16 11.51
12/14/2020 8:15:00 AM 5.26 41.468 0.315 7.72 2.26 11.56
12/14/2020 8:30:00 AM 5.24 41.432 0.315 7.74 2.17 11.64
12/14/2020 8:45:00 AM 5.23 41.414 0.316 7.75 2.17 11.76
12/14/2020 9:00:00 AM 5.22 41.396 0.316 7.78 2.5 11.86
12/14/2020 9:15:00 AM 5.21 41.378 0.316 7.82 2.15 12.05
12/14/2020 9:30:00 AM 5.21 41.378 0.315 7.87 2.14 12.31
12/14/2020 9:45:00 AM 5.23 41.414 0.314 7.97 2.22 12.64
12/14/2020 10:00:00 AM 5.24 41.432 0.314 8.01 2.14 12.91
12/14/2020 10:15:00 AM 5.26 41.468 0.313 8.14 2.13 13.24
12/14/2020 10:30:00 AM 5.27 41.486 0.313 8.18 2.09 13.41
12/14/2020 10:45:00 AM 5.28 41.504 0.312 8.27 2.16 13.57
12/14/2020 11:00:00 AM 5.29 41.522 0.312 8.32 2.1 13.7
12/14/2020 11:15:00 AM 5.29 41.522 0.312 8.33 2.08 13.72
12/14/2020 11:30:00 AM 5.29 41.522 0.312 8.34 2.09 13.7
12/14/2020 11:45:00 AM 5.3 41.54 0.312 8.43 2.15 13.91
12/14/2020 12:00:00 PM 5.3 41.54 0.312 8.47 2.13 13.99
12/14/2020 12:15:00 PM 5.33 41.594 0.312 8.57 2.12 14.29
12/14/2020 12:30:00 PM 5.36 41.648 0.311 8.65 2.12 14.59
12/14/2020 12:45:00 PM 5.39 41.702 0.31 8.75 2.25 14.89
12/14/2020 1:00:00 PM 5.44 41.792 0.31 8.8 2.1 15.12
12/14/2020 1:15:00 PM 5.52 41.936 0.309 8.89 2.19 15.41
12/14/2020 1:30:00 PM 5.54 41.972 0.309 8.95 2.22 15.52
12/14/2020 1:45:00 PM 5.54 41.972 0.31 8.97 2.21 15.49
12/14/2020 2:00:00 PM 5.52 41.936 0.311 8.97 2.18 15.32
12/14/2020 2:15:00 PM 5.5 41.9 0.311 8.94 2.48 15.06
12/14/2020 2:30:00 PM 5.49 41.882 0.311 8.94 2.27 14.93
12/14/2020 2:45:00 PM 5.47 41.846 0.311 8.92 2.31 14.79
12/14/2020 3:00:00 PM 5.44 41.792 0.311 8.88 2.35 14.55
12/14/2020 3:15:00 PM 5.41 41.738 0.31 8.84 2.54 14.33
12/14/2020 3:30:00 PM 5.39 41.702 0.31 8.82 2.51 14.2
12/14/2020 3:45:00 PM 5.37 41.666 0.31 8.79 2.47 14.03
12/14/2020 4:00:00 PM 5.34 41.612 0.309 8.75 2.34 13.81
12/14/2020 4:15:00 PM 5.31 41.558 0.31 8.71 2.48 13.61
12/14/2020 4:30:00 PM 5.29 41.522 0.309 8.69 2.51 13.47
12/14/2020 4:45:00 PM 5.26 41.468 0.309 8.66 2.63 13.33
12/14/2020 5:00:00 PM 5.22 41.396 0.31 8.64 2.46 13.19
12/14/2020 5:15:00 PM 5.19 41.342 0.31 8.58 2.44 13.03
12/14/2020 5:30:00 PM 5.16 41.288 0.311 8.54 2.46 12.89
12/14/2020 5:45:00 PM 5.14 41.252 0.312 8.49 2.65 12.77
12/14/2020 6:00:00 PM 5.11 41.198 0.314 8.45 2.45 12.66
12/14/2020 6:15:00 PM 5.08 41.144 0.316 8.41 2.52 12.58
12/14/2020 6:30:00 PM 5.05 41.09 0.319 8.38 2.46 12.51
12/14/2020 6:45:00 PM 5.02 41.036 0.321 8.34 2.48 12.45
12/14/2020 7:00:00 PM 4.96 40.928 0.324 8.28 2.56 12.38
12/14/2020 7:15:00 PM 4.94 40.892 0.326 8.26 2.6 12.33
12/14/2020 7:30:00 PM 4.91 40.838 0.328 8.21 2.45 12.29
12/14/2020 7:45:00 PM 4.89 40.802 0.329 8.16 2.44 12.24
12/14/2020 8:00:00 PM 4.86 40.748 0.331 8.12 2.42 12.2
12/14/2020 8:15:00 PM 4.83 40.694 0.332 8.07 2.45 12.15
12/14/2020 8:30:00 PM 4.8 40.64 0.334 8.04 2.39 12.12
12/14/2020 8:45:00 PM 4.76 40.568 0.334 7.99 2.55 12.08
12/14/2020 9:00:00 PM 4.73 40.514 0.335 7.97 2.43 12.05
12/14/2020 9:15:00 PM 4.69 40.442 0.335 7.95 2.49 12.04
12/14/2020 9:30:00 PM 4.64 40.352 0.336 7.93 2.41 12.03
12/14/2020 9:45:00 PM 4.61 40.298 0.335 7.91 2.48 12.03
12/14/2020 10:00:00 PM 4.57 40.226 0.335 7.89 2.53 12.02
12/14/2020 10:15:00 PM 4.51 40.118 0.335 7.87 2.46 12.02
12/14/2020 10:30:00 PM 4.46 40.028 0.335 7.86 2.56 12.01
12/14/2020 10:45:00 PM 4.42 39.956 0.335 7.85 2.49 12
12/14/2020 11:00:00 PM 4.38 39.884 0.336 7.83 2.48 12.01
12/14/2020 11:15:00 PM 4.34 39.812 0.336 7.83 2.49 12.02
12/14/2020 11:30:00 PM 4.31 39.758 0.336 7.82 2.57 12.02
12/14/2020 11:45:00 PM 4.27 39.686 0.336 7.81 2.45 12.04
12/15/2020 12:00:00 AM 4.25 39.65 0.337 7.81 2.74 12.05
12/15/2020 12:15:00 AM 4.23 39.614 0.337 7.79 2.42 12.06
12/15/2020 12:30:00 AM 4.2 39.56 0.338 7.79 2.42 12.05
12/15/2020 12:45:00 AM 4.17 39.506 0.339 7.79 2.43 12.06
12/15/2020 1:00:00 AM 4.15 39.47 0.34 7.78 2.35 12.08
12/15/2020 1:15:00 AM 4.12 39.416 0.341 7.77 2.41 12.07
12/15/2020 1:30:00 AM 4.1 39.38 0.343 7.78 2.39 12.09
12/15/2020 1:45:00 AM 4.08 39.344 0.344 7.76 2.36 12.08
12/15/2020 2:00:00 AM 4.06 39.308 0.346 7.76 2.35 12.1
12/15/2020 2:15:00 AM 4.03 39.254 0.347 7.77 2.42 12.11
12/15/2020 2:30:00 AM 3.99 39.182 0.348 7.75 2.34 12.13
12/15/2020 2:45:00 AM 3.96 39.128 0.349 7.76 2.37 12.13
12/15/2020 3:00:00 AM 3.94 39.092 0.35 7.76 2.34 12.14
12/15/2020 3:15:00 AM 3.93 39.074 0.35 7.75 2.32 12.15
12/15/2020 3:30:00 AM 3.91 39.038 0.35 7.75 2.3 12.15
12/15/2020 3:45:00 AM 3.89 39.002 0.35 7.74 2.27 12.16
12/15/2020 4:00:00 AM 3.85 38.93 0.35 7.75 2.44 12.17
12/15/2020 4:15:00 AM 3.84 38.912 0.349 7.74 2.3 12.18
12/15/2020 4:30:00 AM 3.82 38.876 0.349 7.74 2.36 12.2
12/15/2020 4:45:00 AM 3.8 38.84 0.349 7.73 2.28 12.2
12/15/2020 5:00:00 AM 3.78 38.804 0.348 7.74 2.38 12.21
12/15/2020 5:15:00 AM 3.75 38.75 0.347 7.74 2.3 12.23
12/15/2020 5:30:00 AM 3.73 38.714 0.346 7.73 2.26 12.24
12/15/2020 5:45:00 AM 3.7 38.66 0.344 7.73 2.29 12.24
12/15/2020 6:00:00 AM 3.67 38.606 0.343 7.73 2.68 12.26
12/15/2020 6:15:00 AM 3.65 38.57 0.341 7.74 2.52 12.28
12/15/2020 6:30:00 AM 3.61 38.498 0.339 7.73 2.27 12.29
12/15/2020 6:45:00 AM 3.58 38.444 0.338 7.73 2.4 12.3
12/15/2020 7:00:00 AM 3.56 38.408 0.337 7.73 2.29 12.32
12/15/2020 7:15:00 AM 3.54 38.372 0.337 7.72 2.35 12.32
12/15/2020 7:30:00 AM 3.51 38.318 0.337 7.73 2.27 12.35
12/15/2020 7:45:00 AM 3.47 38.246 0.337 7.73 2.38 12.39
12/15/2020 8:00:00 AM 3.41 38.138 0.337 7.75 2.2 12.5
12/15/2020 8:15:00 AM 3.37 38.066 0.337 7.79 2.5 12.66
12/15/2020 8:30:00 AM 3.33 37.994 0.336 7.82 2.26 12.89
12/15/2020 8:45:00 AM 3.29 37.922 0.336 7.89 2.24 13.14
12/15/2020 9:00:00 AM 3.27 37.886 0.336 7.96 2.25 13.46
12/15/2020 9:15:00 AM 3.26 37.868 0.335 8.06 2.16 13.82
12/15/2020 9:30:00 AM 3.26 37.868 0.335 8.17 2.07 14.19
12/15/2020 9:45:00 AM 3.27 37.886 0.335 8.3 2.17 14.58
12/15/2020 10:00:00 AM 3.3 37.94 0.335 8.41 3.71 14.88
12/15/2020 10:15:00 AM 3.34 38.012 0.334 8.54 2.21 15.29
12/15/2020 10:30:00 AM 3.41 38.138 0.334 8.65 2.22 15.64
12/15/2020 10:45:00 AM 3.49 38.282 0.334 8.75 2.24 15.93
12/15/2020 11:00:00 AM 3.6 38.48 0.334 8.82 2.2 16.19
12/15/2020 11:15:00 AM 3.68 38.624 0.334 8.89 2.13 16.4
12/15/2020 11:30:00 AM 3.77 38.786 0.334 8.94 2.1 16.55
12/15/2020 11:45:00 AM 3.84 38.912 0.333 8.97 2.12 16.66
12/15/2020 12:00:00 PM 3.86 38.948 0.332 9.02 2.1 16.72
12/15/2020 12:15:00 PM 3.92 39.056 0.332 9.06 2.09 16.81
12/15/2020 12:30:00 PM 3.94 39.092 0.331 9.09 2.09 16.84
12/15/2020 12:45:00 PM 3.98 39.164 0.33 9.1 8.48 16.84
12/15/2020 1:00:00 PM 4.01 39.218 0.329 9.13 2.47 16.88
12/15/2020 1:15:00 PM 4.04 39.272 0.329 9.16 2.1 16.92
12/15/2020 1:30:00 PM 4.05 39.29 0.328 9.18 2.12 16.93
12/15/2020 1:45:00 PM 4.07 39.326 0.328 9.2 2.13 16.95
12/15/2020 2:00:00 PM 4.08 39.344 0.327 9.22 2.14 16.95
12/15/2020 2:15:00 PM 4.09 39.362 0.327 9.24 2.08 16.93
12/15/2020 2:30:00 PM 4.1 39.38 0.326 9.26 2.07 16.91
12/15/2020 2:45:00 PM 4.09 39.362 0.325 9.27 2.13 16.86
12/15/2020 3:00:00 PM 4.08 39.344 0.324 9.28 2.19 16.79
12/15/2020 3:15:00 PM 4.06 39.308 0.324 9.29 2.18 16.71
12/15/2020 3:30:00 PM 4.04 39.272 0.323 9.3 2.09 16.61
12/15/2020 3:45:00 PM 4.01 39.218 0.322 9.3 2.07 16.49
12/15/2020 4:00:00 PM 3.98 39.164 0.321 9.3 2.29 16.32
12/15/2020 4:15:00 PM 3.94 39.092 0.321 9.28 2.17 16.12
12/15/2020 4:30:00 PM 3.88 38.984 0.32 9.26 2.1 15.84
12/15/2020 4:45:00 PM 3.83 38.894 0.32 9.23 2.1 15.53
12/15/2020 5:00:00 PM 3.77 38.786 0.32 9.2 2.2 15.17
12/15/2020 5:15:00 PM 3.71 38.678 0.319 9.15 2.16 14.81
12/15/2020 5:30:00 PM 3.66 38.588 0.319 9.11 2.09 14.53
12/15/2020 5:45:00 PM 3.61 38.498 0.318 9.07 2.13 14.27
12/15/2020 6:00:00 PM 3.57 38.426 0.318 9.03 2.15 14.04
12/15/2020 6:15:00 PM 3.53 38.354 0.317 8.99 2.13 13.86
12/15/2020 6:30:00 PM 3.49 38.282 0.317 8.95 2.18 13.71
12/15/2020 6:45:00 PM 3.45 38.21 0.317 8.93 2.22 13.59
12/15/2020 7:00:00 PM 3.42 38.156 0.316 8.89 2.26 13.5
12/15/2020 7:15:00 PM 3.38 38.084 0.316 8.86 2.18 13.42
12/15/2020 7:30:00 PM 3.34 38.012 0.315 8.83 2.32 13.36
12/15/2020 7:45:00 PM 3.29 37.922 0.315 8.81 2.23 13.29
12/15/2020 8:00:00 PM 3.25 37.85 0.314 8.77 2.22 13.26
12/15/2020 8:15:00 PM 3.19 37.742 0.314 8.74 2.73 13.22
12/15/2020 8:30:00 PM 3.14 37.652 0.313 8.71 2.15 13.16
12/15/2020 8:45:00 PM 3.09 37.562 0.313 8.67 2.16 13.13
12/15/2020 9:00:00 PM 3.03 37.454 0.313 8.63 2.12 13.09
12/15/2020 9:15:00 PM 2.99 37.382 0.314 8.57 2.14 13.05
12/15/2020 9:30:00 PM 2.95 37.31 0.315 8.52 2.23 12.98
12/15/2020 9:45:00 PM 2.91 37.238 0.315 8.47 2.37 12.99
12/15/2020 10:00:00 PM 2.87 37.166 0.316 8.4 2.1 12.96
12/15/2020 10:15:00 PM 2.83 37.094 0.317 8.35 2.14 12.93
12/15/2020 10:30:00 PM 2.79 37.022 0.318 8.29 2.15 12.91
12/15/2020 10:45:00 PM 2.76 36.968 0.318 8.23 2.1 12.89
12/15/2020 11:00:00 PM 2.72 36.896 0.318 8.18 2.23 12.88
12/15/2020 11:15:00 PM 2.66 36.788 0.319 8.13 2.14 12.86
12/15/2020 11:30:00 PM 2.62 36.716 0.319 8.09 2.11 12.85
12/15/2020 11:45:00 PM 2.57 36.626 0.319 8.04 2.17 12.84
12/16/2020 12:00:00 AM 2.52 36.536 0.319 8.01 2.11 12.83
12/16/2020 12:15:00 AM 2.48 36.464 0.32 7.97 2.13 12.83
12/16/2020 12:30:00 AM 2.43 36.374 0.32 7.95 2.14 12.83
12/16/2020 12:45:00 AM 2.38 36.284 0.321 7.91 2.11 12.83
12/16/2020 1:00:00 AM 2.34 36.212 0.321 7.9 2.13 12.83
12/16/2020 1:15:00 AM 2.29 36.122 0.321 7.89 2.14 12.84
12/16/2020 1:30:00 AM 2.25 36.05 0.321 7.87 2.14 12.85
12/16/2020 1:45:00 AM 2.21 35.978 0.321 7.86 2.12 12.85
12/16/2020 2:00:00 AM 2.16 35.888 0.321 7.84 2.17 12.86
12/16/2020 2:15:00 AM 2.12 35.816 0.321 7.83 2.19 12.88
12/16/2020 2:30:00 AM 2.07 35.726 0.322 7.83 2.22 12.89
12/16/2020 2:45:00 AM 2.04 35.672 0.322 7.82 2.16 12.9
12/16/2020 3:00:00 AM 2.01 35.618 0.323 7.81 2.14 12.91
12/16/2020 3:15:00 AM 1.99 35.582 0.323 7.81 2.13 12.93
12/16/2020 3:30:00 AM 1.97 35.546 0.324 7.8 2.16 12.93
12/16/2020 3:45:00 AM 1.95 35.51 0.326 7.78 2.21 12.95
12/16/2020 4:00:00 AM 1.93 35.474 0.327 7.78 2.2 12.96
12/16/2020 4:15:00 AM 1.91 35.438 0.328 7.78 2.17 12.96
12/16/2020 4:30:00 AM 1.89 35.402 0.328 7.77 2.12 12.97
12/16/2020 4:45:00 AM 1.86 35.348 0.329 7.77 2.13 12.98
12/16/2020 5:00:00 AM 1.84 35.312 0.33 7.77 2.39 12.99
12/16/2020 5:15:00 AM 1.81 35.258 0.331 7.75 2.34 12.99
12/16/2020 5:30:00 AM 1.79 35.222 0.332 7.75 2.34 13
12/16/2020 5:45:00 AM 1.76 35.168 0.333 7.76 2.28 13
12/16/2020 6:00:00 AM 1.73 35.114 0.334 7.74 2.26 13.02
12/16/2020 6:15:00 AM 1.7 35.06 0.335 7.76 2.28 13.03
12/16/2020 6:30:00 AM 1.68 35.024 0.335 7.73 2.27 13.03
12/16/2020 6:45:00 AM 1.64 34.952 0.336 7.75 2.26 13.05
12/16/2020 7:00:00 AM 1.61 34.898 0.336 7.73 2.26 13.06
12/16/2020 7:15:00 AM 1.59 34.862 0.337 7.74 2.22 13.06
12/16/2020 7:30:00 AM 1.57 34.826 0.337 7.74 2.25 13.07
12/16/2020 7:45:00 AM 1.56 34.808 0.338 7.74 2.21 13.09
12/16/2020 8:00:00 AM 1.55 34.79 0.338 7.75 2.31 13.12
12/16/2020 8:15:00 AM 1.55 34.79 0.339 7.75 2.27 13.17
12/16/2020 8:30:00 AM 1.54 34.772 0.339 7.77 2.22 13.26
12/16/2020 8:45:00 AM 1.56 34.808 0.339 7.78 2.23 13.41
12/16/2020 9:00:00 AM 1.59 34.862 0.339 7.86 2.23 13.64
12/16/2020 9:15:00 AM 1.61 34.898 0.339 7.93 2.23 13.97
12/16/2020 9:30:00 AM 1.63 34.934 0.339 7.98 2.37 14.24
12/16/2020 9:45:00 AM 1.64 34.952 0.339 8.08 2.47 14.48
12/16/2020 10:00:00 AM 1.65 34.97 0.338 8.12 2.24 14.64
12/16/2020 10:15:00 AM 1.65 34.97 0.338 8.17 2.22 14.74
12/16/2020 10:30:00 AM 1.64 34.952 0.338 8.18 2.33 14.8
12/16/2020 10:45:00 AM 1.64 34.952 0.338 8.23 2.19 14.86
12/16/2020 11:00:00 AM 1.59 34.862 0.338 8.26 2.25 14.92
12/16/2020 11:15:00 AM 1.54 34.772 0.337 8.31 2.25 15.06
12/16/2020 11:30:00 AM 1.58 34.844 0.337 8.38 2.24 15.22
12/16/2020 11:45:00 AM 1.53 34.754 0.337 8.4 2.2 15.29
12/16/2020 12:00:00 PM 1.53 34.754 0.336 8.43 2.2 15.36
12/16/2020 12:15:00 PM 1.48 34.664 0.336 8.45 2.21 15.35
12/16/2020 12:30:00 PM 1.44 34.592 0.335 8.48 2.23 15.38
12/16/2020 12:45:00 PM 1.38 34.484 0.335 8.47 2.22 15.39
12/16/2020 1:00:00 PM 1.27 34.286 0.334 8.49 2.19 15.39
12/16/2020 1:15:00 PM 1.13 34.034 0.333 8.49 2.22 15.34
12/16/2020 1:30:00 PM 1 33.8 0.333 8.48 2.39 15.33
12/16/2020 1:45:00 PM 0.92 33.656 0.332 8.5 2.32 15.32
12/16/2020 2:00:00 PM 0.81 33.458 0.331 8.48 2.26 15.3
12/16/2020 2:15:00 PM 0.6 33.08 0.33 8.47 2.26 15.23
12/16/2020 2:30:00 PM 0.42 32.756 0.33 8.45 2.24 15.17
12/16/2020 2:45:00 PM 0.3 32.54 0.331 8.43 2.27 15.11
12/16/2020 3:00:00 PM 0.21 32.378 0.331 8.41 2.25 15.07
12/16/2020 3:15:00 PM 0.14 32.252 0.331 8.36 2.6 15.04
12/16/2020 3:30:00 PM 0.09 32.162 0.332 8.37 2.3 15.03
12/16/2020 3:45:00 PM 0.08 32.144 0.332 8.35 2.27 15.02
12/16/2020 4:00:00 PM 0.05 32.09 0.332 8.31 2.36 14.96
12/16/2020 4:15:00 PM 0.01 32.018 0.332 8.3 2.33 14.88
12/16/2020 4:30:00 PM -0.01 31.982 0.332 8.28 2.51 14.82
12/16/2020 4:45:00 PM -0.02 31.964 0.332 8.24 2.52 14.75
12/16/2020 5:00:00 PM -0.01 31.982 0.332 8.22 2.61 14.68
12/16/2020 5:15:00 PM -0.01 31.982 0.332 8.19 2.77 14.59
12/16/2020 5:30:00 PM -0.03 31.946 0.331 8.14 2.78 14.53
12/16/2020 5:45:00 PM -0.04 31.928 0.331 8.13 2.93 14.49
12/16/2020 6:00:00 PM -0.04 31.928 0.33 8.12 2.83 14.45
12/16/2020 6:15:00 PM -0.04 31.928 0.33 8.1 3.16 14.41
12/16/2020 6:30:00 PM -0.04 31.928 0.329 8.07 4.95 14.37
12/16/2020 6:45:00 PM -0.05 31.91 0.329 8.04 5.35 14.35
12/16/2020 7:00:00 PM -0.05 31.91 0.329 7.96 12.08 14.33
12/16/2020 7:15:00 PM -0.05 31.91 0.329 7.89 4.71 14.3
12/16/2020 7:30:00 PM -0.05 31.91 0.329 7.86 3.91 14.25
12/16/2020 7:45:00 PM -0.05 31.91 0.329 7.87 4 14.22
12/16/2020 8:00:00 PM -0.05 31.91 0.329 7.89 4.35 14.19
12/16/2020 8:15:00 PM -0.05 31.91 0.329 7.91 4.82 14.15
12/16/2020 8:30:00 PM -0.05 31.91 0.329 7.86 3.93 14.13
12/16/2020 8:45:00 PM -0.05 31.91 0.329 7.84 5.87 14.09
12/16/2020 9:00:00 PM -0.05 31.91 0.328 7.83 4.25 14.05
12/16/2020 9:15:00 PM -0.05 31.91 0.328 7.84 5.45 14.02
12/16/2020 9:30:00 PM -0.05 31.91 0.329 7.84 3.48 13.98
12/16/2020 9:45:00 PM -0.05 31.91 0.329 7.83 3.63 13.96
12/16/2020 10:00:00 PM -0.05 31.91 0.33 7.84 3.13 13.94
12/16/2020 10:15:00 PM -0.05 31.91 0.331 7.84 3.74 13.93
12/16/2020 10:30:00 PM -0.05 31.91 0.331 7.76 3.71 13.89
12/16/2020 10:45:00 PM -0.05 31.91 0.332 7.74 4.87 13.87
12/16/2020 11:00:00 PM -0.05 31.91 0.333 7.72 3.81 13.85
12/16/2020 11:15:00 PM -0.05 31.91 0.333 7.7 3.36 13.81
12/16/2020 11:30:00 PM -0.05 31.91 0.334 7.71 3.49 13.78
12/16/2020 11:45:00 PM -0.05 31.91 0.335 7.71 3.38 13.77
12/17/2020 12:00:00 AM -0.05 31.91 0.335 7.69 3.57 13.75
12/17/2020 12:15:00 AM -0.05 31.91 0.335 7.69 2.95 13.72
12/17/2020 12:30:00 AM -0.05 31.91 0.334 7.69 2.84 13.68
12/17/2020 12:45:00 AM -0.05 31.91 0.335 7.69 2.71 13.66
12/17/2020 1:00:00 AM -0.05 31.91 0.336 7.66 3.29 13.65
12/17/2020 1:15:00 AM -0.05 31.91 0.337 7.66 4.62 13.63
12/17/2020 1:30:00 AM -0.05 31.91 0.338 7.67 3.56 13.61
12/17/2020 1:45:00 AM -0.05 31.91 0.339 7.65 3.49 13.59
12/17/2020 2:00:00 AM -0.05 31.91 0.339 7.68 3.45 13.58
12/17/2020 2:15:00 AM -0.05 31.91 0.34 7.67 3.22 13.56
12/17/2020 2:30:00 AM -0.05 31.91 0.341 7.67 3.28 13.54
12/17/2020 2:45:00 AM -0.05 31.91 0.342 7.65 3.36 13.52
12/17/2020 3:00:00 AM -0.05 31.91 0.342 7.66 3.32 13.52
12/17/2020 3:15:00 AM -0.05 31.91 0.342 7.66 3.32 13.49
12/17/2020 3:30:00 AM -0.05 31.91 0.342 7.67 3.11 13.47
12/17/2020 3:45:00 AM -0.05 31.91 0.342 7.67 3.35 13.46
12/17/2020 4:00:00 AM -0.05 31.91 0.342 7.64 2.98 13.44
12/17/2020 4:15:00 AM -0.05 31.91 0.343 7.65 3.13 13.43
12/17/2020 4:30:00 AM -0.05 31.91 0.344 7.65 3.28 13.41
12/17/2020 4:45:00 AM -0.05 31.91 0.345 7.66 3.19 13.4
12/17/2020 5:00:00 AM -0.05 31.91 0.345 7.64 2.95 13.4
12/17/2020 5:15:00 AM -0.05 31.91 0.346 7.66 2.94 13.39
12/17/2020 5:30:00 AM -0.05 31.91 0.347 7.67 2.9 13.39
12/17/2020 5:45:00 AM -0.05 31.91 0.347 7.64 3.01 13.39
12/17/2020 6:00:00 AM -0.05 31.91 0.346 7.66 2.91 13.39
12/17/2020 6:15:00 AM -0.05 31.91 0.344 7.64 2.95 13.39
12/17/2020 6:30:00 AM -0.05 31.91 0.343 7.66 2.9 13.39
12/17/2020 6:45:00 AM -0.05 31.91 0.341 7.67 2.82 13.39
12/17/2020 7:00:00 AM -0.05 31.91 0.338 7.65 2.79 13.4
12/17/2020 7:15:00 AM -0.05 31.91 0.336 7.67 2.87 13.41
12/17/2020 7:30:00 AM -0.05 31.91 0.333 7.65 2.88 13.43
12/17/2020 7:45:00 AM -0.05 31.91 0.33 7.67 2.82 13.46
12/17/2020 8:00:00 AM -0.05 31.91 0.328 7.68 2.84 13.52
12/17/2020 8:15:00 AM -0.05 31.91 0.325 7.68 2.86 13.6
12/17/2020 8:30:00 AM -0.05 31.91 0.323 7.69 3.02 13.72
12/17/2020 8:45:00 AM -0.05 31.91 0.32 7.69 2.77 13.84
12/17/2020 9:00:00 AM -0.05 31.91 0.318 7.72 2.72 13.97
12/17/2020 9:15:00 AM -0.05 31.91 0.315 7.75 2.91 14.12
12/17/2020 9:30:00 AM -0.05 31.91 0.313 7.76 2.98 14.28
12/17/2020 9:45:00 AM -0.05 31.91 0.311 7.82 3.07 14.47
12/17/2020 10:00:00 AM -0.05 31.91 0.31 7.87 3.24 14.67
12/17/2020 10:15:00 AM -0.05 31.91 0.309 7.9 3.9 14.89
12/17/2020 10:30:00 AM -0.05 31.91 0.308 8 3.02 15.11
12/17/2020 10:45:00 AM -0.04 31.928 0.308 8.07 3.28 15.31
12/17/2020 11:00:00 AM -0.04 31.928 0.308 8.14 3.4 15.51
12/17/2020 11:15:00 AM -0.04 31.928 0.307 8.18 3.45 15.67
12/17/2020 11:30:00 AM -0.04 31.928 0.306 8.26 3.52 15.82
12/17/2020 11:45:00 AM -0.04 31.928 0.306 8.3 3.29 15.93
12/17/2020 12:00:00 PM -0.04 31.928 0.305 8.37 3.06 16.05
12/17/2020 12:15:00 PM -0.04 31.928 0.303 8.42 3.24 16.15
12/17/2020 12:30:00 PM -0.04 31.928 0.301 8.46 3.49 16.23
12/17/2020 12:45:00 PM -0.04 31.928 0.3 8.5 3.49 16.3
12/17/2020 1:00:00 PM -0.04 31.928 0.3 8.54 3.47 16.36
12/17/2020 1:15:00 PM -0.05 31.91 0.299 8.56 3.47 16.37
12/17/2020 1:30:00 PM -0.04 31.928 0.299 8.6 3.18 16.41
12/17/2020 1:45:00 PM -0.04 31.928 0.301 8.62 3.29 16.44
12/17/2020 2:00:00 PM -0.05 31.91 0.302 8.64 3.68 16.44
12/17/2020 2:15:00 PM -0.04 31.928 0.301 8.69 5.31 16.46
12/17/2020 2:30:00 PM -0.04 31.928 0.302 8.69 3.91 16.45
12/17/2020 2:45:00 PM -0.04 31.928 0.302 8.72 3.77 16.46
12/17/2020 3:00:00 PM -0.04 31.928 0.303 8.74 3.85 16.43
12/17/2020 3:15:00 PM -0.05 31.91 0.304 8.72 3.38 16.41
12/17/2020 3:30:00 PM -0.05 31.91 0.304 8.71 3.46 16.38
12/17/2020 3:45:00 PM -0.05 31.91 0.306 8.72 3.46 16.31
12/17/2020 4:00:00 PM -0.05 31.91 0.308 8.7 3.68 16.18
12/17/2020 4:15:00 PM -0.05 31.91 0.309 8.65 3.47 16.03
12/17/2020 4:30:00 PM -0.05 31.91 0.31 8.64 3.36 15.85
12/17/2020 4:45:00 PM -0.05 31.91 0.312 8.6 3.44 15.69
12/17/2020 5:00:00 PM -0.05 31.91 0.313 8.56 3.47 15.51
12/17/2020 5:15:00 PM -0.05 31.91 0.314 8.51 3.68 15.34
12/17/2020 5:30:00 PM -0.05 31.91 0.314 8.45 3.45 15.19
12/17/2020 5:45:00 PM -0.05 31.91 0.315 8.38 3.78 15.07
12/17/2020 6:00:00 PM -0.05 31.91 0.315 8.36 3.44 14.96
12/17/2020 6:15:00 PM -0.05 31.91 0.315 8.32 3.39 14.87
12/17/2020 6:30:00 PM -0.05 31.91 0.314 8.26 3.16 14.79
12/17/2020 6:45:00 PM -0.05 31.91 0.314 8.24 3.33 14.72
12/17/2020 7:00:00 PM -0.05 31.91 0.313 8.17 3.31 14.64
12/17/2020 7:15:00 PM -0.05 31.91 0.312 8.15 3.29 14.57
12/17/2020 7:30:00 PM -0.05 31.91 0.312 8.11 3.34 14.51
12/17/2020 7:45:00 PM -0.05 31.91 0.311 8.08 3.2 14.45
12/17/2020 8:00:00 PM -0.05 31.91 0.312 8.05 4.08 14.4
12/17/2020 8:15:00 PM -0.05 31.91 0.311 8.02 3.25 14.35
12/17/2020 8:30:00 PM -0.05 31.91 0.31 7.96 3.36 14.3
12/17/2020 8:45:00 PM -0.05 31.91 0.309 7.96 3.2 14.26
12/17/2020 9:00:00 PM -0.04 31.928 0.308 7.93 3.2 14.21
12/17/2020 9:15:00 PM -0.04 31.928 0.308 7.89 3.45 14.17
12/17/2020 9:30:00 PM -0.04 31.928 0.308 7.89 3.24 14.13
12/17/2020 9:45:00 PM -0.04 31.928 0.307 7.87 3.19 14.1
12/17/2020 10:00:00 PM -0.04 31.928 0.307 7.86 3.23 14.07
12/17/2020 10:15:00 PM -0.04 31.928 0.307 7.82 3.4 14.03
12/17/2020 10:30:00 PM -0.04 31.928 0.308 7.83 3.26 14.01
12/17/2020 10:45:00 PM -0.04 31.928 0.308 7.79 3.09 13.98
12/17/2020 11:00:00 PM -0.03 31.946 0.308 7.79 3.36 13.96
12/17/2020 11:15:00 PM -0.03 31.946 0.308 7.77 3.22 13.94
12/17/2020 11:30:00 PM -0.03 31.946 0.309 7.78 3.1 13.93
12/17/2020 11:45:00 PM -0.03 31.946 0.309 7.76 3.34 13.91
12/18/2020 12:00:00 AM -0.02 31.964 0.31 7.77 3.35 13.9
12/18/2020 12:15:00 AM -0.02 31.964 0.31 7.75 3.09 13.89
12/18/2020 12:30:00 AM -0.01 31.982 0.311 7.76 3.28 13.87
12/18/2020 12:45:00 AM -0.01 31.982 0.312 7.74 3.01 13.87
12/18/2020 1:00:00 AM 0 32 0.312 7.76 3.12 13.87
12/18/2020 1:15:00 AM 0 32 0.313 7.74 3.16 13.86
12/18/2020 1:30:00 AM 0 32 0.313 7.75 3.11 13.86
12/18/2020 1:45:00 AM 0 32 0.313 7.74 3.22 13.85
12/18/2020 2:00:00 AM 0 32 0.314 7.75 3.18 13.85
12/18/2020 2:15:00 AM 0 32 0.314 7.73 2.98 13.84
12/18/2020 2:30:00 AM 0.01 32.018 0.314 7.75 3.03 13.84
12/18/2020 2:45:00 AM 0.01 32.018 0.314 7.73 3.24 13.83
12/18/2020 3:00:00 AM 0.01 32.018 0.314 7.75 2.91 13.83
12/18/2020 3:15:00 AM 0.02 32.036 0.315 7.75 2.98 13.83
12/18/2020 3:30:00 AM 0.02 32.036 0.315 7.74 2.9 13.81
12/18/2020 3:45:00 AM 0.03 32.054 0.315 7.75 2.94 13.82
12/18/2020 4:00:00 AM 0.03 32.054 0.316 7.75 2.99 13.8
12/18/2020 4:15:00 AM 0.04 32.072 0.316 7.75 2.97 13.82
12/18/2020 4:30:00 AM 0.03 32.054 0.317 7.72 3.2 13.81
12/18/2020 4:45:00 AM 0.04 32.072 0.317 7.75 3.06 13.8
12/18/2020 5:00:00 AM 0.05 32.09 0.317 7.75 3.07 13.8
12/18/2020 5:15:00 AM 0.05 32.09 0.317 7.74 3 13.79
12/18/2020 5:30:00 AM 0.06 32.108 0.317 7.75 2.97 13.79
12/18/2020 5:45:00 AM 0.07 32.126 0.318 7.74 2.92 13.79
12/18/2020 6:00:00 AM 0.08 32.144 0.318 7.74 2.89 13.79
12/18/2020 6:15:00 AM 0.09 32.162 0.318 7.75 2.99 13.78
12/18/2020 6:30:00 AM 0.1 32.18 0.319 7.75 2.96 13.78
12/18/2020 6:45:00 AM 0.1 32.18 0.32 7.74 3 13.78
12/18/2020 7:00:00 AM 0.11 32.198 0.321 7.75 4.24 13.76
12/18/2020 7:15:00 AM 0.11 32.198 0.322 7.72 3.04 13.76
12/18/2020 7:30:00 AM 0.12 32.216 0.323 7.75 3.07 13.75
12/18/2020 7:45:00 AM 0.14 32.252 0.324 7.74 3 13.75
12/18/2020 8:00:00 AM 0.15 32.27 0.325 7.74 3.05 13.78
12/18/2020 8:15:00 AM 0.17 32.306 0.325 7.76 3.29 13.82
12/18/2020 8:30:00 AM 0.18 32.324 0.325 7.78 4.12 13.89
12/18/2020 8:45:00 AM 0.21 32.378 0.326 7.8 4.5 13.99
12/18/2020 9:00:00 AM 0.24 32.432 0.326 7.83 2.73 14.15
12/18/2020 9:15:00 AM 0.28 32.504 0.326 7.88 2.78 14.34
12/18/2020 9:30:00 AM 0.31 32.558 0.327 7.93 2.71 14.51
12/18/2020 9:45:00 AM 0.36 32.648 0.327 7.98 2.81 14.69
12/18/2020 10:00:00 AM 0.4 32.72 0.328 8.05 2.75 14.87
12/18/2020 10:15:00 AM 0.45 32.81 0.329 8.12 2.95 15.04
12/18/2020 10:30:00 AM 0.52 32.936 0.33 8.19 2.77 15.23
12/18/2020 10:45:00 AM 0.59 33.062 0.33 8.27 2.96 15.42
12/18/2020 11:00:00 AM 0.67 33.206 0.33 8.37 3.11 15.63
12/18/2020 11:15:00 AM 0.75 33.35 0.33 8.43 3.17 15.82
12/18/2020 11:30:00 AM 0.82 33.476 0.33 8.52 2.67 15.97
12/18/2020 11:45:00 AM 0.86 33.548 0.33 8.58 2.83 16.07
12/18/2020 12:00:00 PM 0.91 33.638 0.329 8.63 2.84 16.13
12/18/2020 12:15:00 PM 0.98 33.764 0.329 8.69 2.85 16.22
12/18/2020 12:30:00 PM 1.03 33.854 0.329 8.7 2.67 16.31
12/18/2020 12:45:00 PM 1.06 33.908 0.329 8.76 2.8 16.38
12/18/2020 1:00:00 PM 1.12 34.016 0.33 8.79 2.79 16.41
12/18/2020 1:15:00 PM 1.18 34.124 0.33 8.82 3.27 16.48
12/18/2020 1:30:00 PM 1.23 34.214 0.33 8.85 2.7 16.52
12/18/2020 1:45:00 PM 1.27 34.286 0.331 8.88 3.4 16.54
12/18/2020 2:00:00 PM 1.31 34.358 0.331 8.88 2.94 16.54
12/18/2020 2:15:00 PM 1.35 34.43 0.332 8.93 2.85 16.54
12/18/2020 2:30:00 PM 1.38 34.484 0.332 8.95 2.62 16.56
12/18/2020 2:45:00 PM 1.42 34.556 0.332 8.97 2.61 16.54
12/18/2020 3:00:00 PM 1.44 34.592 0.332 8.97 2.95 16.49
12/18/2020 3:15:00 PM 1.46 34.628 0.332 8.99 7.77 16.45
12/18/2020 3:30:00 PM 1.48 34.664 0.333 8.98 2.77 16.37
12/18/2020 3:45:00 PM 1.49 34.682 0.334 9.01 2.78 16.26
12/18/2020 4:00:00 PM 1.49 34.682 0.335 9 2.76 16.13
12/18/2020 4:15:00 PM 1.49 34.682 0.335 8.96 3.21 15.99
12/18/2020 4:30:00 PM 1.51 34.718 0.337 8.95 2.73 15.78
12/18/2020 4:45:00 PM 1.51 34.718 0.337 8.92 2.96 15.57
12/18/2020 5:00:00 PM 1.51 34.718 0.339 8.88 2.73 15.36
12/18/2020 5:15:00 PM 1.52 34.736 0.339 8.84 3.1 15.13
12/18/2020 5:30:00 PM 1.53 34.754 0.341 8.8 2.78 14.9
12/18/2020 5:45:00 PM 1.53 34.754 0.342 8.75 3.15 14.7
12/18/2020 6:00:00 PM 1.49 34.682 0.343 8.71 2.75 14.56
12/18/2020 6:15:00 PM 1.46 34.628 0.344 8.66 2.74 14.43
12/18/2020 6:30:00 PM 1.4 34.52 0.346 8.62 2.79 14.31
12/18/2020 6:45:00 PM 1.36 34.448 0.347 8.57 2.85 14.22
12/18/2020 7:00:00 PM 1.34 34.412 0.349 8.54 5.63 14.14
12/18/2020 7:15:00 PM 1.29 34.322 0.351 8.5 3.45 14.09
12/18/2020 7:30:00 PM 1.26 34.268 0.352 8.46 5.15 14.02
12/18/2020 7:45:00 PM 1.23 34.214 0.353 8.43 4.17 13.99
12/18/2020 8:00:00 PM 1.2 34.16 0.355 8.38 3.05 13.94
12/18/2020 8:15:00 PM 1.18 34.124 0.356 8.35 2.8 13.91
12/18/2020 8:30:00 PM 1.16 34.088 0.358 8.3 2.81 13.87
12/18/2020 8:45:00 PM 1.14 34.052 0.36 8.27 3.14 13.83
12/18/2020 9:00:00 PM 1.11 33.998 0.363 8.23 2.78 13.8
12/18/2020 9:15:00 PM 1.08 33.944 0.365 8.18 2.83 13.76
12/18/2020 9:30:00 PM 1.07 33.926 0.368 8.14 2.72 13.72
12/18/2020 9:45:00 PM 1.05 33.89 0.369 8.11 2.76 13.7
12/18/2020 10:00:00 PM 1.03 33.854 0.37 8.06 2.78 13.67
12/18/2020 10:15:00 PM 1.01 33.818 0.372 8.04 2.85 13.64
12/18/2020 10:30:00 PM 1 33.8 0.374 8 2.76 13.62
12/18/2020 10:45:00 PM 0.99 33.782 0.375 7.99 2.71 13.59
12/18/2020 11:00:00 PM 0.99 33.782 0.377 7.95 2.68 13.56
12/18/2020 11:15:00 PM 0.98 33.764 0.379 7.93 2.69 13.56
12/18/2020 11:30:00 PM 0.98 33.764 0.382 7.9 2.67 13.54
12/18/2020 11:45:00 PM 0.98 33.764 0.384 7.9 2.77 13.53
12/19/2020 12:00:00 AM 0.98 33.764 0.386 7.87 2.69 13.54
12/19/2020 12:15:00 AM 0.99 33.782 0.388 7.86 2.7 13.52
12/19/2020 12:30:00 AM 0.99 33.782 0.39 7.84 2.73 13.52
12/19/2020 12:45:00 AM 0.98 33.764 0.392 7.84 2.64 13.51
12/19/2020 1:00:00 AM 0.97 33.746 0.393 7.84 2.76 13.51
12/19/2020 1:15:00 AM 0.95 33.71 0.395 7.81 2.7 13.5
12/19/2020 1:30:00 AM 0.89 33.602 0.397 7.81 2.94 13.51
12/19/2020 1:45:00 AM 0.84 33.512 0.399 7.8 2.82 13.52
12/19/2020 2:00:00 AM 0.78 33.404 0.401 7.8 2.77 13.53
12/19/2020 2:15:00 AM 0.73 33.314 0.405 7.79 2.68 13.55
12/19/2020 2:30:00 AM 0.67 33.206 0.408 7.77 2.69 13.56
12/19/2020 2:45:00 AM 0.64 33.152 0.411 7.78 3.2 13.57
12/19/2020 3:00:00 AM 0.59 33.062 0.414 7.78 2.94 13.57
12/19/2020 3:15:00 AM 0.54 32.972 0.417 7.76 2.67 13.57
12/19/2020 3:30:00 AM 0.51 32.918 0.419 7.77 2.65 13.58
12/19/2020 3:45:00 AM 0.49 32.882 0.421 7.76 2.76 13.57
12/19/2020 4:00:00 AM 0.45 32.81 0.423 7.76 2.95 13.57
12/19/2020 4:15:00 AM 0.42 32.756 0.425 7.76 2.79 13.58
12/19/2020 4:30:00 AM 0.41 32.738 0.427 7.74 3.42 13.57
12/19/2020 4:45:00 AM 0.41 32.738 0.43 7.75 2.79 13.56
12/19/2020 5:00:00 AM 0.41 32.738 0.431 7.73 3.64 13.57
12/19/2020 5:15:00 AM 0.41 32.738 0.432 7.74 2.88 13.56
12/19/2020 5:30:00 AM 0.42 32.756 0.434 7.74 2.8 13.59
12/19/2020 5:45:00 AM 0.42 32.756 0.435 7.73 2.89 13.59
12/19/2020 6:00:00 AM 0.42 32.756 0.436 7.73 2.71 13.57
12/19/2020 6:15:00 AM 0.43 32.774 0.437 7.73 2.86 13.58
12/19/2020 6:30:00 AM 0.43 32.774 0.438 7.73 2.77 13.55
12/19/2020 6:45:00 AM 0.43 32.774 0.439 7.72 2.81 13.57
12/19/2020 7:00:00 AM 0.42 32.756 0.439 7.72 2.71 13.56
12/19/2020 7:15:00 AM 0.42 32.756 0.44 7.72 2.7 13.56
12/19/2020 7:30:00 AM 0.42 32.756 0.441 7.72 2.73 13.56
12/19/2020 7:45:00 AM 0.41 32.738 0.442 7.7 4.77 13.57
12/19/2020 8:00:00 AM 0.41 32.738 0.444 7.71 2.91 13.59
12/19/2020 8:15:00 AM 0.41 32.738 0.446 7.72 2.83 13.6
12/19/2020 8:30:00 AM 0.41 32.738 0.447 7.73 3.08 13.7
12/19/2020 8:45:00 AM 0.42 32.756 0.45 7.77 2.69 13.84
12/19/2020 9:00:00 AM 0.44 32.792 0.451 7.8 2.65 14.01
12/19/2020 9:15:00 AM 0.47 32.846 0.453 7.83 2.94 14.27
12/19/2020 9:30:00 AM 0.5 32.9 0.454 7.89 3.71 14.54
12/19/2020 9:45:00 AM 0.54 32.972 0.456 7.96 3.01 14.85
12/19/2020 10:00:00 AM 0.6 33.08 0.457 8.05 4.05 15.16
12/19/2020 10:15:00 AM 0.66 33.188 0.459 8.15 2.71 15.42
12/19/2020 10:30:00 AM 0.73 33.314 0.46 8.26 2.64 15.68
12/19/2020 10:45:00 AM 0.79 33.422 0.462 8.33 2.69 15.93
12/19/2020 11:00:00 AM 0.84 33.512 0.464 8.41 2.66 16.14
12/19/2020 11:15:00 AM 0.91 33.638 0.466 8.5 2.75 16.3
12/19/2020 11:30:00 AM 0.98 33.764 0.468 8.55 2.83 16.45
12/19/2020 11:45:00 AM 1.07 33.926 0.469 8.6 2.69 16.57
12/19/2020 12:00:00 PM 1.14 34.052 0.471 8.67 2.76 16.65
12/19/2020 12:15:00 PM 1.22 34.196 0.472 8.7 2.67 16.74
12/19/2020 12:30:00 PM 1.31 34.358 0.472 8.75 2.76 16.84
12/19/2020 12:45:00 PM 1.38 34.484 0.473 8.8 2.75 16.89
12/19/2020 1:00:00 PM 1.45 34.61 0.473 8.82 2.79 16.93
12/19/2020 1:15:00 PM 1.51 34.718 0.473 8.86 2.73 16.97
12/19/2020 1:30:00 PM 1.57 34.826 0.473 8.89 2.65 16.99
12/19/2020 1:45:00 PM 1.61 34.898 0.474 8.94 3.83 16.99
12/19/2020 2:00:00 PM 1.66 34.988 0.474 8.93 2.71 16.97
12/19/2020 2:15:00 PM 1.71 35.078 0.474 8.96 2.68 16.98
12/19/2020 2:30:00 PM 1.75 35.15 0.474 8.99 2.71 16.95
12/19/2020 2:45:00 PM 1.78 35.204 0.475 9.02 2.74 16.9
12/19/2020 3:00:00 PM 1.8 35.24 0.475 9.02 2.68 16.85
12/19/2020 3:15:00 PM 1.82 35.276 0.476 9.05 2.93 16.78
12/19/2020 3:30:00 PM 1.82 35.276 0.475 9.06 2.67 16.69
12/19/2020 3:45:00 PM 1.82 35.276 0.475 9.05 2.8 16.55
12/19/2020 4:00:00 PM 1.81 35.258 0.476 9.04 2.75 16.38
12/19/2020 4:15:00 PM 1.8 35.24 0.476 9.02 2.68 16.18
12/19/2020 4:30:00 PM 1.79 35.222 0.477 9.01 2.84 16
12/19/2020 4:45:00 PM 1.77 35.186 0.477 8.97 2.7 15.77
12/19/2020 5:00:00 PM 1.76 35.168 0.477 8.93 2.7 15.53
12/19/2020 5:15:00 PM 1.73 35.114 0.478 8.89 2.86 15.29
12/19/2020 5:30:00 PM 1.7 35.06 0.479 8.86 2.9 15.07
12/19/2020 5:45:00 PM 1.67 35.006 0.479 8.81 2.7 14.85
12/19/2020 6:00:00 PM 1.65 34.97 0.479 8.75 2.81 14.66
12/19/2020 6:15:00 PM 1.63 34.934 0.48 8.73 2.74 14.5
12/19/2020 6:30:00 PM 1.61 34.898 0.48 8.68 2.88 14.36
12/19/2020 6:45:00 PM 1.59 34.862 0.481 8.64 2.93 14.24
12/19/2020 7:00:00 PM 1.58 34.844 0.482 8.61 2.71 14.14
12/19/2020 7:15:00 PM 1.58 34.844 0.483 8.58 3.13 14.07
12/19/2020 7:30:00 PM 1.59 34.862 0.484 8.55 2.76 13.99
12/19/2020 7:45:00 PM 1.59 34.862 0.485 8.5 2.71 13.93
12/19/2020 8:00:00 PM 1.59 34.862 0.485 8.48 2.7 13.85
12/19/2020 8:15:00 PM 1.59 34.862 0.486 8.44 2.77 13.8
12/19/2020 8:30:00 PM 1.6 34.88 0.487 8.41 2.71 13.75
12/19/2020 8:45:00 PM 1.6 34.88 0.488 8.38 2.69 13.69
12/19/2020 9:00:00 PM 1.6 34.88 0.489 8.33 2.68 13.64
12/19/2020 9:15:00 PM 1.6 34.88 0.491 8.27 2.68 13.6
12/19/2020 9:30:00 PM 1.59 34.862 0.493 8.25 2.81 13.56
12/19/2020 9:45:00 PM 1.59 34.862 0.494 8.2 2.66 13.52
12/19/2020 10:00:00 PM 1.58 34.844 0.495 8.16 2.75 13.47
12/19/2020 10:15:00 PM 1.56 34.808 0.496 8.12 2.63 13.43
12/19/2020 10:30:00 PM 1.54 34.772 0.496 8.09 2.69 13.4
12/19/2020 10:45:00 PM 1.52 34.736 0.497 8.06 2.65 13.37
12/19/2020 11:00:00 PM 1.5 34.7 0.497 8.01 2.7 13.34
12/19/2020 11:15:00 PM 1.48 34.664 0.497 7.99 2.87 13.3
12/19/2020 11:30:00 PM 1.47 34.646 0.498 7.96 2.66 13.29
12/19/2020 11:45:00 PM 1.47 34.646 0.498 7.94 2.73 13.27
12/20/2020 12:00:00 AM 1.46 34.628 0.498 7.91 2.73 13.26
12/20/2020 12:15:00 AM 1.45 34.61 0.499 7.9 2.69 13.25
12/20/2020 12:30:00 AM 1.45 34.61 0.499 7.89 2.66 13.23
12/20/2020 12:45:00 AM 1.45 34.61 0.498 7.86 2.74 13.21
12/20/2020 1:00:00 AM 1.45 34.61 0.498 7.85 2.66 13.2
12/20/2020 1:15:00 AM 1.45 34.61 0.497 7.85 2.69 13.19
12/20/2020 1:30:00 AM 1.45 34.61 0.496 7.84 2.67 13.17
12/20/2020 1:45:00 AM 1.46 34.628 0.496 7.82 2.7 13.17
12/20/2020 2:00:00 AM 1.46 34.628 0.495 7.8 2.63 13.15
12/20/2020 2:15:00 AM 1.47 34.646 0.494 7.81 2.63 13.14
12/20/2020 2:30:00 AM 1.47 34.646 0.494 7.81 2.83 13.14
12/20/2020 2:45:00 AM 1.47 34.646 0.494 7.79 2.69 13.14
12/20/2020 3:00:00 AM 1.47 34.646 0.494 7.79 2.71 13.13
12/20/2020 3:15:00 AM 1.48 34.664 0.495 7.79 2.62 13.13
12/20/2020 3:30:00 AM 1.49 34.682 0.494 7.79 2.63 13.11
12/20/2020 3:45:00 AM 1.49 34.682 0.494 7.77 2.71 13.1
12/20/2020 4:00:00 AM 1.49 34.682 0.494 7.77 2.68 13.09
12/20/2020 4:15:00 AM 1.49 34.682 0.494 7.77 2.64 13.09
12/20/2020 4:30:00 AM 1.49 34.682 0.494 7.77 2.65 13.09
12/20/2020 4:45:00 AM 1.49 34.682 0.494 7.77 2.67 13.07
12/20/2020 5:00:00 AM 1.5 34.7 0.494 7.76 2.66 13.08
12/20/2020 5:15:00 AM 1.51 34.718 0.495 7.75 3.37 13.07
12/20/2020 5:30:00 AM 1.51 34.718 0.495 7.75 3.14 13.07
12/20/2020 5:45:00 AM 1.51 34.718 0.496 7.76 4.25 13.07
12/20/2020 6:00:00 AM 1.52 34.736 0.497 7.75 3.23 13.06
12/20/2020 6:15:00 AM 1.52 34.736 0.498 7.75 2.75 13.03
12/20/2020 6:30:00 AM 1.52 34.736 0.498 7.73 2.68 13.03
12/20/2020 6:45:00 AM 1.51 34.718 0.499 7.74 2.98 13.04
12/20/2020 7:00:00 AM 1.48 34.664 0.499 7.73 2.66 13.03
12/20/2020 7:15:00 AM 1.44 34.592 0.499 7.74 2.89 13.01
12/20/2020 7:30:00 AM 1.42 34.556 0.5 7.74 2.82 13.02
12/20/2020 7:45:00 AM 1.4 34.52 0.5 7.73 2.67 13.02
12/20/2020 8:00:00 AM 1.4 34.52 0.501 7.74 2.71 13.06
12/20/2020 8:15:00 AM 1.4 34.52 0.502 7.77 2.7 13.16
12/20/2020 8:30:00 AM 1.37 34.466 0.503 7.78 2.64 13.28
12/20/2020 8:45:00 AM 1.36 34.448 0.503 7.81 2.64 13.4
12/20/2020 9:00:00 AM 1.33 34.394 0.504 7.85 2.64 13.54
12/20/2020 9:15:00 AM 1.32 34.376 0.504 7.87 2.7 13.72
12/20/2020 9:30:00 AM 1.32 34.376 0.504 7.93 2.65 13.93
12/20/2020 9:45:00 AM 1.32 34.376 0.504 7.99 2.67 14.11
12/20/2020 10:00:00 AM 1.34 34.412 0.504 8.04 2.63 14.33
12/20/2020 10:15:00 AM 1.38 34.484 0.505 8.09 2.68 14.55
12/20/2020 10:30:00 AM 1.45 34.61 0.505 8.21 2.6 14.81
12/20/2020 10:45:00 AM 1.54 34.772 0.505 8.28 2.63 15.11
12/20/2020 11:00:00 AM 1.62 34.916 0.505 8.38 2.62 15.31
12/20/2020 11:15:00 AM 1.69 35.042 0.506 8.45 2.64 15.51
12/20/2020 11:30:00 AM 1.75 35.15 0.506 8.51 2.59 15.65
12/20/2020 11:45:00 AM 1.8 35.24 0.506 8.51 2.64 15.73
12/20/2020 12:00:00 PM 1.84 35.312 0.506 8.58 2.65 15.78
12/20/2020 12:15:00 PM 1.88 35.384 0.506 8.62 3.03 15.83
12/20/2020 12:30:00 PM 1.93 35.474 0.506 8.67 2.67 15.87
12/20/2020 12:45:00 PM 1.96 35.528 0.506 8.68 2.64 15.91
12/20/2020 1:00:00 PM 1.98 35.564 0.505 8.73 2.63 15.92
12/20/2020 1:15:00 PM 2 35.6 0.504 8.77 2.63 15.94
12/20/2020 1:30:00 PM 2.02 35.636 0.504 8.78 2.66 15.92
12/20/2020 1:45:00 PM 2.04 35.672 0.504 8.77 2.65 15.91
12/20/2020 2:00:00 PM 2.08 35.744 0.503 8.8 2.66 15.9
12/20/2020 2:15:00 PM 2.1 35.78 0.502 8.8 2.61 15.91
12/20/2020 2:30:00 PM 2.12 35.816 0.502 8.83 2.89 15.91
12/20/2020 2:45:00 PM 2.14 35.852 0.5 8.83 2.63 15.88
12/20/2020 3:00:00 PM 2.16 35.888 0.499 8.85 2.62 15.84
12/20/2020 3:15:00 PM 2.18 35.924 0.498 8.86 2.64 15.78
12/20/2020 3:30:00 PM 2.19 35.942 0.497 8.86 2.61 15.67
12/20/2020 3:45:00 PM 2.2 35.96 0.496 8.84 2.62 15.51
12/20/2020 4:00:00 PM 2.2 35.96 0.495 8.83 2.66 15.32
12/20/2020 4:15:00 PM 2.2 35.96 0.495 8.79 2.66 15.12
12/20/2020 4:30:00 PM 2.21 35.978 0.494 8.74 2.63 14.92
12/20/2020 4:45:00 PM 2.21 35.978 0.493 8.71 2.66 14.71
12/20/2020 5:00:00 PM 2.22 35.996 0.493 8.65 2.68 14.48
12/20/2020 5:15:00 PM 2.23 36.014 0.492 8.61 2.78 14.32
12/20/2020 5:30:00 PM 2.24 36.032 0.49 8.57 2.71 14.13
12/20/2020 5:45:00 PM 2.25 36.05 0.489 8.52 2.6 13.99
12/20/2020 6:00:00 PM 2.25 36.05 0.488 8.48 2.68 13.86
12/20/2020 6:15:00 PM 2.26 36.068 0.487 8.45 2.72 13.75
12/20/2020 6:30:00 PM 2.27 36.086 0.486 8.4 2.8 13.65
12/20/2020 6:45:00 PM 2.28 36.104 0.485 8.38 2.75 13.59
12/20/2020 7:00:00 PM 2.3 36.14 0.484 8.36 2.81 13.51
12/20/2020 7:15:00 PM 2.31 36.158 0.483 8.32 2.78 13.45
12/20/2020 7:30:00 PM 2.33 36.194 0.482 8.29 2.75 13.39
12/20/2020 7:45:00 PM 2.34 36.212 0.481 8.25 2.71 13.33
12/20/2020 8:00:00 PM 2.35 36.23 0.48 8.22 2.72 13.27
12/20/2020 8:15:00 PM 2.36 36.248 0.479 8.19 2.74 13.22
12/20/2020 8:30:00 PM 2.36 36.248 0.478 8.15 2.75 13.17
12/20/2020 8:45:00 PM 2.36 36.248 0.477 8.11 2.78 13.12
12/20/2020 9:00:00 PM 2.36 36.248 0.477 8.08 2.73 13.08
12/20/2020 9:15:00 PM 2.36 36.248 0.476 8.05 2.77 13.03
12/20/2020 9:30:00 PM 2.37 36.266 0.476 8.02 2.82 13
12/20/2020 9:45:00 PM 2.39 36.302 0.476 7.98 2.75 12.95
12/20/2020 10:00:00 PM 2.39 36.302 0.474 7.97 2.73 12.91
12/20/2020 10:15:00 PM 2.4 36.32 0.473 7.92 2.71 12.89
12/20/2020 10:30:00 PM 2.4 36.32 0.471 7.91 2.75 12.86
12/20/2020 10:45:00 PM 2.41 36.338 0.47 7.89 2.7 12.82
12/20/2020 11:00:00 PM 2.41 36.338 0.469 7.87 2.71 12.8
12/20/2020 11:15:00 PM 2.41 36.338 0.468 7.85 2.71 12.77
12/20/2020 11:30:00 PM 2.41 36.338 0.467 7.85 2.71 12.75
12/20/2020 11:45:00 PM 2.41 36.338 0.466 7.81 2.76 12.74
12/21/2020 12:00:00 AM 2.41 36.338 0.466 7.82 2.77 12.71
12/21/2020 12:15:00 AM 2.42 36.356 0.464 7.8 2.6 12.71
12/21/2020 12:30:00 AM 2.42 36.356 0.463 7.8 2.67 12.69
12/21/2020 12:45:00 AM 2.42 36.356 0.461 7.79 2.6 12.68
12/21/2020 1:00:00 AM 2.43 36.374 0.46 7.78 2.54 12.67
12/21/2020 1:15:00 AM 2.42 36.356 0.459 7.77 2.62 12.67
12/21/2020 1:30:00 AM 2.43 36.374 0.458 7.77 2.59 12.65
12/21/2020 1:45:00 AM 2.43 36.374 0.458 7.76 2.6 12.65
12/21/2020 2:00:00 AM 2.43 36.374 0.457 7.76 2.58 12.63
12/21/2020 2:15:00 AM 2.43 36.374 0.457 7.75 2.62 12.64
12/21/2020 2:30:00 AM 2.43 36.374 0.458 7.76 2.77 12.63
12/21/2020 2:45:00 AM 2.43 36.374 0.458 7.76 2.84 12.62
12/21/2020 3:00:00 AM 2.44 36.392 0.457 7.73 2.59 12.62
12/21/2020 3:15:00 AM 2.44 36.392 0.457 7.75 2.64 12.61
12/21/2020 3:30:00 AM 2.42 36.356 0.457 7.74 2.68 12.61
12/21/2020 3:45:00 AM 2.4 36.32 0.456 7.74 4.02 12.61
12/21/2020 4:00:00 AM 2.37 36.266 0.456 7.74 2.59 12.6
12/21/2020 4:15:00 AM 2.33 36.194 0.456 7.72 2.6 12.6
12/21/2020 4:30:00 AM 2.3 36.14 0.456 7.72 2.68 12.61
12/21/2020 4:45:00 AM 2.28 36.104 0.457 7.72 2.71 12.61
12/21/2020 5:00:00 AM 2.26 36.068 0.458 7.72 2.57 12.6
12/21/2020 5:15:00 AM 2.25 36.05 0.459 7.72 2.58 12.6
12/21/2020 5:30:00 AM 2.24 36.032 0.459 7.72 2.61 12.62
12/21/2020 5:45:00 AM 2.24 36.032 0.46 7.7 2.58 12.62
12/21/2020 6:00:00 AM 2.24 36.032 0.46 7.72 2.75 12.62
12/21/2020 6:15:00 AM 2.25 36.05 0.461 7.7 2.56 12.62
12/21/2020 6:30:00 AM 2.24 36.032 0.461 7.71 2.63 12.62
12/21/2020 6:45:00 AM 2.24 36.032 0.462 7.71 2.62 12.63
12/21/2020 7:00:00 AM 2.23 36.014 0.463 7.7 3.17 12.63
12/21/2020 7:15:00 AM 2.22 35.996 0.464 7.71 2.58 12.63
12/21/2020 7:30:00 AM 2.21 35.978 0.465 7.7 2.62 12.62
12/21/2020 7:45:00 AM 2.21 35.978 0.467 7.7 2.61 12.64
12/21/2020 8:00:00 AM 2.21 35.978 0.469 7.71 2.53 12.67
12/21/2020 8:15:00 AM 2.21 35.978 0.47 7.73 2.5 12.78
12/21/2020 8:30:00 AM 2.22 35.996 0.47 7.76 2.53 12.9
12/21/2020 8:45:00 AM 2.24 36.032 0.471 7.79 2.55 13.17
12/21/2020 9:00:00 AM 2.27 36.086 0.471 7.86 2.5 13.38
12/21/2020 9:15:00 AM 2.31 36.158 0.471 7.9 2.5 13.68
12/21/2020 9:30:00 AM 2.37 36.266 0.471 7.99 2.59 13.98
12/21/2020 9:45:00 AM 2.43 36.374 0.471 8.11 2.49 14.29
12/21/2020 10:00:00 AM 2.5 36.5 0.472 8.21 2.55 14.68
12/21/2020 10:15:00 AM 2.59 36.662 0.473 8.32 2.61 14.96
12/21/2020 10:30:00 AM 2.67 36.806 0.473 8.42 2.51 15.24
12/21/2020 10:45:00 AM 2.74 36.932 0.473 8.5 2.57 15.45
12/21/2020 11:00:00 AM 2.84 37.112 0.474 8.58 2.6 15.63
12/21/2020 11:15:00 AM 2.95 37.31 0.473 8.65 3.03 15.8
12/21/2020 11:30:00 AM 3.01 37.418 0.473 8.72 2.57 15.92
12/21/2020 11:45:00 AM 3.09 37.562 0.471 8.77 2.48 16.03
12/21/2020 12:00:00 PM 3.16 37.688 0.47 8.82 2.57 16.12
12/21/2020 12:15:00 PM 3.23 37.814 0.47 8.87 2.5 16.19
12/21/2020 12:30:00 PM 3.3 37.94 0.469 8.89 2.65 16.26
12/21/2020 12:45:00 PM 3.36 38.048 0.468 8.95 2.62 16.3
12/21/2020 1:00:00 PM 3.42 38.156 0.468 8.97 2.55 16.36
12/21/2020 1:15:00 PM 3.49 38.282 0.468 9.01 2.58 16.38
12/21/2020 1:30:00 PM 3.55 38.39 0.467 9.04 2.56 16.39
12/21/2020 1:45:00 PM 3.6 38.48 0.467 9.06 2.55 16.38
12/21/2020 2:00:00 PM 3.63 38.534 0.466 9.07 2.54 16.3
12/21/2020 2:15:00 PM 3.68 38.624 0.465 9.1 2.64 16.28
12/21/2020 2:30:00 PM 3.74 38.732 0.464 9.12 2.58 16.29
12/21/2020 2:45:00 PM 3.79 38.822 0.463 9.14 2.63 16.29
12/21/2020 3:00:00 PM 3.81 38.858 0.462 9.14 2.57 16.22
12/21/2020 3:15:00 PM 3.81 38.858 0.462 9.15 2.62 16.04
12/21/2020 3:30:00 PM 3.8 38.84 0.461 9.14 2.57 15.84
12/21/2020 3:45:00 PM 3.79 38.822 0.461 9.14 2.79 15.64
12/21/2020 4:00:00 PM 3.78 38.804 0.461 9.12 2.67 15.41
12/21/2020 4:15:00 PM 3.78 38.804 0.461 9.1 2.71 15.18
12/21/2020 4:30:00 PM 3.77 38.786 0.461 9.07 2.58 14.95
12/21/2020 4:45:00 PM 3.77 38.786 0.461 9.05 2.68 14.71
12/21/2020 5:00:00 PM 3.76 38.768 0.461 9.01 2.72 14.4
12/21/2020 5:15:00 PM 3.75 38.75 0.461 8.97 2.75 14.14
12/21/2020 5:30:00 PM 3.74 38.732 0.461 8.92 2.86 13.88
12/21/2020 5:45:00 PM 3.73 38.714 0.463 8.87 2.63 13.64
12/21/2020 6:00:00 PM 3.7 38.66 0.463 8.83 2.81 13.45
12/21/2020 6:15:00 PM 3.68 38.624 0.466 8.8 2.8 13.32
12/21/2020 6:30:00 PM 3.68 38.624 0.467 8.76 2.75 13.21
12/21/2020 6:45:00 PM 3.68 38.624 0.468 8.73 2.86 13.11
12/21/2020 7:00:00 PM 3.68 38.624 0.469 8.69 2.9 13.02
12/21/2020 7:15:00 PM 3.67 38.606 0.47 8.66 3.05 12.94
12/21/2020 7:30:00 PM 3.67 38.606 0.472 8.61 2.75 12.86
12/21/2020 7:45:00 PM 3.67 38.606 0.472 8.58 2.7 12.8
12/21/2020 8:00:00 PM 3.67 38.606 0.474 8.53 2.68 12.74
12/21/2020 8:15:00 PM 3.66 38.588 0.476 8.48 2.73 12.66
12/21/2020 8:30:00 PM 3.64 38.552 0.477 8.43 2.82 12.62
12/21/2020 8:45:00 PM 3.64 38.552 0.479 8.38 2.72 12.56
12/21/2020 9:00:00 PM 3.63 38.534 0.482 8.3 2.82 12.51
12/21/2020 9:15:00 PM 3.63 38.534 0.484 8.25 2.94 12.46
12/21/2020 9:30:00 PM 3.62 38.516 0.485 8.19 2.83 12.43
12/21/2020 9:45:00 PM 3.62 38.516 0.487 8.13 2.92 12.38
12/21/2020 10:00:00 PM 3.61 38.498 0.489 8.07 2.72 12.34
12/21/2020 10:15:00 PM 3.6 38.48 0.49 8.03 2.83 12.3
12/21/2020 10:30:00 PM 3.59 38.462 0.493 7.98 2.74 12.27
12/21/2020 10:45:00 PM 3.59 38.462 0.496 7.95 2.78 12.25
12/21/2020 11:00:00 PM 3.58 38.444 0.499 7.91 2.74 12.22
12/21/2020 11:15:00 PM 3.57 38.426 0.502 7.89 2.85 12.2
12/21/2020 11:30:00 PM 3.56 38.408 0.505 7.86 2.76 12.17
12/21/2020 11:45:00 PM 3.57 38.426 0.509 7.85 3.3 12.14
12/22/2020 12:00:00 AM 3.57 38.426 0.512 7.83 2.84 12.14
12/22/2020 12:15:00 AM 3.58 38.444 0.514 7.8 2.85 12.13
12/22/2020 12:30:00 AM 3.58 38.444 0.518 7.8 2.82 12.12
12/22/2020 12:45:00 AM 3.59 38.462 0.521 7.79 2.82 12.1
12/22/2020 1:00:00 AM 3.59 38.462 0.523 7.78 2.84 12.09
12/22/2020 1:15:00 AM 3.59 38.462 0.527 7.78 2.91 12.07
12/22/2020 1:30:00 AM 3.6 38.48 0.53 7.77 2.83 12.06
12/22/2020 1:45:00 AM 3.6 38.48 0.535 7.76 2.85 12.07
12/22/2020 2:00:00 AM 3.61 38.498 0.54 7.76 2.9 12.06
12/22/2020 2:15:00 AM 3.61 38.498 0.543 7.75 2.95 12.05
12/22/2020 2:30:00 AM 3.62 38.516 0.546 7.75 2.89 12.03
12/22/2020 2:45:00 AM 3.63 38.534 0.549 7.73 2.88 12
12/22/2020 3:00:00 AM 3.64 38.552 0.553 7.74 2.99 12.01
12/22/2020 3:15:00 AM 3.64 38.552 0.556 7.73 2.9 11.99
12/22/2020 3:30:00 AM 3.65 38.57 0.561 7.73 2.91 11.97
12/22/2020 3:45:00 AM 3.65 38.57 0.563 7.73 2.95 11.97
12/22/2020 4:00:00 AM 3.66 38.588 0.565 7.73 2.92 11.99
12/22/2020 4:15:00 AM 3.66 38.588 0.569 7.72 2.87 11.97
12/22/2020 4:30:00 AM 3.66 38.588 0.571 7.73 2.83 11.92
12/22/2020 4:45:00 AM 3.66 38.588 0.574 7.71 3.01 11.97
12/22/2020 5:00:00 AM 3.67 38.606 0.577 7.71 2.99 11.99
12/22/2020 5:15:00 AM 3.68 38.624 0.579 7.71 3.14 11.98
12/22/2020 5:30:00 AM 3.69 38.642 0.581 7.71 3.04 11.99
12/22/2020 5:45:00 AM 3.68 38.624 0.582 7.7 3.21 11.97
12/22/2020 6:00:00 AM 3.68 38.624 0.585 7.7 3.17 11.99
12/22/2020 6:15:00 AM 3.67 38.606 0.584 7.7 3.18 11.99
12/22/2020 6:30:00 AM 3.67 38.606 0.586 7.71 3.19 12
12/22/2020 6:45:00 AM 3.66 38.588 0.587 7.69 3.09 12.01
12/22/2020 7:00:00 AM 3.66 38.588 0.589 7.7 3.16 12.01
12/22/2020 7:15:00 AM 3.67 38.606 0.592 7.7 3.18 12.01
12/22/2020 7:30:00 AM 3.67 38.606 0.592 7.69 3.21 12.01
12/22/2020 7:45:00 AM 3.68 38.624 0.593 7.69 3.32 12.01
12/22/2020 8:00:00 AM 3.68 38.624 0.595 7.7 3.25 12.02
12/22/2020 8:15:00 AM 3.68 38.624 0.594 7.7 3.16 12.07
12/22/2020 8:30:00 AM 3.69 38.642 0.597 7.72 3.3 12.15
12/22/2020 8:45:00 AM 3.7 38.66 0.597 7.73 3.21 12.25
12/22/2020 9:00:00 AM 3.7 38.66 0.597 7.75 3.34 12.35
12/22/2020 9:15:00 AM 3.71 38.678 0.597 7.79 3.55 12.51
12/22/2020 9:30:00 AM 3.72 38.696 0.597 7.82 3.38 12.7
12/22/2020 9:45:00 AM 3.74 38.732 0.597 7.85 3.35 12.82
12/22/2020 10:00:00 AM 3.75 38.75 0.595 7.88 3.46 12.9
12/22/2020 10:15:00 AM 3.76 38.768 0.594 7.89 3.72 13.02
12/22/2020 10:30:00 AM 3.79 38.822 0.594 7.94 3.88 13.17
12/22/2020 10:45:00 AM 3.82 38.876 0.592 8 3.56 13.38
12/22/2020 11:00:00 AM 3.85 38.93 0.589 8.04 5.17 13.53
12/22/2020 11:15:00 AM 3.89 39.002 0.588 8.12 3.71 13.74
12/22/2020 11:30:00 AM 3.94 39.092 0.589 8.2 3.62 13.92
12/22/2020 11:45:00 AM 3.95 39.11 0.585 8.23 3.63 13.99
12/22/2020 12:00:00 PM 3.97 39.146 0.583 8.28 3.73 14.09
12/22/2020 12:15:00 PM 4 39.2 0.582 8.33 3.73 14.19
12/22/2020 12:30:00 PM 4.02 39.236 0.58 8.37 3.75 14.3
12/22/2020 12:45:00 PM 4.04 39.272 0.576 8.44 3.81 14.41
12/22/2020 1:00:00 PM 4.07 39.326 0.571 8.47 3.93 14.51
12/22/2020 1:15:00 PM 4.11 39.398 0.566 8.53 4 14.64
12/22/2020 1:30:00 PM 4.15 39.47 0.566 8.58 4.25 14.76
12/22/2020 1:45:00 PM 4.2 39.56 0.564 8.62 4.27 14.86
12/22/2020 2:00:00 PM 4.24 39.632 0.561 8.67 4.67 14.95
12/22/2020 2:15:00 PM 4.28 39.704 0.558 8.7 4.31 15
12/22/2020 2:30:00 PM 4.3 39.74 0.555 8.74 4.6 15.01
12/22/2020 2:45:00 PM 4.31 39.758 0.553 8.73 4.87 14.93
12/22/2020 3:00:00 PM 4.3 39.74 0.55 8.73 4.56 14.83
12/22/2020 3:15:00 PM 4.3 39.74 0.549 8.72 5.17 14.75
12/22/2020 3:30:00 PM 4.28 39.704 0.546 8.7 4.76 14.62
12/22/2020 3:45:00 PM 4.27 39.686 0.544 8.67 4.81 14.49
12/22/2020 4:00:00 PM 4.24 39.632 0.539 8.65 5.32 14.4
12/22/2020 4:15:00 PM 4.21 39.578 0.537 8.61 5.42 14.25
12/22/2020 4:30:00 PM 4.2 39.56 0.536 8.57 5.68 14.06
12/22/2020 4:45:00 PM 4.18 39.524 0.534 8.5 6.11 13.86
12/22/2020 5:00:00 PM 4.13 39.434 0.53 8.43 6.4 13.66
12/22/2020 5:15:00 PM 4.08 39.344 0.528 8.35 7 13.47
12/22/2020 5:30:00 PM 4.05 39.29 0.527 8.28 7.13 13.33
12/22/2020 5:45:00 PM 4.03 39.254 0.527 8.22 7.28 13.21
12/22/2020 6:00:00 PM 3.98 39.164 0.522 8.17 8.05 13.13
12/22/2020 6:15:00 PM 3.94 39.092 0.519 8.12 7.85 13.06
12/22/2020 6:30:00 PM 3.9 39.02 0.517 8.08 9.05 13
12/22/2020 6:45:00 PM 3.85 38.93 0.509 8.03 8.21 12.95
12/22/2020 7:00:00 PM 3.83 38.894 0.508 7.99 8.95 12.89
12/22/2020 7:15:00 PM 3.81 38.858 0.507 7.94 9.41 12.84
12/22/2020 7:30:00 PM 3.8 38.84 0.507 7.91 10.29 12.79
12/22/2020 7:45:00 PM 3.78 38.804 0.507 7.88 9.9 12.74
12/22/2020 8:00:00 PM 3.78 38.804 0.509 7.85 9.8 12.7
12/22/2020 8:15:00 PM 3.79 38.822 0.514 7.81 8.79 12.65
12/22/2020 8:30:00 PM 3.8 38.84 0.516 7.8 9.11 12.61
12/22/2020 8:45:00 PM 3.79 38.822 0.513 7.78 9.47 12.58
12/22/2020 9:00:00 PM 3.8 38.84 0.517 7.76 8.72 12.55
12/22/2020 9:15:00 PM 3.8 38.84 0.518 7.75 8.73 12.52
12/22/2020 9:30:00 PM 3.81 38.858 0.521 7.73 9.56 12.5
12/22/2020 9:45:00 PM 3.82 38.876 0.523 7.71 8.94 12.49
12/22/2020 10:00:00 PM 3.82 38.876 0.525 7.7 10.08 12.46
12/22/2020 10:15:00 PM 3.82 38.876 0.529 7.71 8.04 12.44
12/22/2020 10:30:00 PM 3.81 38.858 0.534 7.7 7.97 12.45
12/22/2020 10:45:00 PM 3.8 38.84 0.538 7.68 8.98 12.44
12/22/2020 11:00:00 PM 3.78 38.804 0.539 7.68 7.99 12.44
12/22/2020 11:15:00 PM 3.76 38.768 0.542 7.68 7.81 12.44
12/22/2020 11:30:00 PM 3.73 38.714 0.542 7.67 7.3 12.43
12/22/2020 11:45:00 PM 3.7 38.66 0.541 7.67 8.3 12.43
12/23/2020 12:00:00 AM 3.68 38.624 0.542 7.67 8.47 12.44
12/23/2020 12:15:00 AM 3.66 38.588 0.543 7.66 7.49 12.44
12/23/2020 12:30:00 AM 3.63 38.534 0.541 7.66 7.56 12.44
12/23/2020 12:45:00 AM 3.61 38.498 0.542 7.66 7.72 12.44
12/23/2020 1:00:00 AM 3.58 38.444 0.54 7.65 8.48 12.45
12/23/2020 1:15:00 AM 3.55 38.39 0.541 7.63 7.82 12.45
12/23/2020 1:30:00 AM 3.52 38.336 0.54 7.64 7.82 12.46
12/23/2020 1:45:00 AM 3.47 38.246 0.536 7.64 8.12 12.48
12/23/2020 2:00:00 AM 3.43 38.174 0.534 7.64 7.64 12.49
12/23/2020 2:15:00 AM 3.39 38.102 0.532 7.63 7.72 12.51
12/23/2020 2:30:00 AM 3.33 37.994 0.528 7.63 7.52 12.53
12/23/2020 2:45:00 AM 3.29 37.922 0.527 7.63 7.4 12.55
12/23/2020 3:00:00 AM 3.26 37.868 0.528 7.62 7.11 12.55
12/23/2020 3:15:00 AM 3.22 37.796 0.525 7.62 7.06 12.57
12/23/2020 3:30:00 AM 3.19 37.742 0.525 7.62 7.12 12.57
12/23/2020 3:45:00 AM 3.15 37.67 0.525 7.63 7.53 12.59
12/23/2020 4:00:00 AM 3.12 37.616 0.523 7.62 7.3 12.6
12/23/2020 4:15:00 AM 3.1 37.58 0.522 7.62 7.42 12.61
12/23/2020 4:30:00 AM 3.07 37.526 0.519 7.62 7.38 12.61
12/23/2020 4:45:00 AM 3.02 37.436 0.516 7.61 7.08 12.64
12/23/2020 5:00:00 AM 2.97 37.346 0.515 7.62 7.34 12.67
12/23/2020 5:15:00 AM 2.92 37.256 0.512 7.6 7.18 12.68
12/23/2020 5:30:00 AM 2.88 37.184 0.509 7.61 7.13 12.69
12/23/2020 5:45:00 AM 2.83 37.094 0.508 7.61 7.33 12.7
12/23/2020 6:00:00 AM 2.79 37.022 0.509 7.61 6.9 12.72
12/23/2020 6:15:00 AM 2.76 36.968 0.51 7.6 7.05 12.73
12/23/2020 6:30:00 AM 2.73 36.914 0.511 7.6 6.67 12.73
12/23/2020 6:45:00 AM 2.69 36.842 0.511 7.61 6.49 12.75
12/23/2020 7:00:00 AM 2.65 36.77 0.51 7.61 6.4 12.76
12/23/2020 7:15:00 AM 2.61 36.698 0.508 7.61 6.92 12.79
12/23/2020 7:30:00 AM 2.57 36.626 0.508 7.6 6.82 12.8
12/23/2020 7:45:00 AM 2.52 36.536 0.506 7.61 7.77 12.86
12/23/2020 8:00:00 AM 2.47 36.446 0.503 7.61 6.59 12.92
12/23/2020 8:15:00 AM 2.44 36.392 0.501 7.64 6.61 13.03
12/23/2020 8:30:00 AM 2.41 36.338 0.5 7.66 6.76 13.19
12/23/2020 8:45:00 AM 2.4 36.32 0.499 7.7 6.28 13.36
12/23/2020 9:00:00 AM 2.4 36.32 0.499 7.73 5.9 13.55
12/23/2020 9:15:00 AM 2.42 36.356 0.498 7.78 5.95 13.73
12/23/2020 9:30:00 AM 2.45 36.41 0.498 7.84 5.95 13.93
12/23/2020 9:45:00 AM 2.5 36.5 0.495 7.87 6 14.12
12/23/2020 10:00:00 AM 2.56 36.608 0.496 7.94 5.91 14.3
12/23/2020 10:15:00 AM 2.61 36.698 0.494 8.01 5.8 14.46
12/23/2020 10:30:00 AM 2.67 36.806 0.49 8.07 5.79 14.61
12/23/2020 10:45:00 AM 2.75 36.95 0.487 8.15 5.83 14.78
12/23/2020 11:00:00 AM 2.83 37.094 0.485 8.21 5.51 14.91
12/23/2020 11:15:00 AM 2.9 37.22 0.482 8.29 5.54 15.04
12/23/2020 11:30:00 AM 2.99 37.382 0.482 8.36 5.43 15.15
12/23/2020 11:45:00 AM 3.07 37.526 0.478 8.43 5.43 15.26
12/23/2020 12:00:00 PM 3.14 37.652 0.477 8.49 5.4 15.33
12/23/2020 12:15:00 PM 3.2 37.76 0.478 8.52 5.35 15.37
12/23/2020 12:30:00 PM 3.28 37.904 0.478 8.58 5.4 15.42
12/23/2020 12:45:00 PM 3.36 38.048 0.476 8.62 5.47 15.46
12/23/2020 1:00:00 PM 3.45 38.21 0.474 8.67 5.3 15.5
12/23/2020 1:15:00 PM 3.54 38.372 0.473 8.69 5.15 15.54
12/23/2020 1:30:00 PM 3.62 38.516 0.469 8.75 5.11 15.56
12/23/2020 1:45:00 PM 3.69 38.642 0.468 8.78 4.99 15.58
12/23/2020 2:00:00 PM 3.73 38.714 0.466 8.8 5.02 15.53
12/23/2020 2:15:00 PM 3.77 38.786 0.463 8.82 5.09 15.48
12/23/2020 2:30:00 PM 3.8 38.84 0.462 8.84 5.04 15.43
12/23/2020 2:45:00 PM 3.82 38.876 0.462 8.84 5.14 15.33
12/23/2020 3:00:00 PM 3.84 38.912 0.462 8.82 5.08 15.21
12/23/2020 3:15:00 PM 3.84 38.912 0.461 8.81 5.12 15.08
12/23/2020 3:30:00 PM 3.85 38.93 0.462 8.8 4.93 14.95
12/23/2020 3:45:00 PM 3.84 38.912 0.46 8.77 5.61 14.79
12/23/2020 4:00:00 PM 3.84 38.912 0.459 8.74 5 14.67
12/23/2020 4:15:00 PM 3.83 38.894 0.458 8.71 5.01 14.5
12/23/2020 4:30:00 PM 3.81 38.858 0.456 8.65 5.05 14.32
12/23/2020 4:45:00 PM 3.78 38.804 0.456 8.6 5 14.13
12/23/2020 5:00:00 PM 3.75 38.75 0.456 8.53 5.06 13.94
12/23/2020 5:15:00 PM 3.73 38.714 0.459 8.46 5.08 13.78
12/23/2020 5:30:00 PM 3.7 38.66 0.459 8.39 5.13 13.62
12/23/2020 5:45:00 PM 3.69 38.642 0.462 8.32 4.91 13.49
12/23/2020 6:00:00 PM 3.68 38.624 0.465 8.27 4.93 13.39
12/23/2020 6:15:00 PM 3.67 38.606 0.466 8.22 5.05 13.3
12/23/2020 6:30:00 PM 3.65 38.57 0.464 8.16 4.95 13.21
12/23/2020 6:45:00 PM 3.64 38.552 0.463 8.1 4.98 13.12
12/23/2020 7:00:00 PM 3.62 38.516 0.464 8.05 5.02 13.04
12/23/2020 7:15:00 PM 3.6 38.48 0.462 8.01 4.83 12.97
12/23/2020 7:30:00 PM 3.59 38.462 0.463 7.97 4.79 12.9
12/23/2020 7:45:00 PM 3.56 38.408 0.461 7.91 4.76 12.83
12/23/2020 8:00:00 PM 3.54 38.372 0.464 7.89 4.75 12.78
12/23/2020 8:15:00 PM 3.53 38.354 0.465 7.87 4.71 12.74
12/23/2020 8:30:00 PM 3.53 38.354 0.469 7.83 4.72 12.69
12/23/2020 8:45:00 PM 3.53 38.354 0.47 7.82 4.64 12.65
12/23/2020 9:00:00 PM 3.54 38.372 0.474 7.79 4.68 12.61
12/23/2020 9:15:00 PM 3.55 38.39 0.476 7.79 4.56 12.57
12/23/2020 9:30:00 PM 3.56 38.408 0.476 7.76 4.54 12.54
12/23/2020 9:45:00 PM 3.58 38.444 0.477 7.76 4.61 12.51
12/23/2020 10:00:00 PM 3.58 38.444 0.479 7.73 4.53 12.48
12/23/2020 10:15:00 PM 3.6 38.48 0.479 7.73 4.89 12.46
12/23/2020 10:30:00 PM 3.6 38.48 0.481 7.73 4.66 12.43
12/23/2020 10:45:00 PM 3.61 38.498 0.481 7.7 4.61 12.41
12/23/2020 11:00:00 PM 3.61 38.498 0.482 7.71 4.57 12.39
12/23/2020 11:15:00 PM 3.61 38.498 0.484 7.7 4.46 12.39
12/23/2020 11:30:00 PM 3.61 38.498 0.485 7.7 4.49 12.38
12/23/2020 11:45:00 PM 3.6 38.48 0.486 7.68 4.47 12.36
12/24/2020 12:00:00 AM 3.59 38.462 0.485 7.69 4.51 12.35
12/24/2020 12:15:00 AM 3.6 38.48 0.487 7.68 6.51 12.33
12/24/2020 12:30:00 AM 3.61 38.498 0.485 7.68 4.47 12.32
12/24/2020 12:45:00 AM 3.64 38.552 0.483 7.67 4.33 12.32
12/24/2020 1:00:00 AM 3.66 38.588 0.479 7.68 4.51 12.31
12/24/2020 1:15:00 AM 3.68 38.624 0.479 7.66 4.35 12.29
12/24/2020 1:30:00 AM 3.68 38.624 0.475 7.67 4.38 12.29
12/24/2020 1:45:00 AM 3.69 38.642 0.474 7.66 4.33 12.28
12/24/2020 2:00:00 AM 3.71 38.678 0.475 7.66 4.38 12.27
12/24/2020 2:15:00 AM 3.71 38.678 0.473 7.67 4.35 12.27
12/24/2020 2:30:00 AM 3.71 38.678 0.471 7.66 4.3 12.26
12/24/2020 2:45:00 AM 3.7 38.66 0.469 7.65 4.35 12.26
12/24/2020 3:00:00 AM 3.69 38.642 0.464 7.66 4.39 12.26
12/24/2020 3:15:00 AM 3.69 38.642 0.463 7.64 4.33 12.26
12/24/2020 3:30:00 AM 3.68 38.624 0.46 7.66 4.45 12.25
12/24/2020 3:45:00 AM 3.66 38.588 0.457 7.65 4.21 12.26
12/24/2020 4:00:00 AM 3.64 38.552 0.456 7.64 4.26 12.26
12/24/2020 4:15:00 AM 3.65 38.57 0.454 7.65 4.29 12.25
12/24/2020 4:30:00 AM 3.66 38.588 0.454 7.63 4.24 12.26
12/24/2020 4:45:00 AM 3.68 38.624 0.454 7.64 4.26 12.25
12/24/2020 5:00:00 AM 3.68 38.624 0.453 7.64 4.29 12.24
12/24/2020 5:15:00 AM 3.69 38.642 0.452 7.64 4.28 12.24
12/24/2020 5:30:00 AM 3.7 38.66 0.452 7.64 4.27 12.23
12/24/2020 5:45:00 AM 3.71 38.678 0.45 7.64 4.36 12.23
12/24/2020 6:00:00 AM 3.73 38.714 0.45 7.63 4.24 12.22
12/24/2020 6:15:00 AM 3.74 38.732 0.45 7.63 4.22 12.2
12/24/2020 6:30:00 AM 3.74 38.732 0.447 7.63 4.1 12.2
12/24/2020 6:45:00 AM 3.75 38.75 0.445 7.62 4.14 12.21
12/24/2020 7:00:00 AM 3.76 38.768 0.442 7.63 4.17 12.2
12/24/2020 7:15:00 AM 3.77 38.786 0.442 7.63 4.02 12.21
12/24/2020 7:30:00 AM 3.76 38.768 0.436 7.63 4.09 12.23
12/24/2020 7:45:00 AM 3.77 38.786 0.435 7.62 4.53 12.23
12/24/2020 8:00:00 AM 3.76 38.768 0.429 7.63 4.16 12.25
12/24/2020 8:15:00 AM 3.77 38.786 0.43 7.64 4.34 12.26
12/24/2020 8:30:00 AM 3.78 38.804 0.425 7.64 4.19 12.29
12/24/2020 8:45:00 AM 3.78 38.804 0.419 7.63 4.3 12.34
12/24/2020 9:00:00 AM 3.77 38.786 0.411 7.64 4.37 12.39
12/24/2020 9:15:00 AM 3.76 38.768 0.403 7.66 4.61 12.48
12/24/2020 9:30:00 AM 3.74 38.732 0.391 7.65 4.88 12.57
12/24/2020 9:45:00 AM 3.72 38.696 0.378 7.66 5.61 12.66
12/24/2020 10:00:00 AM 3.68 38.624 0.362 7.65 7.75 12.72
12/24/2020 10:15:00 AM 3.61 38.498 0.345 7.62 15.4 12.79
12/24/2020 10:30:00 AM 3.52 38.336 0.328 7.63 19.55 12.84
12/24/2020 10:45:00 AM 3.42 38.156 0.315 7.6 29.01 12.9
12/24/2020 11:00:00 AM 3.31 37.958 0.307 7.58 52.53 12.95
12/24/2020 11:15:00 AM 3.23 37.814 0.297 7.58 56.97 13.02
12/24/2020 11:30:00 AM 3.2 37.76 0.293 7.55 52.07 13.05
12/24/2020 11:45:00 AM 3.18 37.724 0.286 7.56 66.04 13.07
12/24/2020 12:00:00 PM 3.14 37.652 0.281 7.52 48.62 13.09
12/24/2020 12:15:00 PM 3.1 37.58 0.279 7.53 57.11 13.09
12/24/2020 12:30:00 PM 3.07 37.526 0.279 7.48 55.47 13.08
12/24/2020 12:45:00 PM 3.02 37.436 0.274 7.48 85.39 13.05
12/24/2020 1:00:00 PM 2.98 37.364 0.271 7.46 75.46 13.08
12/24/2020 1:15:00 PM 2.93 37.274 0.261 7.45 75.02 13.09
12/24/2020 1:30:00 PM 2.93 37.274 0.26 7.42 83.63 13.11
12/24/2020 1:45:00 PM 2.91 37.238 0.264 7.36 76.33 13.11
12/24/2020 2:00:00 PM 2.84 37.112 0.257 7.32 102.09 13.11
12/24/2020 2:15:00 PM 2.82 37.076 0.252 7.28 90.12 13.07
12/24/2020 2:30:00 PM 2.78 37.004 0.248 7.29 117.26 13.05
12/24/2020 2:45:00 PM 2.74 36.932 0.247 7.24 131.08 13.02
12/24/2020 3:00:00 PM 2.69 36.842 0.242 7.19 191.61 13
12/24/2020 3:15:00 PM 2.66 36.788 0.245 7.12 156.38 13
12/24/2020 3:30:00 PM 2.66 36.788 0.245 7.17 147.6 12.96
12/24/2020 3:45:00 PM 2.69 36.842 0.246 7.2 195.54 12.92
12/24/2020 4:00:00 PM 2.76 36.968 0.248 7.2 157.85 12.89
12/24/2020 4:15:00 PM 2.78 37.004 0.246 7.19 145.54 12.86
12/24/2020 4:30:00 PM 2.83 37.094 0.249 7.16 150.85 12.81
12/24/2020 4:45:00 PM 2.8 37.04 0.244 7.14 162.91 12.76
12/24/2020 5:00:00 PM 2.78 37.004 0.242 7.14 191.64 12.74
12/24/2020 5:15:00 PM 2.8 37.04 0.236 7.05 174.65 12.69
12/24/2020 5:30:00 PM 2.84 37.112 0.232 7.19 161.95 12.66
12/24/2020 5:45:00 PM 2.85 37.13 0.223 7.17 156.65 12.65
12/24/2020 6:00:00 PM 2.85 37.13 0.215 7.2 158.85 12.64
12/24/2020 6:15:00 PM 2.87 37.166 0.21 7.12 141.66 12.62
12/24/2020 6:30:00 PM 2.88 37.184 0.205 7.11 135.63 12.61
12/24/2020 6:45:00 PM 2.89 37.202 0.201 7.09 143.81 12.63
12/24/2020 7:00:00 PM 2.92 37.256 0.2 7.16 136.36 12.62
12/24/2020 7:15:00 PM 2.94 37.292 0.197 7.13 138.59 12.6
12/24/2020 7:30:00 PM 2.98 37.364 0.194 7.05 127.3 12.58
12/24/2020 7:45:00 PM 3.02 37.436 0.192 7.07 118.28 12.57
12/24/2020 8:00:00 PM 3.05 37.49 0.189 7.02 113.22 12.57
12/24/2020 8:15:00 PM 3.07 37.526 0.185 7.06 105.22 12.57
12/24/2020 8:30:00 PM 3.09 37.562 0.183 7.08 92.48 12.57
12/24/2020 8:45:00 PM 3.12 37.616 0.18 7.1 90.93 12.57
12/24/2020 9:00:00 PM 3.15 37.67 0.179 7.04 86.43 12.56
12/24/2020 9:15:00 PM 3.18 37.724 0.178 7.01 76.96 12.56
12/24/2020 9:30:00 PM 3.22 37.796 0.177 7.04 87.18 12.55
12/24/2020 9:45:00 PM 3.25 37.85 0.175 7.03 81.93 12.54
12/24/2020 10:00:00 PM 3.28 37.904 0.173 7.05 72.26 12.53
12/24/2020 10:15:00 PM 3.3 37.94 0.171 7.04 66.51 12.52
12/24/2020 10:30:00 PM 3.33 37.994 0.17 7.04 69.87 12.53
12/24/2020 10:45:00 PM 3.36 38.048 0.171 7.03 70.69 12.52
12/24/2020 11:00:00 PM 3.41 38.138 0.17 7.1 57.7 12.5
12/24/2020 11:15:00 PM 3.46 38.228 0.171 7.03 57.74 12.47
12/24/2020 11:30:00 PM 3.52 38.336 0.174 7.05 54.71 12.44
12/24/2020 11:45:00 PM 3.56 38.408 0.169 7.03 54.33 12.43
12/25/2020 12:00:00 AM 3.57 38.426 0.166 7.06 60.83 12.43
12/25/2020 12:15:00 AM 3.54 38.372 0.162 7 65.74 12.44
12/25/2020 12:30:00 AM 3.46 38.228 0.16 6.96 79.75 12.45
12/25/2020 12:45:00 AM 3.42 38.156 0.162 7.04 69.22 12.47
12/25/2020 1:00:00 AM 3.35 38.03 0.159 6.96 87.66 12.49
12/25/2020 1:15:00 AM 3.29 37.922 0.157 7.02 75.41 12.5
12/25/2020 1:30:00 AM 3.28 37.904 0.156 6.99 63.66 12.52
12/25/2020 1:45:00 AM 3.28 37.904 0.154 6.99 152.33 12.53
12/25/2020 2:00:00 AM 3.3 37.94 0.154 7.03 61.5 12.54
12/25/2020 2:15:00 AM 3.29 37.922 0.153 6.99 50.05 12.55
12/25/2020 2:30:00 AM 3.29 37.922 0.152 7.02 51.93 12.56
12/25/2020 2:45:00 AM 3.29 37.922 0.154 7.02 52.19 12.56
12/25/2020 3:00:00 AM 3.29 37.922 0.155 6.98 61.01 12.55
12/25/2020 3:15:00 AM 3.28 37.904 0.157 7.02 50.32 12.54
12/25/2020 3:30:00 AM 3.26 37.868 0.159 7.01 52.83 12.54
12/25/2020 3:45:00 AM 3.25 37.85 0.16 7.03 53.64 12.54
12/25/2020 4:00:00 AM 3.24 37.832 0.16 7.02 52.64 12.54
12/25/2020 4:15:00 AM 3.22 37.796 0.158 7.02 45.87 12.55
12/25/2020 4:30:00 AM 3.2 37.76 0.156 7.08 44.09 12.56
12/25/2020 4:45:00 AM 3.17 37.706 0.156 7 47.34 12.57
12/25/2020 5:00:00 AM 3.16 37.688 0.156 7.08 42.74 12.58
12/25/2020 5:15:00 AM 3.16 37.688 0.157 7.06 36.19 12.57
12/25/2020 5:30:00 AM 3.16 37.688 0.159 7.1 35.58 12.58
12/25/2020 5:45:00 AM 3.15 37.67 0.161 7.04 35.36 12.58
12/25/2020 6:00:00 AM 3.15 37.67 0.162 7.08 30.98 12.58
12/25/2020 6:15:00 AM 3.14 37.652 0.164 7.01 31.66 12.6
12/25/2020 6:30:00 AM 3.13 37.634 0.166 7.09 30.15 12.61
12/25/2020 6:45:00 AM 3.13 37.634 0.168 7.07 26.35 12.61
12/25/2020 7:00:00 AM 3.13 37.634 0.169 7.11 32.19 12.61
12/25/2020 7:15:00 AM 3.14 37.652 0.169 7.14 26.98 12.61
12/25/2020 7:30:00 AM 3.16 37.688 0.17 7.12 26.05 12.6
12/25/2020 7:45:00 AM 3.17 37.706 0.172 7.15 23.24 12.58
12/25/2020 8:00:00 AM 3.17 37.706 0.171 7.13 22.89 12.59
12/25/2020 8:15:00 AM 3.16 37.688 0.17 7.18 25.3 12.61
12/25/2020 8:30:00 AM 3.15 37.67 0.17 7.15 27.23 12.62
12/25/2020 8:45:00 AM 3.15 37.67 0.171 7.17 21.19 12.61
12/25/2020 9:00:00 AM 3.16 37.688 0.172 7.15 22.1 12.61
12/25/2020 9:15:00 AM 3.15 37.67 0.172 7.19 22.22 12.62
12/25/2020 9:30:00 AM 3.14 37.652 0.172 7.11 22.12 12.63
12/25/2020 9:45:00 AM 3.13 37.634 0.171 7.18 19.01 12.65
12/25/2020 10:00:00 AM 3.13 37.634 0.173 7.22 20.49 12.65
12/25/2020 10:15:00 AM 3.14 37.652 0.174 7.19 24.72 12.65
12/25/2020 10:30:00 AM 3.16 37.688 0.173 7.15 17.42 12.66
12/25/2020 10:45:00 AM 3.16 37.688 0.173 7.17 17.51 12.68
12/25/2020 11:00:00 AM 3.17 37.706 0.171 7.2 17.82 12.71
12/25/2020 11:15:00 AM 3.18 37.724 0.17 7.2 16.36 12.72
12/25/2020 11:30:00 AM 3.2 37.76 0.17 7.21 17.59 12.73
12/25/2020 11:45:00 AM 3.23 37.814 0.171 7.2 16.52 12.71
12/25/2020 12:00:00 PM 3.27 37.886 0.172 7.23 15.52 12.71
12/25/2020 12:15:00 PM 3.29 37.922 0.172 7.19 15.07 12.72
12/25/2020 12:30:00 PM 3.3 37.94 0.171 7.24 16.68 12.74
12/25/2020 12:45:00 PM 3.32 37.976 0.171 7.24 16.4 12.76
12/25/2020 1:00:00 PM 3.35 38.03 0.171 7.24 14.99 12.76
12/25/2020 1:15:00 PM 3.38 38.084 0.172 7.23 14.52 12.74
12/25/2020 1:30:00 PM 3.42 38.156 0.173 7.22 13.69 12.73
12/25/2020 1:45:00 PM 3.44 38.192 0.173 7.24 14.79 12.73
12/25/2020 2:00:00 PM 3.44 38.192 0.171 7.2 14 12.74
12/25/2020 2:15:00 PM 3.42 38.156 0.169 7.22 13.99 12.75
12/25/2020 2:30:00 PM 3.42 38.156 0.169 7.25 13.84 12.76
12/25/2020 2:45:00 PM 3.41 38.138 0.17 7.23 13.86 12.76
12/25/2020 3:00:00 PM 3.39 38.102 0.17 7.24 13.54 12.75
12/25/2020 3:15:00 PM 3.39 38.102 0.172 7.25 13.57 12.74
12/25/2020 3:30:00 PM 3.38 38.084 0.174 7.25 12.95 12.73
12/25/2020 3:45:00 PM 3.37 38.066 0.174 7.22 12.96 12.72
12/25/2020 4:00:00 PM 3.35 38.03 0.172 7.22 12.79 12.73
12/25/2020 4:15:00 PM 3.31 37.958 0.171 7.24 12.5 12.74
12/25/2020 4:30:00 PM 3.28 37.904 0.171 7.2 12.58 12.74
12/25/2020 4:45:00 PM 3.25 37.85 0.171 7.23 12.75 12.74
12/25/2020 5:00:00 PM 3.22 37.796 0.172 7.22 12.14 12.73
12/25/2020 5:15:00 PM 3.2 37.76 0.175 7.24 11.76 12.7
12/25/2020 5:30:00 PM 3.17 37.706 0.176 7.22 11.37 12.69
12/25/2020 5:45:00 PM 3.13 37.634 0.176 7.21 11.88 12.71
12/25/2020 6:00:00 PM 3.08 37.544 0.175 7.22 11.34 12.73
12/25/2020 6:15:00 PM 3.02 37.436 0.175 7.19 11.13 12.76
12/25/2020 6:30:00 PM 2.97 37.346 0.174 7.23 11.08 12.77
12/25/2020 6:45:00 PM 2.93 37.274 0.176 7.19 11.1 12.78
12/25/2020 7:00:00 PM 2.89 37.202 0.176 7.21 10.78 12.8
12/25/2020 7:15:00 PM 2.85 37.13 0.177 7.21 10.98 12.8
12/25/2020 7:30:00 PM 2.84 37.112 0.18 7.23 10.52 12.8
12/25/2020 7:45:00 PM 2.81 37.058 0.181 7.21 10.55 12.79
12/25/2020 8:00:00 PM 2.79 37.022 0.182 7.22 10.01 12.8
12/25/2020 8:15:00 PM 2.75 36.95 0.181 7.25 10.29 12.82
12/25/2020 8:30:00 PM 2.71 36.878 0.18 7.2 10 12.85
12/25/2020 8:45:00 PM 2.66 36.788 0.18 7.23 9.99 12.88
12/25/2020 9:00:00 PM 2.61 36.698 0.18 7.2 10.1 12.89
12/25/2020 9:15:00 PM 2.56 36.608 0.181 7.22 9.92 12.91
12/25/2020 9:30:00 PM 2.52 36.536 0.182 7.22 9.74 12.93
12/25/2020 9:45:00 PM 2.49 36.482 0.183 7.23 9.69 12.93
12/25/2020 10:00:00 PM 2.47 36.446 0.184 7.22 9.36 12.93
12/25/2020 10:15:00 PM 2.45 36.41 0.186 7.24 9.47 12.92
12/25/2020 10:30:00 PM 2.43 36.374 0.186 7.2 9.49 12.93
12/25/2020 10:45:00 PM 2.39 36.302 0.184 7.22 9.43 12.96
12/25/2020 11:00:00 PM 2.34 36.212 0.183 7.21 9.07 12.99
12/25/2020 11:15:00 PM 2.29 36.122 0.181 7.23 9.28 13.01
12/25/2020 11:30:00 PM 2.24 36.032 0.181 7.21 9.21 13.04
12/25/2020 11:45:00 PM 2.19 35.942 0.181 7.23 9.03 13.05
12/26/2020 12:00:00 AM 2.15 35.87 0.18 7.24 8.99 13.07
12/26/2020 12:15:00 AM 2.12 35.816 0.18 7.23 8.89 13.09
12/26/2020 12:30:00 AM 2.08 35.744 0.179 7.19 8.77 13.1
12/26/2020 12:45:00 AM 2.05 35.69 0.179 7.23 8.47 13.12
12/26/2020 1:00:00 AM 2.01 35.618 0.179 7.25 8.31 13.13
12/26/2020 1:15:00 AM 1.98 35.564 0.18 7.26 8.46 13.14
12/26/2020 1:30:00 AM 1.96 35.528 0.18 7.25 8.49 13.15
12/26/2020 1:45:00 AM 1.94 35.492 0.181 7.26 8.11 13.16
12/26/2020 2:00:00 AM 1.93 35.474 0.182 7.27 7.88 13.15
12/26/2020 2:15:00 AM 1.93 35.474 0.184 7.3 8.01 13.15
12/26/2020 2:30:00 AM 1.92 35.456 0.184 7.28 7.71 13.15
12/26/2020 2:45:00 AM 1.89 35.402 0.183 7.28 7.82 13.17
12/26/2020 3:00:00 AM 1.85 35.33 0.182 7.3 7.57 13.19
12/26/2020 3:15:00 AM 1.8 35.24 0.181 7.27 7.84 13.22
12/26/2020 3:30:00 AM 1.76 35.168 0.179 7.29 8.07 13.25
12/26/2020 3:45:00 AM 1.72 35.096 0.179 7.29 7.58 13.26
12/26/2020 4:00:00 AM 1.7 35.06 0.179 7.26 7.45 13.27
12/26/2020 4:15:00 AM 1.68 35.024 0.18 7.28 7.52 13.28
12/26/2020 4:30:00 AM 1.66 34.988 0.18 7.31 7.3 13.29
12/26/2020 4:45:00 AM 1.64 34.952 0.18 7.27 7.49 13.3
12/26/2020 5:00:00 AM 1.63 34.934 0.181 7.29 7.47 13.3
12/26/2020 5:15:00 AM 1.63 34.934 0.184 7.31 7.32 13.29
12/26/2020 5:30:00 AM 1.62 34.916 0.185 7.3 7.02 13.28
12/26/2020 5:45:00 AM 1.61 34.898 0.185 7.3 7.09 13.3
12/26/2020 6:00:00 AM 1.58 34.844 0.183 7.3 6.97 13.32
12/26/2020 6:15:00 AM 1.55 34.79 0.181 7.3 7.07 13.34
12/26/2020 6:30:00 AM 1.52 34.736 0.181 7.3 7.23 13.36
12/26/2020 6:45:00 AM 1.5 34.7 0.18 7.3 6.92 13.38
12/26/2020 7:00:00 AM 1.48 34.664 0.181 7.3 6.93 13.39
12/26/2020 7:15:00 AM 1.46 34.628 0.182 7.32 6.84 13.4
12/26/2020 7:30:00 AM 1.44 34.592 0.184 7.29 6.74 13.4
12/26/2020 7:45:00 AM 1.43 34.574 0.184 7.31 6.76 13.41
12/26/2020 8:00:00 AM 1.44 34.592 0.186 7.31 6.75 13.42
12/26/2020 8:15:00 AM 1.45 34.61 0.188 7.3 6.48 13.43
12/26/2020 8:30:00 AM 1.47 34.646 0.19 7.33 6.56 13.43
12/26/2020 8:45:00 AM 1.47 34.646 0.189 7.31 6.17 13.46
12/26/2020 9:00:00 AM 1.47 34.646 0.187 7.34 6.25 13.5
12/26/2020 9:15:00 AM 1.46 34.628 0.185 7.35 6.38 13.54
12/26/2020 9:30:00 AM 1.46 34.628 0.184 7.32 6.22 13.57
12/26/2020 9:45:00 AM 1.47 34.646 0.183 7.35 6.17 13.6
12/26/2020 10:00:00 AM 1.48 34.664 0.183 7.37 6.05 13.62
12/26/2020 10:15:00 AM 1.5 34.7 0.183 7.35 6.39 13.64
12/26/2020 10:30:00 AM 1.52 34.736 0.183 7.38 6.33 13.66
12/26/2020 10:45:00 AM 1.54 34.772 0.182 7.36 6.01 13.67
12/26/2020 11:00:00 AM 1.56 34.808 0.183 7.39 5.96 13.67
12/26/2020 11:15:00 AM 1.6 34.88 0.184 7.38 5.92 13.67
12/26/2020 11:30:00 AM 1.64 34.952 0.185 7.4 5.57 13.67
12/26/2020 11:45:00 AM 1.68 35.024 0.185 7.39 5.78 13.67
12/26/2020 12:00:00 PM 1.7 35.06 0.184 7.4 5.71 13.68
12/26/2020 12:15:00 PM 1.72 35.096 0.184 7.41 5.64 13.69
12/26/2020 12:30:00 PM 1.74 35.132 0.183 7.42 5.45 13.69
12/26/2020 12:45:00 PM 1.77 35.186 0.183 7.42 5.78 13.69
12/26/2020 1:00:00 PM 1.8 35.24 0.183 7.43 6.09 13.68
12/26/2020 1:15:00 PM 1.84 35.312 0.185 7.42 6.14 13.67
12/26/2020 1:30:00 PM 1.89 35.402 0.188 7.43 5.9 13.66
12/26/2020 1:45:00 PM 1.94 35.492 0.189 7.45 5.81 13.64
12/26/2020 2:00:00 PM 1.96 35.528 0.189 7.44 5.91 13.63
12/26/2020 2:15:00 PM 1.96 35.528 0.189 7.45 5.59 13.62
12/26/2020 2:30:00 PM 1.97 35.546 0.188 7.45 5.37 13.62
12/26/2020 2:45:00 PM 1.98 35.564 0.188 7.42 5.58 13.61
12/26/2020 3:00:00 PM 1.99 35.582 0.189 7.46 5.53 13.6
12/26/2020 3:15:00 PM 1.99 35.582 0.19 7.44 5.39 13.59
12/26/2020 3:30:00 PM 2 35.6 0.19 7.44 5.77 13.58
12/26/2020 3:45:00 PM 2 35.6 0.192 7.44 5.29 13.56
12/26/2020 4:00:00 PM 2 35.6 0.192 7.44 5.37 13.53
12/26/2020 4:15:00 PM 2 35.6 0.193 7.43 5.47 13.51
12/26/2020 4:30:00 PM 2 35.6 0.194 7.43 5.28 13.47
12/26/2020 4:45:00 PM 2.01 35.618 0.197 7.42 5.37 13.43
12/26/2020 5:00:00 PM 2.02 35.636 0.199 7.42 4.97 13.39
12/26/2020 5:15:00 PM 2.02 35.636 0.198 7.41 5.15 13.37
12/26/2020 5:30:00 PM 2 35.6 0.198 7.41 5.66 13.36
12/26/2020 5:45:00 PM 1.98 35.564 0.197 7.4 5.08 13.36
12/26/2020 6:00:00 PM 1.96 35.528 0.196 7.39 5.23 13.35
12/26/2020 6:15:00 PM 1.95 35.51 0.196 7.41 5.13 13.35
12/26/2020 6:30:00 PM 1.93 35.474 0.196 7.41 4.98 13.35
12/26/2020 6:45:00 PM 1.92 35.456 0.196 7.37 5.04 13.34
12/26/2020 7:00:00 PM 1.91 35.438 0.197 7.4 5.02 13.33
12/26/2020 7:15:00 PM 1.92 35.456 0.201 7.38 5.07 13.32
12/26/2020 7:30:00 PM 1.92 35.456 0.202 7.39 4.86 13.31
12/26/2020 7:45:00 PM 1.92 35.456 0.202 7.4 5.26 13.31
12/26/2020 8:00:00 PM 1.9 35.42 0.201 7.37 5 13.32
12/26/2020 8:15:00 PM 1.88 35.384 0.199 7.38 4.85 13.33
12/26/2020 8:30:00 PM 1.87 35.366 0.198 7.4 4.86 13.34
12/26/2020 8:45:00 PM 1.86 35.348 0.197 7.37 4.92 13.34
12/26/2020 9:00:00 PM 1.84 35.312 0.197 7.39 5.15 13.34
12/26/2020 9:15:00 PM 1.84 35.312 0.197 7.39 4.95 13.34
12/26/2020 9:30:00 PM 1.83 35.294 0.197 7.38 5.02 13.34
12/26/2020 9:45:00 PM 1.82 35.276 0.197 7.39 4.92 13.35
12/26/2020 10:00:00 PM 1.82 35.276 0.197 7.36 5.02 13.35
12/26/2020 10:15:00 PM 1.82 35.276 0.197 7.38 4.75 13.34
12/26/2020 10:30:00 PM 1.83 35.294 0.198 7.39 4.64 13.34
12/26/2020 10:45:00 PM 1.84 35.312 0.199 7.38 4.88 13.33
12/26/2020 11:00:00 PM 1.84 35.312 0.197 7.37 4.9 13.33
12/26/2020 11:15:00 PM 1.83 35.294 0.196 7.38 4.78 13.34
12/26/2020 11:30:00 PM 1.82 35.276 0.195 7.38 4.78 13.35
12/26/2020 11:45:00 PM 1.81 35.258 0.194 7.38 4.87 13.36
12/27/2020 12:00:00 AM 1.8 35.24 0.193 7.38 4.85 13.37
12/27/2020 12:15:00 AM 1.8 35.24 0.193 7.38 4.61 13.36
12/27/2020 12:30:00 AM 1.82 35.276 0.195 7.39 4.7 13.36
12/27/2020 12:45:00 AM 1.83 35.294 0.197 7.37 4.72 13.34
12/27/2020 1:00:00 AM 1.85 35.33 0.198 7.39 4.59 13.33
12/27/2020 1:15:00 AM 1.86 35.348 0.197 7.38 4.53 13.33
12/27/2020 1:30:00 AM 1.86 35.348 0.195 7.39 4.63 13.34
12/27/2020 1:45:00 AM 1.85 35.33 0.194 7.39 4.69 13.35
12/27/2020 2:00:00 AM 1.85 35.33 0.194 7.35 4.82 13.36
12/27/2020 2:15:00 AM 1.84 35.312 0.193 7.38 4.7 13.36
12/27/2020 2:30:00 AM 1.85 35.33 0.194 7.38 4.77 13.36
12/27/2020 2:45:00 AM 1.85 35.33 0.193 7.38 4.84 13.36
12/27/2020 3:00:00 AM 1.85 35.33 0.194 7.39 4.52 13.37
12/27/2020 3:15:00 AM 1.85 35.33 0.193 7.39 4.52 13.37
12/27/2020 3:30:00 AM 1.86 35.348 0.194 7.36 4.6 13.37
12/27/2020 3:45:00 AM 1.87 35.366 0.194 7.38 4.75 13.36
12/27/2020 4:00:00 AM 1.89 35.402 0.196 7.39 4.53 13.35
12/27/2020 4:15:00 AM 1.91 35.438 0.198 7.39 4.59 13.34
12/27/2020 4:30:00 AM 1.93 35.474 0.198 7.39 4.58 13.33
12/27/2020 4:45:00 AM 1.94 35.492 0.198 7.39 4.37 13.33
12/27/2020 5:00:00 AM 1.94 35.492 0.198 7.38 4.36 13.34
12/27/2020 5:15:00 AM 1.93 35.474 0.196 7.39 4.46 13.34
12/27/2020 5:30:00 AM 1.92 35.456 0.196 7.4 4.13 13.35
12/27/2020 5:45:00 AM 1.91 35.438 0.196 7.38 4.32 13.35
12/27/2020 6:00:00 AM 1.92 35.456 0.197 7.39 4.41 13.34
12/27/2020 6:15:00 AM 1.92 35.456 0.199 7.39 4.35 13.34
12/27/2020 6:30:00 AM 1.91 35.438 0.2 7.4 4.32 13.33
12/27/2020 6:45:00 AM 1.9 35.42 0.201 7.4 4.3 13.33
12/27/2020 7:00:00 AM 1.88 35.384 0.201 7.36 4.2 13.34
12/27/2020 7:15:00 AM 1.86 35.348 0.201 7.39 4.23 13.35
12/27/2020 7:30:00 AM 1.84 35.312 0.202 7.36 4.17 13.36
12/27/2020 7:45:00 AM 1.82 35.276 0.202 7.39 4.27 13.38
12/27/2020 8:00:00 AM 1.81 35.258 0.204 7.39 4.37 13.39
12/27/2020 8:15:00 AM 1.8 35.24 0.204 7.41 4.11 13.43
12/27/2020 8:30:00 AM 1.79 35.222 0.203 7.41 4.95 13.47
12/27/2020 8:45:00 AM 1.8 35.24 0.203 7.42 4.18 13.51
12/27/2020 9:00:00 AM 1.82 35.276 0.203 7.4 4.12 13.56
12/27/2020 9:15:00 AM 1.85 35.33 0.203 7.43 4.17 13.59
12/27/2020 9:30:00 AM 1.89 35.402 0.204 7.44 4.26 13.61
12/27/2020 9:45:00 AM 1.94 35.492 0.205 7.46 4.11 13.64
12/27/2020 10:00:00 AM 1.99 35.582 0.205 7.47 3.97 13.66
12/27/2020 10:15:00 AM 2.03 35.654 0.204 7.49 4.12 13.69
12/27/2020 10:30:00 AM 2.09 35.762 0.203 7.48 4.07 13.72
12/27/2020 10:45:00 AM 2.11 35.798 0.201 7.49 4.06 13.74
12/27/2020 11:00:00 AM 2.19 35.942 0.199 7.51 4.01 13.76
12/27/2020 11:15:00 AM 2.22 35.996 0.197 7.51 4.02 13.78
12/27/2020 11:30:00 AM 2.28 36.104 0.195 7.51 3.93 13.78
12/27/2020 11:45:00 AM 2.33 36.194 0.193 7.52 4.1 13.79
12/27/2020 12:00:00 PM 2.39 36.302 0.193 7.54 4 13.79
12/27/2020 12:15:00 PM 2.46 36.428 0.193 7.52 3.84 13.77
12/27/2020 12:30:00 PM 2.55 36.59 0.193 7.54 3.94 13.75
12/27/2020 12:45:00 PM 2.62 36.716 0.194 7.55 3.79 13.73
12/27/2020 1:00:00 PM 2.69 36.842 0.193 7.53 3.82 13.71
12/27/2020 1:15:00 PM 2.74 36.932 0.192 7.54 3.63 13.69
12/27/2020 1:30:00 PM 2.78 37.004 0.191 7.55 3.8 13.67
12/27/2020 1:45:00 PM 2.82 37.076 0.191 7.55 3.68 13.65
12/27/2020 2:00:00 PM 2.86 37.148 0.191 7.54 4.01 13.63
12/27/2020 2:15:00 PM 2.88 37.184 0.19 7.56 3.78 13.6
12/27/2020 2:30:00 PM 2.9 37.22 0.19 7.55 3.83 13.59
12/27/2020 2:45:00 PM 2.93 37.274 0.19 7.57 4.02 13.56
12/27/2020 3:00:00 PM 2.95 37.31 0.192 7.55 3.72 13.53
12/27/2020 3:15:00 PM 3 37.4 0.194 7.55 3.8 13.5
12/27/2020 3:30:00 PM 3.04 37.472 0.195 7.56 3.89 13.48
12/27/2020 3:45:00 PM 3.06 37.508 0.195 7.57 3.78 13.44
12/27/2020 4:00:00 PM 3.06 37.508 0.195 7.56 3.86 13.41
12/27/2020 4:15:00 PM 3.06 37.508 0.194 7.53 3.74 13.38
12/27/2020 4:30:00 PM 3.06 37.508 0.194 7.55 3.81 13.35
12/27/2020 4:45:00 PM 3.04 37.472 0.192 7.52 3.85 13.31
12/27/2020 5:00:00 PM 3.02 37.436 0.192 7.51 3.99 13.26
12/27/2020 5:15:00 PM 3.01 37.418 0.193 7.51 3.85 13.22
12/27/2020 5:30:00 PM 3 37.4 0.193 7.5 3.85 13.19
12/27/2020 5:45:00 PM 2.99 37.382 0.195 7.49 3.81 13.15
12/27/2020 6:00:00 PM 3 37.4 0.197 7.49 3.99 13.11
12/27/2020 6:15:00 PM 3 37.4 0.197 7.49 4.09 13.09
12/27/2020 6:30:00 PM 3 37.4 0.198 7.47 3.91 13.06
12/27/2020 6:45:00 PM 2.99 37.382 0.199 7.48 4.04 13.05
12/27/2020 7:00:00 PM 2.98 37.364 0.199 7.46 4.06 13.04
12/27/2020 7:15:00 PM 2.97 37.346 0.198 7.46 3.99 13.03
12/27/2020 7:30:00 PM 2.95 37.31 0.198 7.46 3.95 13.03
12/27/2020 7:45:00 PM 2.93 37.274 0.198 7.45 4.06 13.02
12/27/2020 8:00:00 PM 2.92 37.256 0.198 7.45 3.82 13.02
12/27/2020 8:15:00 PM 2.91 37.238 0.199 7.45 4.15 13.01
12/27/2020 8:30:00 PM 2.91 37.238 0.201 7.46 4.06 13
12/27/2020 8:45:00 PM 2.91 37.238 0.203 7.43 3.85 12.99
12/27/2020 9:00:00 PM 2.91 37.238 0.204 7.46 3.89 12.99
12/27/2020 9:15:00 PM 2.91 37.238 0.204 7.46 3.76 12.99
12/27/2020 9:30:00 PM 2.89 37.202 0.204 7.43 3.71 12.99
12/27/2020 9:45:00 PM 2.88 37.184 0.204 7.44 3.99 13
12/27/2020 10:00:00 PM 2.86 37.148 0.204 7.45 4.01 13
12/27/2020 10:15:00 PM 2.85 37.13 0.203 7.43 3.95 13.01
12/27/2020 10:30:00 PM 2.83 37.094 0.203 7.45 3.77 13.01
12/27/2020 10:45:00 PM 2.81 37.058 0.203 7.45 3.94 13.02
12/27/2020 11:00:00 PM 2.8 37.04 0.205 7.44 4 13.01
12/27/2020 11:15:00 PM 2.78 37.004 0.206 7.44 3.92 13.01
12/27/2020 11:30:00 PM 2.77 36.986 0.207 7.44 3.88 13.01
12/27/2020 11:45:00 PM 2.76 36.968 0.207 7.43 3.86 13.01
12/28/2020 12:00:00 AM 2.74 36.932 0.207 7.44 3.84 13.02
12/28/2020 12:15:00 AM 2.72 36.896 0.207 7.42 3.89 13.02
12/28/2020 12:30:00 AM 2.7 36.86 0.207 7.43 3.87 13.03
12/28/2020 12:45:00 AM 2.69 36.842 0.208 7.44 3.84 13.04
12/28/2020 1:00:00 AM 2.67 36.806 0.209 7.44 3.86 13.04
12/28/2020 1:15:00 AM 2.66 36.788 0.21 7.43 3.79 13.04
12/28/2020 1:30:00 AM 2.65 36.77 0.211 7.43 3.81 13.04
12/28/2020 1:45:00 AM 2.65 36.77 0.213 7.45 4.05 13.03
12/28/2020 2:00:00 AM 2.66 36.788 0.215 7.43 3.71 13.02
12/28/2020 2:15:00 AM 2.67 36.806 0.217 7.44 3.75 13.01
12/28/2020 2:30:00 AM 2.67 36.806 0.218 7.44 3.71 13.01
12/28/2020 2:45:00 AM 2.67 36.806 0.217 7.45 3.75 13.01
12/28/2020 3:00:00 AM 2.67 36.806 0.217 7.44 3.7 13.01
12/28/2020 3:15:00 AM 2.66 36.788 0.216 7.44 3.74 13.02
12/28/2020 3:30:00 AM 2.65 36.77 0.215 7.45 3.66 13.02
12/28/2020 3:45:00 AM 2.65 36.77 0.215 7.45 3.78 13.02
12/28/2020 4:00:00 AM 2.65 36.77 0.214 7.44 3.68 13.03
12/28/2020 4:15:00 AM 2.65 36.77 0.214 7.45 3.85 13.02
12/28/2020 4:30:00 AM 2.65 36.77 0.214 7.41 3.62 13.02
12/28/2020 4:45:00 AM 2.66 36.788 0.215 7.45 3.73 13.01
12/28/2020 5:00:00 AM 2.68 36.824 0.217 7.46 3.68 13.01
12/28/2020 5:15:00 AM 2.69 36.842 0.217 7.43 3.67 13
12/28/2020 5:30:00 AM 2.7 36.86 0.217 7.46 3.74 13
12/28/2020 5:45:00 AM 2.71 36.878 0.217 7.45 3.74 12.99
12/28/2020 6:00:00 AM 2.72 36.896 0.216 7.42 3.79 13
12/28/2020 6:15:00 AM 2.72 36.896 0.215 7.45 3.6 13
12/28/2020 6:30:00 AM 2.73 36.914 0.214 7.44 3.83 13
12/28/2020 6:45:00 AM 2.73 36.914 0.213 7.44 3.51 13
12/28/2020 7:00:00 AM 2.74 36.932 0.214 7.44 3.68 12.99
12/28/2020 7:15:00 AM 2.75 36.95 0.214 7.44 3.64 12.99
12/28/2020 7:30:00 AM 2.77 36.986 0.215 7.45 3.58 12.98
12/28/2020 7:45:00 AM 2.79 37.022 0.216 7.46 3.45 12.97
12/28/2020 8:00:00 AM 2.81 37.058 0.216 7.44 3.61 12.98
12/28/2020 8:15:00 AM 2.83 37.094 0.215 7.47 3.57 13.01
12/28/2020 8:30:00 AM 2.84 37.112 0.214 7.47 3.4 13.06
12/28/2020 8:45:00 AM 2.85 37.13 0.213 7.48 3.5 13.12
12/28/2020 9:00:00 AM 2.85 37.13 0.211 7.49 3.36 13.16
12/28/2020 9:15:00 AM 2.87 37.166 0.21 7.5 3.37 13.21
12/28/2020 9:30:00 AM 2.9 37.22 0.209 7.52 3.49 13.24
12/28/2020 9:45:00 AM 2.93 37.274 0.209 7.51 3.51 13.28
12/28/2020 10:00:00 AM 2.97 37.346 0.21 7.54 3.39 13.3
12/28/2020 10:15:00 AM 3.02 37.436 0.212 7.55 3.38 13.31
12/28/2020 10:30:00 AM 3.07 37.526 0.214 7.55 3.48 13.32
12/28/2020 10:45:00 AM 3.13 37.634 0.215 7.57 3.43 13.33
12/28/2020 11:00:00 AM 3.17 37.706 0.215 7.57 3.37 13.33
12/28/2020 11:15:00 AM 3.2 37.76 0.215 7.57 3.55 13.32
12/28/2020 11:30:00 AM 3.22 37.796 0.215 7.57 3.18 13.3
12/28/2020 11:45:00 AM 3.24 37.832 0.213 7.58 3.41 13.29
12/28/2020 12:00:00 PM 3.26 37.868 0.212 7.59 3.15 13.27
12/28/2020 12:15:00 PM 3.29 37.922 0.211 7.54 3.25 13.26
12/28/2020 12:30:00 PM 3.32 37.976 0.211 7.58 3.2 13.24
12/28/2020 12:45:00 PM 3.37 38.066 0.211 7.59 3.69 13.21
12/28/2020 1:00:00 PM 3.42 38.156 0.212 7.55 3.11 13.19
12/28/2020 1:15:00 PM 3.46 38.228 0.213 7.59 3.25 13.15
12/28/2020 1:30:00 PM 3.51 38.318 0.214 7.56 3.16 13.13
12/28/2020 1:45:00 PM 3.55 38.39 0.213 7.58 3.29 13.11
12/28/2020 2:00:00 PM 3.58 38.444 0.212 7.58 3.27 13.09
12/28/2020 2:15:00 PM 3.6 38.48 0.21 7.59 3.28 13.07
12/28/2020 2:30:00 PM 3.62 38.516 0.209 7.56 3.24 13.06
12/28/2020 2:45:00 PM 3.64 38.552 0.208 7.58 3.19 13.05
12/28/2020 3:00:00 PM 3.66 38.588 0.208 7.58 3.25 13.03
12/28/2020 3:15:00 PM 3.69 38.642 0.209 7.56 3.43 13.02
12/28/2020 3:30:00 PM 3.73 38.714 0.21 7.58 3.31 13.02
12/28/2020 3:45:00 PM 3.76 38.768 0.211 7.58 3.31 12.99
12/28/2020 4:00:00 PM 3.77 38.786 0.211 7.58 3.31 12.95
12/28/2020 4:15:00 PM 3.79 38.822 0.21 7.54 3.44 12.92
12/28/2020 4:30:00 PM 3.79 38.822 0.21 7.57 3.35 12.88
12/28/2020 4:45:00 PM 3.8 38.84 0.209 7.55 3.44 12.85
12/28/2020 5:00:00 PM 3.81 38.858 0.209 7.54 3.33 12.82
12/28/2020 5:15:00 PM 3.81 38.858 0.209 7.55 3.52 12.8
12/28/2020 5:30:00 PM 3.82 38.876 0.209 7.51 3.46 12.78
12/28/2020 5:45:00 PM 3.83 38.894 0.21 7.54 3.37 12.76
12/28/2020 6:00:00 PM 3.84 38.912 0.212 7.53 3.46 12.74
12/28/2020 6:15:00 PM 3.85 38.93 0.213 7.53 3.49 12.71
12/28/2020 6:30:00 PM 3.87 38.966 0.214 7.52 3.57 12.7
12/28/2020 6:45:00 PM 3.88 38.984 0.214 7.52 3.7 12.69
12/28/2020 7:00:00 PM 3.88 38.984 0.213 7.51 3.59 12.68
12/28/2020 7:15:00 PM 3.88 38.984 0.213 7.52 3.77 12.68
12/28/2020 7:30:00 PM 3.88 38.984 0.212 7.5 3.71 12.67
12/28/2020 7:45:00 PM 3.87 38.966 0.211 7.5 3.82 12.67
12/28/2020 8:00:00 PM 3.86 38.948 0.21 7.51 3.54 12.67
12/28/2020 8:15:00 PM 3.86 38.948 0.211 7.5 3.68 12.67
12/28/2020 8:30:00 PM 3.87 38.966 0.212 7.51 3.67 12.66
12/28/2020 8:45:00 PM 3.87 38.966 0.214 7.49 3.68 12.66
12/28/2020 9:00:00 PM 3.87 38.966 0.214 7.51 3.69 12.66
12/28/2020 9:15:00 PM 3.87 38.966 0.215 7.47 3.61 12.66
12/28/2020 9:30:00 PM 3.87 38.966 0.214 7.49 3.68 12.66
12/28/2020 9:45:00 PM 3.85 38.93 0.214 7.5 3.75 12.66
12/28/2020 10:00:00 PM 3.84 38.912 0.212 7.5 3.73 12.67
12/28/2020 10:15:00 PM 3.82 38.876 0.212 7.49 3.64 12.68
12/28/2020 10:30:00 PM 3.79 38.822 0.211 7.49 3.68 12.69
12/28/2020 10:45:00 PM 3.78 38.804 0.211 7.49 3.78 12.7
12/28/2020 11:00:00 PM 3.75 38.75 0.212 7.48 3.61 12.7
12/28/2020 11:15:00 PM 3.74 38.732 0.212 7.49 3.6 12.69
12/28/2020 11:30:00 PM 3.72 38.696 0.214 7.5 3.65 12.7
12/28/2020 11:45:00 PM 3.71 38.678 0.214 7.48 3.75 12.7
12/29/2020 12:00:00 AM 3.7 38.66 0.214 7.49 3.75 12.71
12/29/2020 12:15:00 AM 3.68 38.624 0.213 7.49 3.77 12.71
12/29/2020 12:30:00 AM 3.65 38.57 0.213 7.51 3.61 12.72
12/29/2020 12:45:00 AM 3.62 38.516 0.212 7.51 3.82 12.74
12/29/2020 1:00:00 AM 3.58 38.444 0.211 7.48 3.64 12.75
12/29/2020 1:15:00 AM 3.55 38.39 0.21 7.49 3.74 12.76
12/29/2020 1:30:00 AM 3.52 38.336 0.21 7.49 4.3 12.78
12/29/2020 1:45:00 AM 3.5 38.3 0.212 7.49 3.75 12.78
12/29/2020 2:00:00 AM 3.48 38.264 0.213 7.49 3.87 12.79
12/29/2020 2:15:00 AM 3.45 38.21 0.214 7.49 3.76 12.79
12/29/2020 2:30:00 AM 3.42 38.156 0.215 7.5 3.84 12.8
12/29/2020 2:45:00 AM 3.4 38.12 0.215 7.5 3.88 12.81
12/29/2020 3:00:00 AM 3.36 38.048 0.214 7.5 4.2 12.82
12/29/2020 3:15:00 AM 3.32 37.976 0.213 7.49 3.95 12.84
12/29/2020 3:30:00 AM 3.26 37.868 0.211 7.5 3.73 12.87
12/29/2020 3:45:00 AM 3.22 37.796 0.21 7.51 4.03 12.89
12/29/2020 4:00:00 AM 3.16 37.688 0.21 7.46 3.79 12.9
12/29/2020 4:15:00 AM 3.11 37.598 0.21 7.49 3.74 12.92
12/29/2020 4:30:00 AM 3.06 37.508 0.211 7.5 3.73 12.94
12/29/2020 4:45:00 AM 3.01 37.418 0.211 7.5 3.73 12.95
12/29/2020 5:00:00 AM 2.96 37.328 0.213 7.5 3.67 12.97
12/29/2020 5:15:00 AM 2.93 37.274 0.214 7.51 3.78 12.98
12/29/2020 5:30:00 AM 2.88 37.184 0.214 7.47 3.72 13
12/29/2020 5:45:00 AM 2.83 37.094 0.214 7.51 3.76 13.02
12/29/2020 6:00:00 AM 2.76 36.968 0.214 7.48 3.65 13.05
12/29/2020 6:15:00 AM 2.7 36.86 0.213 7.49 3.79 13.08
12/29/2020 6:30:00 AM 2.64 36.752 0.212 7.5 3.6 13.1
12/29/2020 6:45:00 AM 2.59 36.662 0.212 7.46 3.59 13.13
12/29/2020 7:00:00 AM 2.52 36.536 0.211 7.49 3.78 13.16
12/29/2020 7:15:00 AM 2.46 36.428 0.211 7.49 3.69 13.19
12/29/2020 7:30:00 AM 2.42 36.356 0.212 7.51 3.63 13.2
12/29/2020 7:45:00 AM 2.38 36.284 0.213 7.5 3.67 13.23
12/29/2020 8:00:00 AM 2.34 36.212 0.214 7.49 3.53 13.27
12/29/2020 8:15:00 AM 2.31 36.158 0.214 7.52 3.57 13.31
12/29/2020 8:30:00 AM 2.28 36.104 0.214 7.53 3.43 13.36
12/29/2020 8:45:00 AM 2.25 36.05 0.212 7.54 3.58 13.41
12/29/2020 9:00:00 AM 2.22 35.996 0.211 7.5 3.36 13.48
12/29/2020 9:15:00 AM 2.2 35.96 0.21 7.55 3.34 13.53
12/29/2020 9:30:00 AM 2.18 35.924 0.208 7.55 3.47 13.59
12/29/2020 9:45:00 AM 2.16 35.888 0.207 7.57 3.52 13.64
12/29/2020 10:00:00 AM 2.2 35.96 0.207 7.57 3.45 13.7
12/29/2020 10:15:00 AM 2.22 35.996 0.208 7.58 3.44 13.75
12/29/2020 10:30:00 AM 2.26 36.068 0.208 7.61 3.58 13.81
12/29/2020 10:45:00 AM 2.32 36.176 0.209 7.63 3.56 13.85
12/29/2020 11:00:00 AM 2.36 36.248 0.209 7.63 3.7 13.88
12/29/2020 11:15:00 AM 2.4 36.32 0.209 7.65 3.66 13.91
12/29/2020 11:30:00 AM 2.42 36.356 0.208 7.67 4.09 13.94
12/29/2020 11:45:00 AM 2.45 36.41 0.207 7.63 3.61 13.96
12/29/2020 12:00:00 PM 2.48 36.464 0.205 7.67 3.38 13.98
12/29/2020 12:15:00 PM 2.5 36.5 0.204 7.69 3.17 13.98
12/29/2020 12:30:00 PM 2.54 36.572 0.204 7.66 3.31 14
12/29/2020 12:45:00 PM 2.58 36.644 0.204 7.7 3.23 14
12/29/2020 1:00:00 PM 2.64 36.752 0.204 7.67 3.16 14.01
12/29/2020 1:15:00 PM 2.71 36.878 0.205 7.72 3.03 14.02
12/29/2020 1:30:00 PM 2.75 36.95 0.205 7.7 3.25 14.01
12/29/2020 1:45:00 PM 2.78 37.004 0.206 7.74 3.6 14.01
12/29/2020 2:00:00 PM 2.81 37.058 0.206 7.73 4.16 13.98
12/29/2020 2:15:00 PM 2.81 37.058 0.205 7.72 3.2 13.96
12/29/2020 2:30:00 PM 2.86 37.148 0.204 7.73 2.97 13.95
12/29/2020 2:45:00 PM 2.93 37.274 0.204 7.74 3.18 13.94
12/29/2020 3:00:00 PM 2.98 37.364 0.203 7.73 3.2 13.94
12/29/2020 3:15:00 PM 2.99 37.382 0.202 7.75 3.14 13.91
12/29/2020 3:30:00 PM 2.97 37.346 0.203 7.74 3.05 13.88
12/29/2020 3:45:00 PM 2.94 37.292 0.204 7.72 3.01 13.83
12/29/2020 4:00:00 PM 2.9 37.22 0.205 7.72 3.16 13.78
12/29/2020 4:15:00 PM 2.87 37.166 0.206 7.69 4.53 13.73
12/29/2020 4:30:00 PM 2.82 37.076 0.207 7.68 3.4 13.69
12/29/2020 4:45:00 PM 2.78 37.004 0.207 7.67 3.16 13.64
12/29/2020 5:00:00 PM 2.72 36.896 0.207 7.64 3.07 13.6
12/29/2020 5:15:00 PM 2.67 36.806 0.207 7.65 3.52 13.56
12/29/2020 5:30:00 PM 2.62 36.716 0.206 7.63 3.36 13.53
12/29/2020 5:45:00 PM 2.56 36.608 0.206 7.59 3.23 13.5
12/29/2020 6:00:00 PM 2.51 36.518 0.206 7.58 3.56 13.48
12/29/2020 6:15:00 PM 2.46 36.428 0.206 7.58 3.23 13.47
12/29/2020 6:30:00 PM 2.43 36.374 0.208 7.58 3.34 13.45
12/29/2020 6:45:00 PM 2.4 36.32 0.209 7.58 3.26 13.43
12/29/2020 7:00:00 PM 2.37 36.266 0.211 7.57 3.59 13.42
12/29/2020 7:15:00 PM 2.34 36.212 0.212 7.57 3.26 13.41
12/29/2020 7:30:00 PM 2.32 36.176 0.213 7.52 3.21 13.4
12/29/2020 7:45:00 PM 2.28 36.104 0.213 7.56 3.19 13.4
12/29/2020 8:00:00 PM 2.24 36.032 0.212 7.56 3.27 13.4
12/29/2020 8:15:00 PM 2.21 35.978 0.211 7.53 3.12 13.41
12/29/2020 8:30:00 PM 2.16 35.888 0.211 7.52 3.25 13.42
12/29/2020 8:45:00 PM 2.13 35.834 0.211 7.55 3.27 13.42
12/29/2020 9:00:00 PM 2.09 35.762 0.211 7.52 3.3 13.43
12/29/2020 9:15:00 PM 2.05 35.69 0.212 7.54 3.51 13.44
12/29/2020 9:30:00 PM 2.02 35.636 0.214 7.52 3.42 13.45
12/29/2020 9:45:00 PM 1.99 35.582 0.216 7.52 3.16 13.46
12/29/2020 10:00:00 PM 1.96 35.528 0.217 7.54 3.27 13.46
12/29/2020 10:15:00 PM 1.94 35.492 0.217 7.5 3.22 13.47
12/29/2020 10:30:00 PM 1.9 35.42 0.217 7.53 3.13 13.48
12/29/2020 10:45:00 PM 1.87 35.366 0.216 7.53 3.07 13.5
12/29/2020 11:00:00 PM 1.84 35.312 0.215 7.52 3.17 13.51
12/29/2020 11:15:00 PM 1.81 35.258 0.214 7.52 3.21 13.53
12/29/2020 11:30:00 PM 1.78 35.204 0.213 7.53 3.2 13.54
12/29/2020 11:45:00 PM 1.78 35.204 0.214 7.5 3.17 13.55
12/30/2020 12:00:00 AM 1.76 35.168 0.215 7.53 3.05 13.55
12/30/2020 12:15:00 AM 1.75 35.15 0.216 7.53 3.14 13.55
12/30/2020 12:30:00 AM 1.74 35.132 0.217 7.5 3.2 13.55
12/30/2020 12:45:00 AM 1.74 35.132 0.219 7.52 3.08 13.56
12/30/2020 1:00:00 AM 1.73 35.114 0.219 7.52 3.08 13.56
12/30/2020 1:15:00 AM 1.72 35.096 0.218 7.53 3.18 13.57
12/30/2020 1:30:00 AM 1.72 35.096 0.217 7.53 3.01 13.57
12/30/2020 1:45:00 AM 1.7 35.06 0.216 7.49 3.21 13.58
12/30/2020 2:00:00 AM 1.68 35.024 0.215 7.51 3.16 13.59
12/30/2020 2:15:00 AM 1.67 35.006 0.214 7.52 2.98 13.6
12/30/2020 2:30:00 AM 1.66 34.988 0.214 7.51 3.16 13.6
12/30/2020 2:45:00 AM 1.66 34.988 0.215 7.51 3.1 13.6
12/30/2020 3:00:00 AM 1.66 34.988 0.216 7.53 3.21 13.6
12/30/2020 3:15:00 AM 1.66 34.988 0.218 7.5 3.05 13.6
12/30/2020 3:30:00 AM 1.67 35.006 0.219 7.53 3 13.59
12/30/2020 3:45:00 AM 1.67 35.006 0.22 7.52 3.07 13.59
12/30/2020 4:00:00 AM 1.64 34.952 0.219 7.53 3.05 13.59
12/30/2020 4:15:00 AM 1.62 34.916 0.218 7.5 2.98 13.6
12/30/2020 4:30:00 AM 1.61 34.898 0.216 7.53 3.1 13.6
12/30/2020 4:45:00 AM 1.61 34.898 0.215 7.51 2.91 13.61
12/30/2020 5:00:00 AM 1.6 34.88 0.215 7.52 3.07 13.61
12/30/2020 5:15:00 AM 1.6 34.88 0.215 7.51 2.86 13.61
12/30/2020 5:30:00 AM 1.61 34.898 0.215 7.52 2.86 13.6
12/30/2020 5:45:00 AM 1.61 34.898 0.216 7.53 3.09 13.6
12/30/2020 6:00:00 AM 1.62 34.916 0.218 7.53 3.03 13.59
12/30/2020 6:15:00 AM 1.62 34.916 0.219 7.53 2.89 13.58
12/30/2020 6:30:00 AM 1.63 34.934 0.219 7.5 2.88 13.58
12/30/2020 6:45:00 AM 1.63 34.934 0.219 7.53 3.04 13.58
12/30/2020 7:00:00 AM 1.63 34.934 0.218 7.53 2.88 13.57
12/30/2020 7:15:00 AM 1.62 34.916 0.217 7.49 3.02 13.57
12/30/2020 7:30:00 AM 1.6 34.88 0.216 7.53 2.97 13.58
12/30/2020 7:45:00 AM 1.59 34.862 0.215 7.52 2.9 13.58
12/30/2020 8:00:00 AM 1.58 34.844 0.215 7.53 2.75 13.61
12/30/2020 8:15:00 AM 1.57 34.826 0.215 7.5 2.89 13.65
12/30/2020 8:30:00 AM 1.57 34.826 0.216 7.55 3.3 13.69
12/30/2020 8:45:00 AM 1.58 34.844 0.217 7.54 2.86 13.74
12/30/2020 9:00:00 AM 1.6 34.88 0.218 7.58 2.79 13.79
12/30/2020 9:15:00 AM 1.64 34.952 0.218 7.57 2.75 13.83
12/30/2020 9:30:00 AM 1.67 35.006 0.218 7.6 2.78 13.88
12/30/2020 9:45:00 AM 1.71 35.078 0.216 7.6 2.87 13.93
12/30/2020 10:00:00 AM 1.78 35.204 0.215 7.62 2.86 13.97
12/30/2020 10:15:00 AM 1.82 35.276 0.214 7.62 2.81 13.97
12/30/2020 10:30:00 AM 1.85 35.33 0.213 7.63 2.92 13.97
12/30/2020 10:45:00 AM 1.88 35.384 0.213 7.65 2.85 13.96
12/30/2020 11:00:00 AM 1.91 35.438 0.213 7.65 2.87 13.96
12/30/2020 11:15:00 AM 1.94 35.492 0.213 7.65 2.94 13.96
12/30/2020 11:30:00 AM 1.96 35.528 0.214 7.63 2.83 13.95
12/30/2020 11:45:00 AM 1.99 35.582 0.215 7.65 2.9 13.94
12/30/2020 12:00:00 PM 2.04 35.672 0.215 7.66 2.85 13.95
12/30/2020 12:15:00 PM 2.1 35.78 0.214 7.67 2.81 13.96
12/30/2020 12:30:00 PM 2.15 35.87 0.213 7.68 2.72 13.99
12/30/2020 12:45:00 PM 2.23 36.014 0.212 7.71 2.9 14.01
12/30/2020 1:00:00 PM 2.32 36.176 0.211 7.69 2.74 14.04
12/30/2020 1:15:00 PM 2.41 36.338 0.21 7.72 2.89 14.06
12/30/2020 1:30:00 PM 2.48 36.464 0.21 7.74 2.67 14.05
12/30/2020 1:45:00 PM 2.53 36.554 0.21 7.75 2.93 14.04
12/30/2020 2:00:00 PM 2.57 36.626 0.211 7.76 2.9 14.02
12/30/2020 2:15:00 PM 2.63 36.734 0.212 7.76 2.77 13.99
12/30/2020 2:30:00 PM 2.69 36.842 0.213 7.78 2.73 13.97
12/30/2020 2:45:00 PM 2.75 36.95 0.213 7.77 2.88 13.94
12/30/2020 3:00:00 PM 2.81 37.058 0.212 7.78 2.9 13.92
12/30/2020 3:15:00 PM 2.84 37.112 0.211 7.75 2.85 13.88
12/30/2020 3:30:00 PM 2.88 37.184 0.21 7.78 2.85 13.87
12/30/2020 3:45:00 PM 2.93 37.274 0.209 7.78 2.89 13.83
12/30/2020 4:00:00 PM 2.96 37.328 0.209 7.77 2.9 13.78
12/30/2020 4:15:00 PM 2.97 37.346 0.209 7.75 2.85 13.71
12/30/2020 4:30:00 PM 2.97 37.346 0.21 7.73 3.09 13.63
12/30/2020 4:45:00 PM 3 37.4 0.211 7.73 2.91 13.53
12/30/2020 5:00:00 PM 3.01 37.418 0.213 7.68 2.94 13.44
12/30/2020 5:15:00 PM 3.03 37.454 0.213 7.69 3.19 13.36
12/30/2020 5:30:00 PM 3.05 37.49 0.214 7.66 2.99 13.29
12/30/2020 5:45:00 PM 3.06 37.508 0.213 7.65 3.18 13.24
12/30/2020 6:00:00 PM 3.05 37.49 0.212 7.64 3.26 13.2
12/30/2020 6:15:00 PM 3.04 37.472 0.211 7.63 3.04 13.16
12/30/2020 6:30:00 PM 3.05 37.49 0.211 7.61 3.1 13.12
12/30/2020 6:45:00 PM 3.06 37.508 0.211 7.61 3.34 13.08
12/30/2020 7:00:00 PM 3.07 37.526 0.211 7.6 3.14 13.05
12/30/2020 7:15:00 PM 3.09 37.562 0.213 7.59 3.08 13.02
12/30/2020 7:30:00 PM 3.11 37.598 0.215 7.59 2.96 12.98
12/30/2020 7:45:00 PM 3.13 37.634 0.216 7.58 3.12 12.95
12/30/2020 8:00:00 PM 3.15 37.67 0.217 7.58 3.64 12.93
12/30/2020 8:15:00 PM 3.17 37.706 0.217 7.57 2.93 12.9
12/30/2020 8:30:00 PM 3.19 37.742 0.217 7.57 2.75 12.88
12/30/2020 8:45:00 PM 3.2 37.76 0.216 7.56 2.81 12.87
12/30/2020 9:00:00 PM 3.21 37.778 0.216 7.56 2.95 12.85
12/30/2020 9:15:00 PM 3.22 37.796 0.216 7.56 2.96 12.84
12/30/2020 9:30:00 PM 3.24 37.832 0.216 7.55 2.94 12.82
12/30/2020 9:45:00 PM 3.25 37.85 0.217 7.55 2.96 12.81
12/30/2020 10:00:00 PM 3.28 37.904 0.219 7.55 2.93 12.79
12/30/2020 10:15:00 PM 3.3 37.94 0.22 7.55 3.07 12.78
12/30/2020 10:30:00 PM 3.32 37.976 0.221 7.55 2.89 12.76
12/30/2020 10:45:00 PM 3.34 38.012 0.222 7.55 2.9 12.75
12/30/2020 11:00:00 PM 3.35 38.03 0.221 7.54 2.75 12.74
12/30/2020 11:15:00 PM 3.36 38.048 0.22 7.55 2.96 12.73
12/30/2020 11:30:00 PM 3.37 38.066 0.219 7.54 2.89 12.73
12/30/2020 11:45:00 PM 3.37 38.066 0.218 7.54 2.9 12.72
12/31/2020 12:00:00 AM 3.37 38.066 0.217 7.54 2.79 12.72
12/31/2020 12:15:00 AM 3.38 38.084 0.217 7.54 2.75 12.71
12/31/2020 12:30:00 AM 3.38 38.084 0.218 7.54 2.79 12.7
12/31/2020 12:45:00 AM 3.39 38.102 0.219 7.54 2.66 12.69
12/31/2020 1:00:00 AM 3.41 38.138 0.221 7.54 3 12.68
12/31/2020 1:15:00 AM 3.42 38.156 0.222 7.54 2.92 12.67
12/31/2020 1:30:00 AM 3.43 38.174 0.222 7.54 2.88 12.66
12/31/2020 1:45:00 AM 3.44 38.192 0.221 7.54 2.84 12.66
12/31/2020 2:00:00 AM 3.44 38.192 0.22 7.53 3.04 12.66
12/31/2020 2:15:00 AM 3.44 38.192 0.219 7.53 3.12 12.66
12/31/2020 2:30:00 AM 3.44 38.192 0.218 7.53 2.93 12.66
12/31/2020 2:45:00 AM 3.44 38.192 0.218 7.53 3.08 12.66
12/31/2020 3:00:00 AM 3.44 38.192 0.218 7.53 3.02 12.66
12/31/2020 3:15:00 AM 3.45 38.21 0.219 7.53 3.11 12.66
12/31/2020 3:30:00 AM 3.45 38.21 0.22 7.53 3.06 12.65
12/31/2020 3:45:00 AM 3.46 38.228 0.221 7.53 2.95 12.65
12/31/2020 4:00:00 AM 3.48 38.264 0.222 7.54 2.91 12.64
12/31/2020 4:15:00 AM 3.49 38.282 0.222 7.52 2.95 12.64
12/31/2020 4:30:00 AM 3.49 38.282 0.221 7.53 3.62 12.64
12/31/2020 4:45:00 AM 3.49 38.282 0.22 7.53 2.9 12.65
12/31/2020 5:00:00 AM 3.49 38.282 0.219 7.53 3.09 12.65
12/31/2020 5:15:00 AM 3.48 38.264 0.218 7.53 3.01 12.65
12/31/2020 5:30:00 AM 3.47 38.246 0.217 7.54 3.13 12.66
12/31/2020 5:45:00 AM 3.46 38.228 0.217 7.53 3.19 12.66
12/31/2020 6:00:00 AM 3.45 38.21 0.218 7.53 3.37 12.66
12/31/2020 6:15:00 AM 3.44 38.192 0.219 7.53 3.35 12.66
12/31/2020 6:30:00 AM 3.42 38.156 0.22 7.53 3.62 12.66
12/31/2020 6:45:00 AM 3.42 38.156 0.221 7.53 3.47 12.66
12/31/2020 7:00:00 AM 3.42 38.156 0.22 7.53 3.42 12.67
12/31/2020 7:15:00 AM 3.41 38.138 0.22 7.52 3.89 12.67
12/31/2020 7:30:00 AM 3.4 38.12 0.219 7.52 3.65 12.68
12/31/2020 7:45:00 AM 3.39 38.102 0.219 7.52 3.4 12.69
12/31/2020 8:00:00 AM 3.39 38.102 0.22 7.52 3.34 12.71
12/31/2020 8:15:00 AM 3.38 38.084 0.221 7.53 3.44 12.72
12/31/2020 8:30:00 AM 3.38 38.084 0.223 7.53 3.27 12.74
12/31/2020 8:45:00 AM 3.38 38.084 0.224 7.53 3.33 12.76
12/31/2020 9:00:00 AM 3.39 38.102 0.224 7.55 3.19 12.77
12/31/2020 9:15:00 AM 3.39 38.102 0.224 7.54 3.59 12.8
12/31/2020 9:30:00 AM 3.39 38.102 0.222 7.56 3.28 12.83
12/31/2020 9:45:00 AM 3.39 38.102 0.22 7.55 3.46 12.87
12/31/2020 10:00:00 AM 3.39 38.102 0.219 7.55 3.48 12.9
12/31/2020 10:15:00 AM 3.39 38.102 0.218 7.56 3.47 12.95
12/31/2020 10:30:00 AM 3.39 38.102 0.217 7.57 3.37 13
12/31/2020 10:45:00 AM 3.4 38.12 0.217 7.58 3.64 13.04
12/31/2020 11:00:00 AM 3.41 38.138 0.218 7.6 3.67 13.09
12/31/2020 11:15:00 AM 3.44 38.192 0.219 7.6 3.52 13.14
12/31/2020 11:30:00 AM 3.48 38.264 0.22 7.63 3.66 13.21
12/31/2020 11:45:00 AM 3.5 38.3 0.221 7.65 3.68 13.25
12/31/2020 12:00:00 PM 3.52 38.336 0.221 7.66 3.67 13.29
12/31/2020 12:15:00 PM 3.54 38.372 0.22 7.67 3.57 13.32
12/31/2020 12:30:00 PM 3.56 38.408 0.219 7.7 3.79 13.36
12/31/2020 12:45:00 PM 3.59 38.462 0.218 7.68 3.55 13.41
12/31/2020 1:00:00 PM 3.62 38.516 0.218 7.73 3.6 13.45
12/31/2020 1:15:00 PM 3.64 38.552 0.218 7.71 3.38 13.47
12/31/2020 1:30:00 PM 3.66 38.588 0.219 7.75 3.6 13.48
12/31/2020 1:45:00 PM 3.67 38.606 0.219 7.72 3.4 13.48
12/31/2020 2:00:00 PM 3.69 38.642 0.22 7.75 3.54 13.48
12/31/2020 2:15:00 PM 3.71 38.678 0.22 7.77 3.43 13.47
12/31/2020 2:30:00 PM 3.72 38.696 0.22 7.74 3.38 13.47
12/31/2020 2:45:00 PM 3.73 38.714 0.22 7.76 3.32 13.46
12/31/2020 3:00:00 PM 3.74 38.732 0.219 7.76 3.41 13.46
12/31/2020 3:15:00 PM 3.74 38.732 0.219 7.77 3.27 13.46
12/31/2020 3:30:00 PM 3.75 38.75 0.22 7.74 3.71 13.45
12/31/2020 3:45:00 PM 3.74 38.732 0.22 7.76 3.55 13.4
12/31/2020 4:00:00 PM 3.74 38.732 0.222 7.73 3.48 13.34
12/31/2020 4:15:00 PM 3.74 38.732 0.224 7.72 3.64 13.27
12/31/2020 4:30:00 PM 3.73 38.714 0.226 7.71 3.48 13.19
12/31/2020 4:45:00 PM 3.73 38.714 0.227 7.65 3.6 13.12
12/31/2020 5:00:00 PM 3.72 38.696 0.228 7.67 3.49 13.07
12/31/2020 5:15:00 PM 3.72 38.696 0.227 7.63 3.62 13.02
12/31/2020 5:30:00 PM 3.71 38.678 0.227 7.64 3.63 12.99
12/31/2020 5:45:00 PM 3.7 38.66 0.225 7.64 3.67 12.97
12/31/2020 6:00:00 PM 3.68 38.624 0.225 7.61 3.78 12.94
12/31/2020 6:15:00 PM 3.66 38.588 0.225 7.62 3.84 12.92
12/31/2020 6:30:00 PM 3.65 38.57 0.225 7.58 3.69 12.9
12/31/2020 6:45:00 PM 3.64 38.552 0.227 7.6 3.64 12.88
12/31/2020 7:00:00 PM 3.63 38.534 0.229 7.6 3.59 12.87
12/31/2020 7:15:00 PM 3.62 38.516 0.233 7.59 3.51 12.85
12/31/2020 7:30:00 PM 3.62 38.516 0.236 7.55 3.79 12.83
12/31/2020 7:45:00 PM 3.61 38.498 0.239 7.57 3.73 12.81
12/31/2020 8:00:00 PM 3.61 38.498 0.242 7.57 3.7 12.81
12/31/2020 8:15:00 PM 3.6 38.48 0.243 7.56 3.59 12.8
12/31/2020 8:30:00 PM 3.58 38.444 0.244 7.57 3.51 12.81
12/31/2020 8:45:00 PM 3.56 38.408 0.246 7.53 3.6 12.81
12/31/2020 9:00:00 PM 3.54 38.372 0.249 7.55 3.41 12.82
12/31/2020 9:15:00 PM 3.53 38.354 0.251 7.55 3.43 12.82
12/31/2020 9:30:00 PM 3.51 38.318 0.255 7.56 3.42 12.82
12/31/2020 9:45:00 PM 3.5 38.3 0.258 7.56 3.57 12.82
12/31/2020 10:00:00 PM 3.49 38.282 0.262 7.56 3.45 12.82
12/31/2020 10:15:00 PM 3.49 38.282 0.267 7.56 3.51 12.82
12/31/2020 10:30:00 PM 3.48 38.264 0.27 7.53 3.55 12.81
12/31/2020 10:45:00 PM 3.47 38.246 0.271 7.55 3.44 12.82
12/31/2020 11:00:00 PM 3.46 38.228 0.272 7.56 3.5 12.82
12/31/2020 11:15:00 PM 3.44 38.192 0.271 7.55 3.42 12.83
12/31/2020 11:30:00 PM 3.41 38.138 0.271 7.52 3.39 12.84
12/31/2020 11:45:00 PM 3.39 38.102 0.27 7.54 3.36 12.85
1/1/2021 12:00:00 AM 3.38 38.084 0.271 7.54 3.31 12.85
1/1/2021 12:15:00 AM 3.36 38.048 0.271 7.54 3.35 12.85
1/1/2021 12:30:00 AM 3.35 38.03 0.271 7.54 3.44 12.86
1/1/2021 12:45:00 AM 3.34 38.012 0.272 7.55 3.42 12.86
1/1/2021 1:00:00 AM 3.33 37.994 0.272 7.52 3.5 12.86
1/1/2021 1:15:00 AM 3.32 37.976 0.272 7.55 3.51 12.86
1/1/2021 1:30:00 AM 3.31 37.958 0.271 7.53 3.51 12.87
1/1/2021 1:45:00 AM 3.3 37.94 0.269 7.55 3.5 12.87
1/1/2021 2:00:00 AM 3.27 37.886 0.266 7.53 3.6 12.88
1/1/2021 2:15:00 AM 3.24 37.832 0.264 7.54 3.37 12.89
1/1/2021 2:30:00 AM 3.21 37.778 0.262 7.54 3.37 12.9
1/1/2021 2:45:00 AM 3.18 37.724 0.26 7.54 3.4 12.91
1/1/2021 3:00:00 AM 3.15 37.67 0.26 7.55 3.45 12.92
1/1/2021 3:15:00 AM 3.12 37.616 0.259 7.54 3.45 12.92
1/1/2021 3:30:00 AM 3.08 37.544 0.26 7.55 3.38 12.93
1/1/2021 3:45:00 AM 3.04 37.472 0.261 7.52 3.28 12.94
1/1/2021 4:00:00 AM 3 37.4 0.262 7.54 3.26 12.94
1/1/2021 4:15:00 AM 2.97 37.346 0.261 7.54 4.55 12.95
1/1/2021 4:30:00 AM 2.92 37.256 0.259 7.55 3.09 12.96
1/1/2021 4:45:00 AM 2.87 37.166 0.258 7.51 3.42 12.99
1/1/2021 5:00:00 AM 2.83 37.094 0.256 7.53 3.4 13
1/1/2021 5:15:00 AM 2.8 37.04 0.255 7.55 3.08 13.01
1/1/2021 5:30:00 AM 2.78 37.004 0.255 7.54 3.01 13.03
1/1/2021 5:45:00 AM 2.75 36.95 0.254 7.51 3.11 13.04
1/1/2021 6:00:00 AM 2.73 36.914 0.255 7.54 3.17 13.05
1/1/2021 6:15:00 AM 2.71 36.878 0.256 7.51 3.2 13.06
1/1/2021 6:30:00 AM 2.68 36.824 0.256 7.54 3.34 13.07
1/1/2021 6:45:00 AM 2.65 36.77 0.255 7.54 3.14 13.07
1/1/2021 7:00:00 AM 2.63 36.734 0.257 7.51 2.96 13.08
1/1/2021 7:15:00 AM 2.6 36.68 0.255 7.54 3.33 13.09
1/1/2021 7:30:00 AM 2.58 36.644 0.254 7.51 3.21 13.11
1/1/2021 7:45:00 AM 2.56 36.608 0.253 7.54 3.03 13.13
1/1/2021 8:00:00 AM 2.54 36.572 0.252 7.52 3.16 13.16
1/1/2021 8:15:00 AM 2.52 36.536 0.252 7.54 3.02 13.21
1/1/2021 8:30:00 AM 2.51 36.518 0.252 7.55 2.95 13.26
1/1/2021 8:45:00 AM 2.52 36.536 0.252 7.56 3.07 13.31
1/1/2021 9:00:00 AM 2.52 36.536 0.252 7.59 3.1 13.37
1/1/2021 9:15:00 AM 2.54 36.572 0.253 7.57 2.9 13.41
1/1/2021 9:30:00 AM 2.55 36.59 0.254 7.61 3.02 13.47
1/1/2021 9:45:00 AM 2.58 36.644 0.254 7.6 2.87 13.52
1/1/2021 10:00:00 AM 2.6 36.68 0.252 7.64 3.03 13.58
1/1/2021 10:15:00 AM 2.62 36.716 0.251 7.66 2.92 13.64
1/1/2021 10:30:00 AM 2.63 36.734 0.25 7.67 2.94 13.67
1/1/2021 10:45:00 AM 2.65 36.77 0.249 7.64 3.05 13.7
1/1/2021 11:00:00 AM 2.66 36.788 0.248 7.67 3.01 13.72
1/1/2021 11:15:00 AM 2.67 36.806 0.248 7.68 2.98 13.73
1/1/2021 11:30:00 AM 2.69 36.842 0.248 7.69 3.04 13.74
1/1/2021 11:45:00 AM 2.7 36.86 0.248 7.68 3 13.74
1/1/2021 12:00:00 PM 2.7 36.86 0.248 7.71 2.87 13.73
1/1/2021 12:15:00 PM 2.7 36.86 0.248 7.68 2.99 13.7
1/1/2021 12:30:00 PM 2.69 36.842 0.247 7.69 2.98 13.67
1/1/2021 12:45:00 PM 2.66 36.788 0.246 7.69 3.02 13.65
1/1/2021 1:00:00 PM 2.64 36.752 0.244 7.68 3.12 13.64
1/1/2021 1:15:00 PM 2.61 36.698 0.243 7.69 3.01 13.65
1/1/2021 1:30:00 PM 2.62 36.716 0.241 7.67 3.11 13.67
1/1/2021 1:45:00 PM 2.63 36.734 0.24 7.71 3.09 13.69
1/1/2021 2:00:00 PM 2.62 36.716 0.239 7.68 3.36 13.7
1/1/2021 2:15:00 PM 2.54 36.572 0.238 7.71 3.32 13.7
1/1/2021 2:30:00 PM 2.52 36.536 0.238 7.7 3.31 13.69
1/1/2021 2:45:00 PM 2.42 36.356 0.239 7.69 3.62 13.67
1/1/2021 3:00:00 PM 2.4 36.32 0.239 7.68 3.73 13.63
1/1/2021 3:15:00 PM 2.36 36.248 0.238 7.67 3.6 13.59
1/1/2021 3:30:00 PM 2.32 36.176 0.236 7.67 3.74 13.57
1/1/2021 3:45:00 PM 2.22 35.996 0.237 7.62 3.8 13.57
1/1/2021 4:00:00 PM 2.21 35.978 0.245 7.63 3.79 13.55
1/1/2021 4:15:00 PM 2.22 35.996 0.256 7.62 4.38 13.52
1/1/2021 4:30:00 PM 2.18 35.924 0.262 7.61 4.64 13.5
1/1/2021 4:45:00 PM 2.18 35.924 0.266 7.6 4.88 13.48
1/1/2021 5:00:00 PM 2.16 35.888 0.267 7.55 6.15 13.46
1/1/2021 5:15:00 PM 2.12 35.816 0.262 7.55 7.86 13.44
1/1/2021 5:30:00 PM 2.08 35.744 0.254 7.51 10.76 13.44
1/1/2021 5:45:00 PM 2.05 35.69 0.248 7.49 13.56 13.45
1/1/2021 6:00:00 PM 2.04 35.672 0.245 7.49 13.12 13.44
1/1/2021 6:15:00 PM 2.05 35.69 0.246 7.47 16.49 13.44
1/1/2021 6:30:00 PM 2.06 35.708 0.254 7.49 14.96 13.42
1/1/2021 6:45:00 PM 2.08 35.744 0.262 7.47 14.29 13.39
1/1/2021 7:00:00 PM 2.12 35.816 0.272 7.48 12.99 13.37
1/1/2021 7:15:00 PM 2.15 35.87 0.282 7.49 11.31 13.35
1/1/2021 7:30:00 PM 2.2 35.96 0.294 7.45 11.25 13.32
1/1/2021 7:45:00 PM 2.24 36.032 0.303 7.49 10.87 13.3
1/1/2021 8:00:00 PM 2.28 36.104 0.304 7.5 9.82 13.28
1/1/2021 8:15:00 PM 2.32 36.176 0.303 7.46 9.69 13.26
1/1/2021 8:30:00 PM 2.36 36.248 0.298 7.49 10.24 13.23
1/1/2021 8:45:00 PM 2.39 36.302 0.292 7.49 10.58 13.21
1/1/2021 9:00:00 PM 2.41 36.338 0.285 7.51 10.27 13.19
1/1/2021 9:15:00 PM 2.42 36.356 0.28 7.47 9.82 13.18
1/1/2021 9:30:00 PM 2.43 36.374 0.281 7.5 9.85 13.16
1/1/2021 9:45:00 PM 2.44 36.392 0.289 7.48 9.68 13.14
1/1/2021 10:00:00 PM 2.49 36.482 0.302 7.48 9.84 13.1
1/1/2021 10:15:00 PM 2.55 36.59 0.315 7.49 9.62 13.06
1/1/2021 10:30:00 PM 2.6 36.68 0.324 7.49 9.35 13.03
1/1/2021 10:45:00 PM 2.64 36.752 0.338 7.5 9.74 13
1/1/2021 11:00:00 PM 2.68 36.824 0.366 7.46 9.64 12.98
1/1/2021 11:15:00 PM 2.71 36.878 0.424 7.48 9.3 12.96
1/1/2021 11:30:00 PM 2.73 36.914 0.507 7.45 9.43 12.94
1/1/2021 11:45:00 PM 2.73 36.914 0.579 7.47 9.78 12.93
1/2/2021 12:00:00 AM 2.73 36.914 0.633 7.44 9.78 12.93
1/2/2021 12:15:00 AM 2.72 36.896 0.658 7.45 10.23 12.92
1/2/2021 12:30:00 AM 2.73 36.914 0.661 7.45 10.16 12.9
1/2/2021 12:45:00 AM 2.75 36.95 0.66 7.43 10.96 12.87
1/2/2021 1:00:00 AM 2.76 36.968 0.648 7.44 10.46 12.85
1/2/2021 1:15:00 AM 2.77 36.986 0.638 7.43 10.42 12.84
1/2/2021 1:30:00 AM 2.77 36.986 0.626 7.43 10.53 12.83
1/2/2021 1:45:00 AM 2.77 36.986 0.616 7.43 10.53 12.83
1/2/2021 2:00:00 AM 2.78 37.004 0.61 7.43 10.36 12.82
1/2/2021 2:15:00 AM 2.78 37.004 0.603 7.42 10.37 12.82
1/2/2021 2:30:00 AM 2.79 37.022 0.598 7.43 9.91 12.81
1/2/2021 2:45:00 AM 2.8 37.04 0.598 7.42 9.71 12.8
1/2/2021 3:00:00 AM 2.81 37.058 0.596 7.42 9.68 12.79
1/2/2021 3:15:00 AM 2.82 37.076 0.597 7.43 9.33 12.78
1/2/2021 3:30:00 AM 2.84 37.112 0.594 7.43 8.69 12.77
1/2/2021 3:45:00 AM 2.87 37.166 0.594 7.42 8.74 12.74
1/2/2021 4:00:00 AM 2.9 37.22 0.586 7.44 8.03 12.73
1/2/2021 4:15:00 AM 2.92 37.256 0.577 7.42 8.35 12.72
1/2/2021 4:30:00 AM 2.94 37.292 0.565 7.45 8.11 12.71
1/2/2021 4:45:00 AM 2.94 37.292 0.551 7.43 8.24 12.71
1/2/2021 5:00:00 AM 2.95 37.31 0.538 7.45 7.99 12.72
1/2/2021 5:15:00 AM 2.95 37.31 0.524 7.43 7.7 12.72
1/2/2021 5:30:00 AM 2.94 37.292 0.512 7.45 8.13 12.72
1/2/2021 5:45:00 AM 2.95 37.31 0.497 7.43 7.87 12.73
1/2/2021 6:00:00 AM 2.98 37.364 0.484 7.45 7.49 12.73
1/2/2021 6:15:00 AM 2.99 37.382 0.473 7.45 7.78 12.72
1/2/2021 6:30:00 AM 3.01 37.418 0.463 7.46 7.95 12.72
1/2/2021 6:45:00 AM 3.06 37.508 0.453 7.46 7.44 12.7
1/2/2021 7:00:00 AM 3.11 37.598 0.44 7.45 7.98 12.69
1/2/2021 7:15:00 AM 3.15 37.67 0.427 7.45 7.77 12.68
1/2/2021 7:30:00 AM 3.18 37.724 0.415 7.44 7.83 12.69
1/2/2021 7:45:00 AM 3.21 37.778 0.406 7.45 7.79 12.69
1/2/2021 8:00:00 AM 3.23 37.814 0.397 7.42 8.71 12.7
1/2/2021 8:15:00 AM 3.25 37.85 0.387 7.44 9.01 12.71
1/2/2021 8:30:00 AM 3.27 37.886 0.38 7.41 9.75 12.73
1/2/2021 8:45:00 AM 3.28 37.904 0.373 7.44 10.46 12.74
1/2/2021 9:00:00 AM 3.3 37.94 0.366 7.43 10.34 12.75
1/2/2021 9:15:00 AM 3.33 37.994 0.36 7.44 11.2 12.75
1/2/2021 9:30:00 AM 3.37 38.066 0.356 7.43 10.38 12.75
1/2/2021 9:45:00 AM 3.42 38.156 0.355 7.44 10.47 12.76
1/2/2021 10:00:00 AM 3.46 38.228 0.353 7.45 10.5 12.77
1/2/2021 10:15:00 AM 3.5 38.3 0.351 7.43 10.77 12.8
1/2/2021 10:30:00 AM 3.52 38.336 0.346 7.45 10.5 12.83
1/2/2021 10:45:00 AM 3.54 38.372 0.344 7.45 10.56 12.86
1/2/2021 11:00:00 AM 3.56 38.408 0.337 7.45 10.62 12.89
1/2/2021 11:15:00 AM 3.61 38.498 0.334 7.46 10.57 12.91
1/2/2021 11:30:00 AM 3.67 38.606 0.332 7.48 10.56 12.92
1/2/2021 11:45:00 AM 3.73 38.714 0.331 7.46 10.09 12.92
1/2/2021 12:00:00 PM 3.79 38.822 0.332 7.47 10.45 12.91
1/2/2021 12:15:00 PM 3.85 38.93 0.335 7.49 10.58 12.89
1/2/2021 12:30:00 PM 3.9 39.02 0.336 7.47 10.56 12.89
1/2/2021 12:45:00 PM 3.94 39.092 0.338 7.5 10.92 12.89
1/2/2021 1:00:00 PM 3.98 39.164 0.338 7.5 11.47 12.88
1/2/2021 1:15:00 PM 4.01 39.218 0.335 7.5 11.78 12.87
1/2/2021 1:30:00 PM 4.05 39.29 0.339 7.48 12.31 12.85
1/2/2021 1:45:00 PM 4.1 39.38 0.342 7.5 18.62 12.82
1/2/2021 2:00:00 PM 4.14 39.452 0.344 7.46 11.78 12.8
1/2/2021 2:15:00 PM 4.15 39.47 0.343 7.49 12.04 12.8
1/2/2021 2:30:00 PM 4.16 39.488 0.347 7.5 12.29 12.78
1/2/2021 2:45:00 PM 4.17 39.506 0.35 7.48 12.72 12.78
1/2/2021 3:00:00 PM 4.18 39.524 0.347 7.46 12.23 12.77
1/2/2021 3:15:00 PM 4.2 39.56 0.346 7.49 11.89 12.77
1/2/2021 3:30:00 PM 4.22 39.596 0.34 7.47 11.75 12.76
1/2/2021 3:45:00 PM 4.25 39.65 0.335 7.49 11.71 12.72
1/2/2021 4:00:00 PM 4.27 39.686 0.33 7.47 11.53 12.69
1/2/2021 4:15:00 PM 4.28 39.704 0.323 7.46 11.9 12.66
1/2/2021 4:30:00 PM 4.27 39.686 0.316 7.47 11.54 12.64
1/2/2021 4:45:00 PM 4.26 39.668 0.311 7.43 11.64 12.63
1/2/2021 5:00:00 PM 4.25 39.65 0.306 7.46 11.33 12.62
1/2/2021 5:15:00 PM 4.24 39.632 0.303 7.45 11.92 12.6
1/2/2021 5:30:00 PM 4.24 39.632 0.3 7.43 11.63 12.58
1/2/2021 5:45:00 PM 4.24 39.632 0.298 7.44 11.82 12.57
1/2/2021 6:00:00 PM 4.25 39.65 0.297 7.4 11.8 12.53
1/2/2021 6:15:00 PM 4.27 39.686 0.297 7.42 11.99 12.5
1/2/2021 6:30:00 PM 4.28 39.704 0.296 7.42 12.7 12.48
1/2/2021 6:45:00 PM 4.28 39.704 0.293 7.42 11.33 12.48
1/2/2021 7:00:00 PM 4.26 39.668 0.288 7.41 11.31 12.49
1/2/2021 7:15:00 PM 4.24 39.632 0.285 7.42 11.37 12.5
1/2/2021 7:30:00 PM 4.21 39.578 0.282 7.41 11.02 12.51
1/2/2021 7:45:00 PM 4.2 39.56 0.281 7.41 10.69 12.5
1/2/2021 8:00:00 PM 4.19 39.542 0.281 7.38 10.03 12.48
1/2/2021 8:15:00 PM 4.19 39.542 0.281 7.41 10.02 12.47
1/2/2021 8:30:00 PM 4.18 39.524 0.281 7.39 9.96 12.47
1/2/2021 8:45:00 PM 4.14 39.452 0.279 7.39 10.51 12.48
1/2/2021 9:00:00 PM 4.09 39.362 0.274 7.41 9.6 12.5
1/2/2021 9:15:00 PM 4.03 39.254 0.271 7.39 9.89 12.52
1/2/2021 9:30:00 PM 3.98 39.164 0.27 7.37 9.71 12.53
1/2/2021 9:45:00 PM 3.93 39.074 0.269 7.4 9.54 12.55
1/2/2021 10:00:00 PM 3.88 38.984 0.267 7.41 9.48 12.55
1/2/2021 10:15:00 PM 3.84 38.912 0.267 7.4 9.15 12.56
1/2/2021 10:30:00 PM 3.8 38.84 0.266 7.39 8.72 12.57
1/2/2021 10:45:00 PM 3.78 38.804 0.269 7.39 9.03 12.56
1/2/2021 11:00:00 PM 3.76 38.768 0.269 7.4 9.01 12.55
1/2/2021 11:15:00 PM 3.73 38.714 0.268 7.36 8.98 12.56
1/2/2021 11:30:00 PM 3.69 38.642 0.266 7.4 8.49 12.58
1/2/2021 11:45:00 PM 3.64 38.552 0.264 7.39 8.56 12.61
1/3/2021 12:00:00 AM 3.58 38.444 0.261 7.4 8.04 12.63
1/3/2021 12:15:00 AM 3.54 38.372 0.261 7.36 7.87 12.65
1/3/2021 12:30:00 AM 3.49 38.282 0.259 7.38 7.83 12.67
1/3/2021 12:45:00 AM 3.45 38.21 0.258 7.4 7.73 12.68
1/3/2021 1:00:00 AM 3.42 38.156 0.257 7.37 7.84 12.7
1/3/2021 1:15:00 AM 3.38 38.084 0.256 7.38 7.36 12.71
1/3/2021 1:30:00 AM 3.35 38.03 0.257 7.39 7.63 12.72
1/3/2021 1:45:00 AM 3.32 37.976 0.257 7.4 7.36 12.73
1/3/2021 2:00:00 AM 3.3 37.94 0.255 7.37 7.41 12.74
1/3/2021 2:15:00 AM 3.29 37.922 0.255 7.38 7.3 12.75
1/3/2021 2:30:00 AM 3.28 37.904 0.254 7.4 7.12 12.75
1/3/2021 2:45:00 AM 3.28 37.904 0.256 7.4 7.15 12.75
1/3/2021 3:00:00 AM 3.28 37.904 0.256 7.41 6.72 12.74
1/3/2021 3:15:00 AM 3.29 37.922 0.258 7.37 6.73 12.73
1/3/2021 3:30:00 AM 3.29 37.922 0.258 7.4 6.67 12.73
1/3/2021 3:45:00 AM 3.29 37.922 0.256 7.38 6.67 12.74
1/3/2021 4:00:00 AM 3.27 37.886 0.253 7.4 6.75 12.76
1/3/2021 4:15:00 AM 3.26 37.868 0.251 7.39 6.64 12.77
1/3/2021 4:30:00 AM 3.26 37.868 0.25 7.39 6.42 12.78
1/3/2021 4:45:00 AM 3.26 37.868 0.249 7.4 6.44 12.78
1/3/2021 5:00:00 AM 3.26 37.868 0.249 7.41 6.43 12.79
1/3/2021 5:15:00 AM 3.26 37.868 0.248 7.38 6.52 12.79
1/3/2021 5:30:00 AM 3.26 37.868 0.246 7.41 6.33 12.79
1/3/2021 5:45:00 AM 3.27 37.886 0.247 7.42 6.08 12.78
1/3/2021 6:00:00 AM 3.29 37.922 0.249 7.38 6.04 12.77
1/3/2021 6:15:00 AM 3.32 37.976 0.25 7.41 5.91 12.76
1/3/2021 6:30:00 AM 3.34 38.012 0.25 7.41 6.05 12.75
1/3/2021 6:45:00 AM 3.35 38.03 0.248 7.41 5.83 12.75
1/3/2021 7:00:00 AM 3.34 38.012 0.246 7.42 5.69 12.76
1/3/2021 7:15:00 AM 3.33 37.994 0.245 7.4 5.79 12.